<?xml version="1.0" encoding="UTF-8" standalone="yes"?>
<?xml-stylesheet type="text/xsl" href="details.xsl"?>
<gpx
 version="1.1"
 creator="My Tracks running on HTC Desire"
 xmlns:xsi="http://www.w3.org/2001/XMLSchema-instance"
 xmlns="http://www.topografix.com/GPX/1/1"
 xmlns:topografix="http://www.topografix.com/GPX/Private/TopoGrafix/0/1" xsi:schemaLocation="http://www.topografix.com/GPX/1/1 http://www.topografix.com/GPX/1/1/gpx.xsd http://www.topografix.com/GPX/Private/TopoGrafix/0/1 http://www.topografix.com/GPX/Private/TopoGrafix/0/1/topografix.xsd">
<trk>
<name><![CDATA[Castellsapera]]></name>
<desc><![CDATA[]]></desc>
<number>8</number>
<extensions><topografix:color>c0c0c0</topografix:color></extensions>
<trkseg>
<trkpt lat="41.65242" lon="1.97613">
<ele>801</ele>
<time>2012-03-14T10:11:54Z</time>
</trkpt>
<trkpt lat="41.65242" lon="1.97613">
<ele>801</ele>
<time>2012-03-14T10:11:54Z</time>
</trkpt>
<trkpt lat="41.65242" lon="1.97613">
<ele>801</ele>
<time>2012-03-14T10:11:59Z</time>
</trkpt>
<trkpt lat="41.6524" lon="1.97619">
<ele>800</ele>
<time>2012-03-14T10:12:05Z</time>
</trkpt>
<trkpt lat="41.65238" lon="1.97625">
<ele>800</ele>
<time>2012-03-14T10:12:09Z</time>
</trkpt>
<trkpt lat="41.65238" lon="1.97632">
<ele>799</ele>
<time>2012-03-14T10:12:13Z</time>
</trkpt>
<trkpt lat="41.65242" lon="1.97638">
<ele>800</ele>
<time>2012-03-14T10:12:17Z</time>
</trkpt>
<trkpt lat="41.65243" lon="1.97646">
<ele>799</ele>
<time>2012-03-14T10:12:20Z</time>
</trkpt>
<trkpt lat="41.65247" lon="1.97652">
<ele>800</ele>
<time>2012-03-14T10:12:24Z</time>
</trkpt>
<trkpt lat="41.65248" lon="1.97659">
<ele>801</ele>
<time>2012-03-14T10:12:27Z</time>
</trkpt>
<trkpt lat="41.65251" lon="1.97664">
<ele>801</ele>
<time>2012-03-14T10:12:30Z</time>
</trkpt>
<trkpt lat="41.65254" lon="1.97669">
<ele>802</ele>
<time>2012-03-14T10:12:33Z</time>
</trkpt>
<trkpt lat="41.65253" lon="1.97676">
<ele>802</ele>
<time>2012-03-14T10:12:36Z</time>
</trkpt>
<trkpt lat="41.65248" lon="1.97678">
<ele>798</ele>
<time>2012-03-14T10:12:42Z</time>
</trkpt>
<trkpt lat="41.65244" lon="1.97673">
<ele>798</ele>
<time>2012-03-14T10:12:46Z</time>
</trkpt>
<trkpt lat="41.65241" lon="1.97668">
<ele>798</ele>
<time>2012-03-14T10:12:51Z</time>
</trkpt>
<trkpt lat="41.65237" lon="1.97663">
<ele>799</ele>
<time>2012-03-14T10:12:55Z</time>
</trkpt>
<trkpt lat="41.65234" lon="1.97657">
<ele>799</ele>
<time>2012-03-14T10:13:02Z</time>
</trkpt>
<trkpt lat="41.6523" lon="1.97653">
<ele>800</ele>
<time>2012-03-14T10:13:05Z</time>
</trkpt>
<trkpt lat="41.65224" lon="1.97649">
<ele>801</ele>
<time>2012-03-14T10:13:08Z</time>
</trkpt>
<trkpt lat="41.65221" lon="1.97643">
<ele>801</ele>
<time>2012-03-14T10:13:12Z</time>
</trkpt>
<trkpt lat="41.65218" lon="1.97638">
<ele>802</ele>
<time>2012-03-14T10:13:16Z</time>
</trkpt>
<trkpt lat="41.65215" lon="1.97632">
<ele>802</ele>
<time>2012-03-14T10:13:20Z</time>
</trkpt>
<trkpt lat="41.65211" lon="1.97627">
<ele>804</ele>
<time>2012-03-14T10:13:24Z</time>
</trkpt>
<trkpt lat="41.65209" lon="1.9762">
<ele>805</ele>
<time>2012-03-14T10:13:28Z</time>
</trkpt>
<trkpt lat="41.65206" lon="1.97616">
<ele>805</ele>
<time>2012-03-14T10:13:32Z</time>
</trkpt>
<trkpt lat="41.65201" lon="1.97612">
<ele>805</ele>
<time>2012-03-14T10:13:35Z</time>
</trkpt>
<trkpt lat="41.65198" lon="1.97607">
<ele>805</ele>
<time>2012-03-14T10:13:39Z</time>
</trkpt>
<trkpt lat="41.65194" lon="1.97603">
<ele>806</ele>
<time>2012-03-14T10:13:43Z</time>
</trkpt>
<trkpt lat="41.65193" lon="1.97596">
<ele>808</ele>
<time>2012-03-14T10:13:48Z</time>
</trkpt>
<trkpt lat="41.65188" lon="1.97592">
<ele>810</ele>
<time>2012-03-14T10:13:53Z</time>
</trkpt>
<trkpt lat="41.65185" lon="1.97586">
<ele>811</ele>
<time>2012-03-14T10:13:57Z</time>
</trkpt>
<trkpt lat="41.65181" lon="1.97584">
<ele>811</ele>
<time>2012-03-14T10:14:02Z</time>
</trkpt>
<trkpt lat="41.65181" lon="1.97584">
<ele>811</ele>
<time>2012-03-14T10:14:02Z</time>
</trkpt>
<trkpt lat="41.65181" lon="1.97584">
<ele>811</ele>
<time>2012-03-14T10:14:08Z</time>
</trkpt>
<trkpt lat="41.65176" lon="1.97575">
<ele>813</ele>
<time>2012-03-14T10:14:18Z</time>
</trkpt>
<trkpt lat="41.65171" lon="1.9757">
<ele>815</ele>
<time>2012-03-14T10:14:20Z</time>
</trkpt>
<trkpt lat="41.65166" lon="1.97569">
<ele>814</ele>
<time>2012-03-14T10:14:22Z</time>
</trkpt>
<trkpt lat="41.65162" lon="1.97563">
<ele>814</ele>
<time>2012-03-14T10:14:25Z</time>
</trkpt>
<trkpt lat="41.65157" lon="1.97558">
<ele>814</ele>
<time>2012-03-14T10:14:28Z</time>
</trkpt>
<trkpt lat="41.65154" lon="1.97552">
<ele>815</ele>
<time>2012-03-14T10:14:32Z</time>
</trkpt>
<trkpt lat="41.65151" lon="1.97546">
<ele>815</ele>
<time>2012-03-14T10:14:36Z</time>
</trkpt>
<trkpt lat="41.65148" lon="1.97541">
<ele>817</ele>
<time>2012-03-14T10:14:40Z</time>
</trkpt>
<trkpt lat="41.65144" lon="1.97537">
<ele>819</ele>
<time>2012-03-14T10:14:44Z</time>
</trkpt>
<trkpt lat="41.65142" lon="1.97531">
<ele>821</ele>
<time>2012-03-14T10:14:48Z</time>
</trkpt>
<trkpt lat="41.65139" lon="1.97526">
<ele>823</ele>
<time>2012-03-14T10:14:53Z</time>
</trkpt>
<trkpt lat="41.65137" lon="1.9752">
<ele>826</ele>
<time>2012-03-14T10:15:01Z</time>
</trkpt>
<trkpt lat="41.65135" lon="1.97514">
<ele>825</ele>
<time>2012-03-14T10:15:06Z</time>
</trkpt>
<trkpt lat="41.65133" lon="1.97508">
<ele>827</ele>
<time>2012-03-14T10:15:12Z</time>
</trkpt>
<trkpt lat="41.65127" lon="1.97504">
<ele>828</ele>
<time>2012-03-14T10:15:20Z</time>
</trkpt>
<trkpt lat="41.65122" lon="1.97502">
<ele>827</ele>
<time>2012-03-14T10:15:27Z</time>
</trkpt>
<trkpt lat="41.65122" lon="1.97494">
<ele>829</ele>
<time>2012-03-14T10:15:30Z</time>
</trkpt>
<trkpt lat="41.6512" lon="1.97488">
<ele>830</ele>
<time>2012-03-14T10:15:32Z</time>
</trkpt>
<trkpt lat="41.65119" lon="1.97482">
<ele>831</ele>
<time>2012-03-14T10:15:35Z</time>
</trkpt>
<trkpt lat="41.65118" lon="1.97475">
<ele>832</ele>
<time>2012-03-14T10:15:38Z</time>
</trkpt>
<trkpt lat="41.65114" lon="1.97471">
<ele>833</ele>
<time>2012-03-14T10:15:42Z</time>
</trkpt>
<trkpt lat="41.65107" lon="1.9747">
<ele>833</ele>
<time>2012-03-14T10:15:47Z</time>
</trkpt>
<trkpt lat="41.65105" lon="1.97464">
<ele>834</ele>
<time>2012-03-14T10:15:52Z</time>
</trkpt>
<trkpt lat="41.65102" lon="1.97456">
<ele>834</ele>
<time>2012-03-14T10:15:57Z</time>
</trkpt>
<trkpt lat="41.65099" lon="1.9745">
<ele>836</ele>
<time>2012-03-14T10:16:02Z</time>
</trkpt>
<trkpt lat="41.65098" lon="1.97444">
<ele>835</ele>
<time>2012-03-14T10:16:06Z</time>
</trkpt>
<trkpt lat="41.65095" lon="1.97437">
<ele>836</ele>
<time>2012-03-14T10:16:11Z</time>
</trkpt>
<trkpt lat="41.65093" lon="1.97431">
<ele>840</ele>
<time>2012-03-14T10:16:13Z</time>
</trkpt>
<trkpt lat="41.65094" lon="1.97423">
<ele>841</ele>
<time>2012-03-14T10:16:17Z</time>
</trkpt>
<trkpt lat="41.65094" lon="1.97416">
<ele>842</ele>
<time>2012-03-14T10:16:21Z</time>
</trkpt>
<trkpt lat="41.65091" lon="1.9741">
<ele>843</ele>
<time>2012-03-14T10:16:26Z</time>
</trkpt>
<trkpt lat="41.65085" lon="1.97406">
<ele>844</ele>
<time>2012-03-14T10:16:30Z</time>
</trkpt>
<trkpt lat="41.65081" lon="1.97408">
<ele>843</ele>
<time>2012-03-14T10:16:32Z</time>
</trkpt>
<trkpt lat="41.65076" lon="1.9741">
<ele>843</ele>
<time>2012-03-14T10:16:35Z</time>
</trkpt>
<trkpt lat="41.65079" lon="1.97414">
<ele>844</ele>
<time>2012-03-14T10:16:49Z</time>
</trkpt>
<trkpt lat="41.65077" lon="1.97421">
<ele>845</ele>
<time>2012-03-14T10:16:51Z</time>
</trkpt>
<trkpt lat="41.65077" lon="1.97434">
<ele>847</ele>
<time>2012-03-14T10:16:56Z</time>
</trkpt>
<trkpt lat="41.65077" lon="1.97441">
<ele>847</ele>
<time>2012-03-14T10:16:58Z</time>
</trkpt>
<trkpt lat="41.65076" lon="1.97454">
<ele>848</ele>
<time>2012-03-14T10:17:05Z</time>
</trkpt>
<trkpt lat="41.6507" lon="1.97474">
<ele>849</ele>
<time>2012-03-14T10:17:11Z</time>
</trkpt>
<trkpt lat="41.65066" lon="1.97479">
<ele>849</ele>
<time>2012-03-14T10:17:12Z</time>
</trkpt>
<trkpt lat="41.65062" lon="1.97485">
<ele>851</ele>
<time>2012-03-14T10:17:14Z</time>
</trkpt>
<trkpt lat="41.65067" lon="1.97486">
<ele>851</ele>
<time>2012-03-14T10:17:18Z</time>
</trkpt>
<trkpt lat="41.65069" lon="1.97492">
<ele>851</ele>
<time>2012-03-14T10:17:23Z</time>
</trkpt>
<trkpt lat="41.65071" lon="1.97496">
<ele>854</ele>
<time>2012-03-14T10:17:27Z</time>
</trkpt>
<trkpt lat="41.6507" lon="1.97502">
<ele>856</ele>
<time>2012-03-14T10:17:30Z</time>
</trkpt>
<trkpt lat="41.6507" lon="1.97509">
<ele>856</ele>
<time>2012-03-14T10:17:34Z</time>
</trkpt>
<trkpt lat="41.65074" lon="1.97515">
<ele>859</ele>
<time>2012-03-14T10:17:38Z</time>
</trkpt>
<trkpt lat="41.65076" lon="1.9752">
<ele>860</ele>
<time>2012-03-14T10:17:41Z</time>
</trkpt>
<trkpt lat="41.65076" lon="1.97526">
<ele>860</ele>
<time>2012-03-14T10:17:44Z</time>
</trkpt>
<trkpt lat="41.65077" lon="1.97532">
<ele>861</ele>
<time>2012-03-14T10:17:47Z</time>
</trkpt>
<trkpt lat="41.65078" lon="1.97539">
<ele>862</ele>
<time>2012-03-14T10:17:51Z</time>
</trkpt>
<trkpt lat="41.65078" lon="1.97548">
<ele>864</ele>
<time>2012-03-14T10:17:56Z</time>
</trkpt>
<trkpt lat="41.65077" lon="1.97554">
<ele>865</ele>
<time>2012-03-14T10:18:00Z</time>
</trkpt>
<trkpt lat="41.65071" lon="1.97554">
<ele>864</ele>
<time>2012-03-14T10:18:04Z</time>
</trkpt>
<trkpt lat="41.65067" lon="1.9755">
<ele>864</ele>
<time>2012-03-14T10:18:07Z</time>
</trkpt>
<trkpt lat="41.65064" lon="1.97545">
<ele>863</ele>
<time>2012-03-14T10:18:13Z</time>
</trkpt>
<trkpt lat="41.65061" lon="1.97539">
<ele>863</ele>
<time>2012-03-14T10:18:19Z</time>
</trkpt>
<trkpt lat="41.65058" lon="1.97533">
<ele>864</ele>
<time>2012-03-14T10:18:22Z</time>
</trkpt>
<trkpt lat="41.65055" lon="1.97525">
<ele>866</ele>
<time>2012-03-14T10:18:25Z</time>
</trkpt>
<trkpt lat="41.65054" lon="1.97518">
<ele>865</ele>
<time>2012-03-14T10:18:30Z</time>
</trkpt>
<trkpt lat="41.6505" lon="1.97515">
<ele>865</ele>
<time>2012-03-14T10:18:34Z</time>
</trkpt>
<trkpt lat="41.65048" lon="1.97508">
<ele>867</ele>
<time>2012-03-14T10:18:38Z</time>
</trkpt>
<trkpt lat="41.65046" lon="1.97502">
<ele>869</ele>
<time>2012-03-14T10:18:42Z</time>
</trkpt>
<trkpt lat="41.65044" lon="1.97496">
<ele>868</ele>
<time>2012-03-14T10:18:46Z</time>
</trkpt>
<trkpt lat="41.6504" lon="1.9749">
<ele>871</ele>
<time>2012-03-14T10:18:51Z</time>
</trkpt>
<trkpt lat="41.65037" lon="1.97483">
<ele>872</ele>
<time>2012-03-14T10:18:56Z</time>
</trkpt>
<trkpt lat="41.65034" lon="1.97478">
<ele>874</ele>
<time>2012-03-14T10:19:00Z</time>
</trkpt>
<trkpt lat="41.65028" lon="1.97474">
<ele>875</ele>
<time>2012-03-14T10:19:05Z</time>
</trkpt>
<trkpt lat="41.65023" lon="1.97471">
<ele>875</ele>
<time>2012-03-14T10:19:08Z</time>
</trkpt>
<trkpt lat="41.65017" lon="1.97468">
<ele>874</ele>
<time>2012-03-14T10:19:12Z</time>
</trkpt>
<trkpt lat="41.65012" lon="1.97467">
<ele>874</ele>
<time>2012-03-14T10:19:15Z</time>
</trkpt>
<trkpt lat="41.65008" lon="1.97464">
<ele>874</ele>
<time>2012-03-14T10:19:18Z</time>
</trkpt>
<trkpt lat="41.65003" lon="1.97462">
<ele>874</ele>
<time>2012-03-14T10:19:22Z</time>
</trkpt>
<trkpt lat="41.64996" lon="1.97462">
<ele>874</ele>
<time>2012-03-14T10:19:26Z</time>
</trkpt>
<trkpt lat="41.64992" lon="1.97461">
<ele>875</ele>
<time>2012-03-14T10:19:29Z</time>
</trkpt>
<trkpt lat="41.64986" lon="1.97458">
<ele>877</ele>
<time>2012-03-14T10:19:33Z</time>
</trkpt>
<trkpt lat="41.64981" lon="1.97458">
<ele>877</ele>
<time>2012-03-14T10:19:37Z</time>
</trkpt>
<trkpt lat="41.64976" lon="1.97455">
<ele>877</ele>
<time>2012-03-14T10:19:41Z</time>
</trkpt>
<trkpt lat="41.64973" lon="1.9745">
<ele>876</ele>
<time>2012-03-14T10:19:44Z</time>
</trkpt>
<trkpt lat="41.64972" lon="1.97444">
<ele>876</ele>
<time>2012-03-14T10:19:47Z</time>
</trkpt>
<trkpt lat="41.64971" lon="1.97437">
<ele>876</ele>
<time>2012-03-14T10:19:50Z</time>
</trkpt>
<trkpt lat="41.6497" lon="1.97431">
<ele>876</ele>
<time>2012-03-14T10:19:54Z</time>
</trkpt>
<trkpt lat="41.64967" lon="1.97424">
<ele>875</ele>
<time>2012-03-14T10:19:59Z</time>
</trkpt>
<trkpt lat="41.64964" lon="1.9742">
<ele>875</ele>
<time>2012-03-14T10:20:03Z</time>
</trkpt>
<trkpt lat="41.64959" lon="1.97421">
<ele>875</ele>
<time>2012-03-14T10:20:06Z</time>
</trkpt>
<trkpt lat="41.64954" lon="1.97422">
<ele>875</ele>
<time>2012-03-14T10:20:07Z</time>
</trkpt>
<trkpt lat="41.6495" lon="1.97425">
<ele>875</ele>
<time>2012-03-14T10:20:11Z</time>
</trkpt>
<trkpt lat="41.64945" lon="1.97429">
<ele>876</ele>
<time>2012-03-14T10:20:14Z</time>
</trkpt>
<trkpt lat="41.64942" lon="1.97435">
<ele>877</ele>
<time>2012-03-14T10:20:17Z</time>
</trkpt>
<trkpt lat="41.64939" lon="1.9744">
<ele>877</ele>
<time>2012-03-14T10:20:20Z</time>
</trkpt>
<trkpt lat="41.64937" lon="1.97446">
<ele>877</ele>
<time>2012-03-14T10:20:25Z</time>
</trkpt>
<trkpt lat="41.64934" lon="1.97451">
<ele>877</ele>
<time>2012-03-14T10:20:28Z</time>
</trkpt>
<trkpt lat="41.6493" lon="1.97454">
<ele>877</ele>
<time>2012-03-14T10:20:31Z</time>
</trkpt>
<trkpt lat="41.64927" lon="1.97461">
<ele>876</ele>
<time>2012-03-14T10:20:34Z</time>
</trkpt>
<trkpt lat="41.64924" lon="1.97467">
<ele>877</ele>
<time>2012-03-14T10:20:38Z</time>
</trkpt>
<trkpt lat="41.64921" lon="1.97473">
<ele>876</ele>
<time>2012-03-14T10:20:42Z</time>
</trkpt>
<trkpt lat="41.64917" lon="1.97476">
<ele>876</ele>
<time>2012-03-14T10:20:53Z</time>
</trkpt>
<trkpt lat="41.6491" lon="1.97479">
<ele>876</ele>
<time>2012-03-14T10:21:08Z</time>
</trkpt>
<trkpt lat="41.64905" lon="1.9748">
<ele>876</ele>
<time>2012-03-14T10:21:10Z</time>
</trkpt>
<trkpt lat="41.64905" lon="1.9748">
<ele>876</ele>
<time>2012-03-14T10:21:10Z</time>
</trkpt>
<trkpt lat="41.64905" lon="1.9748">
<ele>876</ele>
<time>2012-03-14T10:21:12Z</time>
</trkpt>
<trkpt lat="41.649" lon="1.97481">
<ele>876</ele>
<time>2012-03-14T10:21:20Z</time>
</trkpt>
<trkpt lat="41.649" lon="1.97481">
<ele>876</ele>
<time>2012-03-14T10:21:20Z</time>
</trkpt>
<trkpt lat="41.649" lon="1.97481">
<ele>876</ele>
<time>2012-03-14T10:21:21Z</time>
</trkpt>
<trkpt lat="41.64896" lon="1.97478">
<ele>878</ele>
<time>2012-03-14T10:21:27Z</time>
</trkpt>
<trkpt lat="41.6489" lon="1.97474">
<ele>879</ele>
<time>2012-03-14T10:21:29Z</time>
</trkpt>
<trkpt lat="41.64884" lon="1.97471">
<ele>880</ele>
<time>2012-03-14T10:21:31Z</time>
</trkpt>
<trkpt lat="41.64878" lon="1.97471">
<ele>882</ele>
<time>2012-03-14T10:21:34Z</time>
</trkpt>
<trkpt lat="41.64873" lon="1.97465">
<ele>883</ele>
<time>2012-03-14T10:21:38Z</time>
</trkpt>
<trkpt lat="41.64867" lon="1.97463">
<ele>883</ele>
<time>2012-03-14T10:21:41Z</time>
</trkpt>
<trkpt lat="41.64864" lon="1.97458">
<ele>885</ele>
<time>2012-03-14T10:21:46Z</time>
</trkpt>
<trkpt lat="41.6486" lon="1.97454">
<ele>885</ele>
<time>2012-03-14T10:21:51Z</time>
</trkpt>
<trkpt lat="41.64857" lon="1.97447">
<ele>884</ele>
<time>2012-03-14T10:21:55Z</time>
</trkpt>
<trkpt lat="41.64853" lon="1.97443">
<ele>886</ele>
<time>2012-03-14T10:22:03Z</time>
</trkpt>
<trkpt lat="41.6485" lon="1.97438">
<ele>886</ele>
<time>2012-03-14T10:22:08Z</time>
</trkpt>
<trkpt lat="41.64844" lon="1.97433">
<ele>885</ele>
<time>2012-03-14T10:22:10Z</time>
</trkpt>
<trkpt lat="41.6484" lon="1.97428">
<ele>885</ele>
<time>2012-03-14T10:22:11Z</time>
</trkpt>
<trkpt lat="41.64836" lon="1.97423">
<ele>886</ele>
<time>2012-03-14T10:22:15Z</time>
</trkpt>
<trkpt lat="41.64831" lon="1.9742">
<ele>887</ele>
<time>2012-03-14T10:22:22Z</time>
</trkpt>
<trkpt lat="41.64827" lon="1.97414">
<ele>889</ele>
<time>2012-03-14T10:22:27Z</time>
</trkpt>
<trkpt lat="41.64818" lon="1.97403">
<ele>887</ele>
<time>2012-03-14T10:22:44Z</time>
</trkpt>
<trkpt lat="41.64816" lon="1.97396">
<ele>885</ele>
<time>2012-03-14T10:22:47Z</time>
</trkpt>
<trkpt lat="41.64813" lon="1.97388">
<ele>888</ele>
<time>2012-03-14T10:22:56Z</time>
</trkpt>
<trkpt lat="41.64809" lon="1.97384">
<ele>890</ele>
<time>2012-03-14T10:23:05Z</time>
</trkpt>
<trkpt lat="41.64805" lon="1.9738">
<ele>889</ele>
<time>2012-03-14T10:23:08Z</time>
</trkpt>
<trkpt lat="41.64798" lon="1.97376">
<ele>890</ele>
<time>2012-03-14T10:23:13Z</time>
</trkpt>
<trkpt lat="41.64796" lon="1.9737">
<ele>891</ele>
<time>2012-03-14T10:23:19Z</time>
</trkpt>
<trkpt lat="41.64791" lon="1.97368">
<ele>892</ele>
<time>2012-03-14T10:23:23Z</time>
</trkpt>
<trkpt lat="41.64786" lon="1.97367">
<ele>894</ele>
<time>2012-03-14T10:23:25Z</time>
</trkpt>
<trkpt lat="41.6478" lon="1.97365">
<ele>894</ele>
<time>2012-03-14T10:23:28Z</time>
</trkpt>
<trkpt lat="41.64775" lon="1.97361">
<ele>897</ele>
<time>2012-03-14T10:23:31Z</time>
</trkpt>
<trkpt lat="41.64771" lon="1.97358">
<ele>898</ele>
<time>2012-03-14T10:23:34Z</time>
</trkpt>
<trkpt lat="41.64767" lon="1.97354">
<ele>898</ele>
<time>2012-03-14T10:23:38Z</time>
</trkpt>
<trkpt lat="41.64766" lon="1.97348">
<ele>900</ele>
<time>2012-03-14T10:23:44Z</time>
</trkpt>
<trkpt lat="41.64765" lon="1.97341">
<ele>900</ele>
<time>2012-03-14T10:23:47Z</time>
</trkpt>
<trkpt lat="41.64762" lon="1.97336">
<ele>900</ele>
<time>2012-03-14T10:23:50Z</time>
</trkpt>
<trkpt lat="41.64762" lon="1.9733">
<ele>901</ele>
<time>2012-03-14T10:23:55Z</time>
</trkpt>
<trkpt lat="41.6476" lon="1.97322">
<ele>902</ele>
<time>2012-03-14T10:24:00Z</time>
</trkpt>
<trkpt lat="41.64756" lon="1.97316">
<ele>902</ele>
<time>2012-03-14T10:24:04Z</time>
</trkpt>
<trkpt lat="41.64754" lon="1.97309">
<ele>901</ele>
<time>2012-03-14T10:24:07Z</time>
</trkpt>
<trkpt lat="41.6475" lon="1.97304">
<ele>901</ele>
<time>2012-03-14T10:24:11Z</time>
</trkpt>
<trkpt lat="41.6475" lon="1.97304">
<ele>901</ele>
<time>2012-03-14T10:24:11Z</time>
</trkpt>
<trkpt lat="41.6475" lon="1.97304">
<ele>901</ele>
<time>2012-03-14T10:24:12Z</time>
</trkpt>
<trkpt lat="41.64747" lon="1.97298">
<ele>902</ele>
<time>2012-03-14T10:24:19Z</time>
</trkpt>
<trkpt lat="41.64746" lon="1.97292">
<ele>905</ele>
<time>2012-03-14T10:24:26Z</time>
</trkpt>
<trkpt lat="41.64746" lon="1.97286">
<ele>906</ele>
<time>2012-03-14T10:24:34Z</time>
</trkpt>
<trkpt lat="41.64747" lon="1.97279">
<ele>906</ele>
<time>2012-03-14T10:24:41Z</time>
</trkpt>
<trkpt lat="41.64748" lon="1.97273">
<ele>908</ele>
<time>2012-03-14T10:24:48Z</time>
</trkpt>
<trkpt lat="41.64747" lon="1.97266">
<ele>909</ele>
<time>2012-03-14T10:24:54Z</time>
</trkpt>
<trkpt lat="41.64744" lon="1.97261">
<ele>910</ele>
<time>2012-03-14T10:24:57Z</time>
</trkpt>
<trkpt lat="41.6474" lon="1.97257">
<ele>911</ele>
<time>2012-03-14T10:25:02Z</time>
</trkpt>
<trkpt lat="41.64737" lon="1.9725">
<ele>912</ele>
<time>2012-03-14T10:25:10Z</time>
</trkpt>
<trkpt lat="41.64736" lon="1.97244">
<ele>915</ele>
<time>2012-03-14T10:25:25Z</time>
</trkpt>
<trkpt lat="41.64736" lon="1.97244">
<ele>915</ele>
<time>2012-03-14T10:25:25Z</time>
</trkpt>
<trkpt lat="41.64736" lon="1.97244">
<ele>916</ele>
<time>2012-03-14T10:27:06Z</time>
</trkpt>
<trkpt lat="41.6473" lon="1.9724">
<ele>916</ele>
<time>2012-03-14T10:28:09Z</time>
</trkpt>
<trkpt lat="41.64725" lon="1.97236">
<ele>915</ele>
<time>2012-03-14T10:28:11Z</time>
</trkpt>
<trkpt lat="41.64717" lon="1.97233">
<ele>916</ele>
<time>2012-03-14T10:28:13Z</time>
</trkpt>
<trkpt lat="41.64712" lon="1.97229">
<ele>917</ele>
<time>2012-03-14T10:28:15Z</time>
</trkpt>
<trkpt lat="41.64706" lon="1.97226">
<ele>918</ele>
<time>2012-03-14T10:28:17Z</time>
</trkpt>
<trkpt lat="41.64704" lon="1.97221">
<ele>919</ele>
<time>2012-03-14T10:28:19Z</time>
</trkpt>
<trkpt lat="41.64699" lon="1.97215">
<ele>919</ele>
<time>2012-03-14T10:28:22Z</time>
</trkpt>
<trkpt lat="41.64694" lon="1.9721">
<ele>920</ele>
<time>2012-03-14T10:28:27Z</time>
</trkpt>
<trkpt lat="41.64689" lon="1.97207">
<ele>922</ele>
<time>2012-03-14T10:28:29Z</time>
</trkpt>
<trkpt lat="41.64685" lon="1.97203">
<ele>924</ele>
<time>2012-03-14T10:28:35Z</time>
</trkpt>
<trkpt lat="41.6468" lon="1.972">
<ele>928</ele>
<time>2012-03-14T10:28:39Z</time>
</trkpt>
<trkpt lat="41.64674" lon="1.97199">
<ele>928</ele>
<time>2012-03-14T10:28:46Z</time>
</trkpt>
<trkpt lat="41.6467" lon="1.97198">
<ele>929</ele>
<time>2012-03-14T10:28:49Z</time>
</trkpt>
<trkpt lat="41.64663" lon="1.97197">
<ele>931</ele>
<time>2012-03-14T10:28:53Z</time>
</trkpt>
<trkpt lat="41.64658" lon="1.972">
<ele>935</ele>
<time>2012-03-14T10:28:58Z</time>
</trkpt>
<trkpt lat="41.64655" lon="1.97204">
<ele>936</ele>
<time>2012-03-14T10:29:02Z</time>
</trkpt>
<trkpt lat="41.64651" lon="1.97208">
<ele>937</ele>
<time>2012-03-14T10:29:06Z</time>
</trkpt>
<trkpt lat="41.64647" lon="1.97211">
<ele>937</ele>
<time>2012-03-14T10:29:10Z</time>
</trkpt>
<trkpt lat="41.64642" lon="1.97211">
<ele>937</ele>
<time>2012-03-14T10:29:15Z</time>
</trkpt>
<trkpt lat="41.64637" lon="1.97211">
<ele>936</ele>
<time>2012-03-14T10:29:19Z</time>
</trkpt>
<trkpt lat="41.64634" lon="1.97216">
<ele>936</ele>
<time>2012-03-14T10:29:25Z</time>
</trkpt>
<trkpt lat="41.64628" lon="1.97218">
<ele>935</ele>
<time>2012-03-14T10:29:30Z</time>
</trkpt>
<trkpt lat="41.64624" lon="1.97216">
<ele>935</ele>
<time>2012-03-14T10:29:42Z</time>
</trkpt>
<trkpt lat="41.64624" lon="1.97216">
<ele>935</ele>
<time>2012-03-14T10:29:42Z</time>
</trkpt>
<trkpt lat="41.64624" lon="1.97216">
<ele>936</ele>
<time>2012-03-14T10:29:45Z</time>
</trkpt>
<trkpt lat="41.64616" lon="1.97221">
<ele>937</ele>
<time>2012-03-14T10:30:00Z</time>
</trkpt>
<trkpt lat="41.64611" lon="1.97222">
<ele>937</ele>
<time>2012-03-14T10:30:03Z</time>
</trkpt>
<trkpt lat="41.64604" lon="1.97224">
<ele>936</ele>
<time>2012-03-14T10:30:05Z</time>
</trkpt>
<trkpt lat="41.64599" lon="1.97224">
<ele>938</ele>
<time>2012-03-14T10:30:08Z</time>
</trkpt>
<trkpt lat="41.64594" lon="1.97222">
<ele>937</ele>
<time>2012-03-14T10:30:11Z</time>
</trkpt>
<trkpt lat="41.64588" lon="1.97219">
<ele>938</ele>
<time>2012-03-14T10:30:16Z</time>
</trkpt>
<trkpt lat="41.64583" lon="1.97215">
<ele>940</ele>
<time>2012-03-14T10:30:23Z</time>
</trkpt>
<trkpt lat="41.6458" lon="1.97209">
<ele>942</ele>
<time>2012-03-14T10:30:28Z</time>
</trkpt>
<trkpt lat="41.64577" lon="1.97202">
<ele>942</ele>
<time>2012-03-14T10:30:35Z</time>
</trkpt>
<trkpt lat="41.64574" lon="1.97196">
<ele>942</ele>
<time>2012-03-14T10:30:39Z</time>
</trkpt>
<trkpt lat="41.6457" lon="1.9719">
<ele>942</ele>
<time>2012-03-14T10:30:44Z</time>
</trkpt>
<trkpt lat="41.64569" lon="1.97184">
<ele>942</ele>
<time>2012-03-14T10:30:47Z</time>
</trkpt>
<trkpt lat="41.64564" lon="1.97181">
<ele>942</ele>
<time>2012-03-14T10:30:51Z</time>
</trkpt>
<trkpt lat="41.64559" lon="1.97182">
<ele>942</ele>
<time>2012-03-14T10:30:57Z</time>
</trkpt>
<trkpt lat="41.64554" lon="1.97182">
<ele>942</ele>
<time>2012-03-14T10:30:59Z</time>
</trkpt>
<trkpt lat="41.64554" lon="1.97173">
<ele>942</ele>
<time>2012-03-14T10:31:04Z</time>
</trkpt>
<trkpt lat="41.6455" lon="1.97172">
<ele>942</ele>
<time>2012-03-14T10:31:08Z</time>
</trkpt>
<trkpt lat="41.64546" lon="1.97168">
<ele>942</ele>
<time>2012-03-14T10:31:11Z</time>
</trkpt>
<trkpt lat="41.64545" lon="1.97161">
<ele>943</ele>
<time>2012-03-14T10:31:15Z</time>
</trkpt>
<trkpt lat="41.64537" lon="1.97149">
<ele>944</ele>
<time>2012-03-14T10:32:05Z</time>
</trkpt>
<trkpt lat="41.64531" lon="1.97143">
<ele>944</ele>
<time>2012-03-14T10:32:06Z</time>
</trkpt>
<trkpt lat="41.64523" lon="1.97142">
<ele>945</ele>
<time>2012-03-14T10:32:08Z</time>
</trkpt>
<trkpt lat="41.64515" lon="1.97143">
<ele>945</ele>
<time>2012-03-14T10:32:09Z</time>
</trkpt>
<trkpt lat="41.64509" lon="1.97137">
<ele>945</ele>
<time>2012-03-14T10:32:11Z</time>
</trkpt>
<trkpt lat="41.64506" lon="1.97133">
<ele>945</ele>
<time>2012-03-14T10:32:13Z</time>
</trkpt>
<trkpt lat="41.64498" lon="1.9713">
<ele>945</ele>
<time>2012-03-14T10:32:15Z</time>
</trkpt>
<trkpt lat="41.64493" lon="1.97125">
<ele>947</ele>
<time>2012-03-14T10:32:17Z</time>
</trkpt>
<trkpt lat="41.64489" lon="1.97123">
<ele>947</ele>
<time>2012-03-14T10:32:20Z</time>
</trkpt>
<trkpt lat="41.64485" lon="1.97118">
<ele>947</ele>
<time>2012-03-14T10:32:24Z</time>
</trkpt>
<trkpt lat="41.6448" lon="1.97117">
<ele>952</ele>
<time>2012-03-14T10:32:37Z</time>
</trkpt>
<trkpt lat="41.64477" lon="1.97111">
<ele>954</ele>
<time>2012-03-14T10:32:51Z</time>
</trkpt>
<trkpt lat="41.6447" lon="1.9711">
<ele>953</ele>
<time>2012-03-14T10:34:18Z</time>
</trkpt>
<trkpt lat="41.64464" lon="1.97106">
<ele>953</ele>
<time>2012-03-14T10:34:19Z</time>
</trkpt>
<trkpt lat="41.64456" lon="1.97102">
<ele>956</ele>
<time>2012-03-14T10:34:20Z</time>
</trkpt>
<trkpt lat="41.64452" lon="1.97096">
<ele>961</ele>
<time>2012-03-14T10:34:22Z</time>
</trkpt>
<trkpt lat="41.64449" lon="1.97089">
<ele>967</ele>
<time>2012-03-14T10:34:25Z</time>
</trkpt>
<trkpt lat="41.64453" lon="1.97086">
<ele>972</ele>
<time>2012-03-14T10:34:30Z</time>
</trkpt>
<trkpt lat="41.64456" lon="1.97091">
<ele>979</ele>
<time>2012-03-14T10:34:41Z</time>
</trkpt>
<trkpt lat="41.6446" lon="1.97096">
<ele>980</ele>
<time>2012-03-14T10:34:45Z</time>
</trkpt>
<trkpt lat="41.64464" lon="1.97101">
<ele>983</ele>
<time>2012-03-14T10:34:50Z</time>
</trkpt>
<trkpt lat="41.64468" lon="1.97106">
<ele>983</ele>
<time>2012-03-14T10:34:53Z</time>
</trkpt>
<trkpt lat="41.64464" lon="1.97101">
<ele>986</ele>
<time>2012-03-14T10:35:08Z</time>
</trkpt>
<trkpt lat="41.6446" lon="1.97095">
<ele>988</ele>
<time>2012-03-14T10:35:11Z</time>
</trkpt>
<trkpt lat="41.64457" lon="1.9709">
<ele>988</ele>
<time>2012-03-14T10:35:14Z</time>
</trkpt>
<trkpt lat="41.64453" lon="1.97084">
<ele>987</ele>
<time>2012-03-14T10:35:18Z</time>
</trkpt>
<trkpt lat="41.64449" lon="1.9708">
<ele>986</ele>
<time>2012-03-14T10:35:22Z</time>
</trkpt>
<trkpt lat="41.64444" lon="1.97076">
<ele>986</ele>
<time>2012-03-14T10:35:26Z</time>
</trkpt>
<trkpt lat="41.64442" lon="1.9707">
<ele>985</ele>
<time>2012-03-14T10:35:34Z</time>
</trkpt>
<trkpt lat="41.64436" lon="1.9707">
<ele>984</ele>
<time>2012-03-14T10:35:48Z</time>
</trkpt>
<trkpt lat="41.6444" lon="1.97066">
<ele>985</ele>
<time>2012-03-14T10:36:03Z</time>
</trkpt>
<trkpt lat="41.64442" lon="1.97072">
<ele>984</ele>
<time>2012-03-14T10:36:25Z</time>
</trkpt>
<trkpt lat="41.64442" lon="1.97072">
<ele>984</ele>
<time>2012-03-14T10:36:25Z</time>
</trkpt>
<trkpt lat="41.64442" lon="1.97072">
<ele>985</ele>
<time>2012-03-14T10:36:28Z</time>
</trkpt>
<trkpt lat="41.64445" lon="1.97075">
<ele>988</ele>
<time>2012-03-14T10:36:37Z</time>
</trkpt>
<trkpt lat="41.64448" lon="1.97082">
<ele>987</ele>
<time>2012-03-14T10:36:42Z</time>
</trkpt>
<trkpt lat="41.64447" lon="1.97088">
<ele>989</ele>
<time>2012-03-14T10:36:45Z</time>
</trkpt>
<trkpt lat="41.64444" lon="1.97092">
<ele>988</ele>
<time>2012-03-14T10:36:50Z</time>
</trkpt>
<trkpt lat="41.64436" lon="1.97086">
<ele>987</ele>
<time>2012-03-14T10:38:55Z</time>
</trkpt>
<trkpt lat="41.64433" lon="1.97081">
<ele>986</ele>
<time>2012-03-14T10:39:00Z</time>
</trkpt>
<trkpt lat="41.64427" lon="1.97076">
<ele>986</ele>
<time>2012-03-14T10:39:11Z</time>
</trkpt>
<trkpt lat="41.64424" lon="1.9707">
<ele>985</ele>
<time>2012-03-14T10:39:13Z</time>
</trkpt>
<trkpt lat="41.64419" lon="1.97064">
<ele>984</ele>
<time>2012-03-14T10:39:25Z</time>
</trkpt>
<trkpt lat="41.64413" lon="1.97062">
<ele>983</ele>
<time>2012-03-14T10:39:28Z</time>
</trkpt>
<trkpt lat="41.6441" lon="1.97053">
<ele>981</ele>
<time>2012-03-14T10:39:45Z</time>
</trkpt>
<trkpt lat="41.64405" lon="1.9705">
<ele>979</ele>
<time>2012-03-14T10:39:49Z</time>
</trkpt>
<trkpt lat="41.644" lon="1.97043">
<ele>977</ele>
<time>2012-03-14T10:39:59Z</time>
</trkpt>
<trkpt lat="41.64397" lon="1.97038">
<ele>978</ele>
<time>2012-03-14T10:40:01Z</time>
</trkpt>
<trkpt lat="41.64395" lon="1.97032">
<ele>975</ele>
<time>2012-03-14T10:40:09Z</time>
</trkpt>
<trkpt lat="41.64395" lon="1.97032">
<ele>975</ele>
<time>2012-03-14T10:40:09Z</time>
</trkpt>
<trkpt lat="41.64395" lon="1.97032">
<ele>975</ele>
<time>2012-03-14T10:40:10Z</time>
</trkpt>
<trkpt lat="41.64392" lon="1.97025">
<ele>967</ele>
<time>2012-03-14T10:40:20Z</time>
</trkpt>
<trkpt lat="41.64392" lon="1.97017">
<ele>965</ele>
<time>2012-03-14T10:40:26Z</time>
</trkpt>
<trkpt lat="41.64388" lon="1.97012">
<ele>964</ele>
<time>2012-03-14T10:40:31Z</time>
</trkpt>
<trkpt lat="41.64385" lon="1.97007">
<ele>957</ele>
<time>2012-03-14T10:40:42Z</time>
</trkpt>
<trkpt lat="41.64379" lon="1.97006">
<ele>952</ele>
<time>2012-03-14T10:40:52Z</time>
</trkpt>
<trkpt lat="41.64373" lon="1.97007">
<ele>947</ele>
<time>2012-03-14T10:40:55Z</time>
</trkpt>
<trkpt lat="41.64368" lon="1.97002">
<ele>944</ele>
<time>2012-03-14T10:41:02Z</time>
</trkpt>
<trkpt lat="41.64364" lon="1.96998">
<ele>943</ele>
<time>2012-03-14T10:41:05Z</time>
</trkpt>
<trkpt lat="41.6436" lon="1.96993">
<ele>942</ele>
<time>2012-03-14T10:41:08Z</time>
</trkpt>
<trkpt lat="41.64357" lon="1.96987">
<ele>937</ele>
<time>2012-03-14T10:41:15Z</time>
</trkpt>
<trkpt lat="41.64353" lon="1.96982">
<ele>935</ele>
<time>2012-03-14T10:41:19Z</time>
</trkpt>
<trkpt lat="41.64351" lon="1.96977">
<ele>928</ele>
<time>2012-03-14T10:41:25Z</time>
</trkpt>
<trkpt lat="41.64347" lon="1.96973">
<ele>917</ele>
<time>2012-03-14T10:41:33Z</time>
</trkpt>
<trkpt lat="41.64346" lon="1.96967">
<ele>918</ele>
<time>2012-03-14T10:41:38Z</time>
</trkpt>
<trkpt lat="41.64341" lon="1.96965">
<ele>919</ele>
<time>2012-03-14T10:41:40Z</time>
</trkpt>
<trkpt lat="41.64338" lon="1.9696">
<ele>920</ele>
<time>2012-03-14T10:41:43Z</time>
</trkpt>
<trkpt lat="41.64338" lon="1.9696">
<ele>920</ele>
<time>2012-03-14T10:41:43Z</time>
</trkpt>
<trkpt lat="41.64338" lon="1.9696">
<ele>920</ele>
<time>2012-03-14T10:41:44Z</time>
</trkpt>
<trkpt lat="41.64338" lon="1.96954">
<ele>919</ele>
<time>2012-03-14T10:41:46Z</time>
</trkpt>
<trkpt lat="41.6434" lon="1.96949">
<ele>917</ele>
<time>2012-03-14T10:41:50Z</time>
</trkpt>
<trkpt lat="41.64344" lon="1.96944">
<ele>914</ele>
<time>2012-03-14T10:41:54Z</time>
</trkpt>
<trkpt lat="41.6435" lon="1.96942">
<ele>913</ele>
<time>2012-03-14T10:41:59Z</time>
</trkpt>
<trkpt lat="41.64356" lon="1.96942">
<ele>913</ele>
<time>2012-03-14T10:42:04Z</time>
</trkpt>
<trkpt lat="41.64361" lon="1.96944">
<ele>913</ele>
<time>2012-03-14T10:42:06Z</time>
</trkpt>
<trkpt lat="41.64361" lon="1.96944">
<ele>913</ele>
<time>2012-03-14T10:42:06Z</time>
</trkpt>
<trkpt lat="41.64361" lon="1.96944">
<ele>913</ele>
<time>2012-03-14T10:42:07Z</time>
</trkpt>
<trkpt lat="41.64367" lon="1.96944">
<ele>913</ele>
<time>2012-03-14T10:42:13Z</time>
</trkpt>
<trkpt lat="41.64367" lon="1.96944">
<ele>913</ele>
<time>2012-03-14T10:42:13Z</time>
</trkpt>
<trkpt lat="41.64367" lon="1.96944">
<ele>913</ele>
<time>2012-03-14T10:42:15Z</time>
</trkpt>
<trkpt lat="41.64371" lon="1.96946">
<ele>912</ele>
<time>2012-03-14T10:42:17Z</time>
</trkpt>
<trkpt lat="41.64376" lon="1.96947">
<ele>912</ele>
<time>2012-03-14T10:42:25Z</time>
</trkpt>
<trkpt lat="41.64376" lon="1.96947">
<ele>912</ele>
<time>2012-03-14T10:42:25Z</time>
</trkpt>
<trkpt lat="41.64376" lon="1.96947">
<ele>911</ele>
<time>2012-03-14T10:42:26Z</time>
</trkpt>
<trkpt lat="41.6438" lon="1.96949">
<ele>910</ele>
<time>2012-03-14T10:42:31Z</time>
</trkpt>
<trkpt lat="41.64385" lon="1.96949">
<ele>910</ele>
<time>2012-03-14T10:42:35Z</time>
</trkpt>
<trkpt lat="41.64393" lon="1.96946">
<ele>909</ele>
<time>2012-03-14T10:42:39Z</time>
</trkpt>
<trkpt lat="41.64399" lon="1.96946">
<ele>907</ele>
<time>2012-03-14T10:42:41Z</time>
</trkpt>
<trkpt lat="41.64405" lon="1.96944">
<ele>908</ele>
<time>2012-03-14T10:42:45Z</time>
</trkpt>
<trkpt lat="41.64411" lon="1.96944">
<ele>910</ele>
<time>2012-03-14T10:42:48Z</time>
</trkpt>
<trkpt lat="41.64415" lon="1.96942">
<ele>909</ele>
<time>2012-03-14T10:42:59Z</time>
</trkpt>
<trkpt lat="41.64415" lon="1.96942">
<ele>909</ele>
<time>2012-03-14T10:42:59Z</time>
</trkpt>
<trkpt lat="41.64415" lon="1.96942">
<ele>909</ele>
<time>2012-03-14T10:43:00Z</time>
</trkpt>
<trkpt lat="41.64422" lon="1.96939">
<ele>910</ele>
<time>2012-03-14T10:43:06Z</time>
</trkpt>
<trkpt lat="41.64429" lon="1.96936">
<ele>910</ele>
<time>2012-03-14T10:43:08Z</time>
</trkpt>
<trkpt lat="41.64434" lon="1.96933">
<ele>910</ele>
<time>2012-03-14T10:43:10Z</time>
</trkpt>
<trkpt lat="41.64434" lon="1.96933">
<ele>910</ele>
<time>2012-03-14T10:43:10Z</time>
</trkpt>
<trkpt lat="41.64434" lon="1.96933">
<ele>910</ele>
<time>2012-03-14T10:43:12Z</time>
</trkpt>
<trkpt lat="41.64444" lon="1.96927">
<ele>910</ele>
<time>2012-03-14T10:43:21Z</time>
</trkpt>
<trkpt lat="41.64451" lon="1.96924">
<ele>910</ele>
<time>2012-03-14T10:43:23Z</time>
</trkpt>
<trkpt lat="41.64456" lon="1.96922">
<ele>910</ele>
<time>2012-03-14T10:43:30Z</time>
</trkpt>
<trkpt lat="41.64456" lon="1.96922">
<ele>910</ele>
<time>2012-03-14T10:43:30Z</time>
</trkpt>
<trkpt lat="41.64456" lon="1.96922">
<ele>910</ele>
<time>2012-03-14T10:43:31Z</time>
</trkpt>
<trkpt lat="41.6446" lon="1.96918">
<ele>913</ele>
<time>2012-03-14T10:43:34Z</time>
</trkpt>
<trkpt lat="41.64465" lon="1.96916">
<ele>913</ele>
<time>2012-03-14T10:43:36Z</time>
</trkpt>
<trkpt lat="41.64472" lon="1.96919">
<ele>911</ele>
<time>2012-03-14T10:43:39Z</time>
</trkpt>
<trkpt lat="41.64477" lon="1.96919">
<ele>911</ele>
<time>2012-03-14T10:43:43Z</time>
</trkpt>
<trkpt lat="41.64482" lon="1.96924">
<ele>911</ele>
<time>2012-03-14T10:43:46Z</time>
</trkpt>
<trkpt lat="41.64485" lon="1.96929">
<ele>911</ele>
<time>2012-03-14T10:43:48Z</time>
</trkpt>
<trkpt lat="41.64486" lon="1.96936">
<ele>912</ele>
<time>2012-03-14T10:43:50Z</time>
</trkpt>
<trkpt lat="41.6449" lon="1.96939">
<ele>910</ele>
<time>2012-03-14T10:43:54Z</time>
</trkpt>
<trkpt lat="41.64496" lon="1.96942">
<ele>910</ele>
<time>2012-03-14T10:43:59Z</time>
</trkpt>
<trkpt lat="41.64499" lon="1.96946">
<ele>908</ele>
<time>2012-03-14T10:44:04Z</time>
</trkpt>
<trkpt lat="41.64504" lon="1.96953">
<ele>908</ele>
<time>2012-03-14T10:44:09Z</time>
</trkpt>
<trkpt lat="41.64504" lon="1.9696">
<ele>907</ele>
<time>2012-03-14T10:44:11Z</time>
</trkpt>
<trkpt lat="41.64503" lon="1.96967">
<ele>907</ele>
<time>2012-03-14T10:44:13Z</time>
</trkpt>
<trkpt lat="41.64505" lon="1.96973">
<ele>907</ele>
<time>2012-03-14T10:44:16Z</time>
</trkpt>
<trkpt lat="41.64502" lon="1.96981">
<ele>908</ele>
<time>2012-03-14T10:44:19Z</time>
</trkpt>
<trkpt lat="41.64503" lon="1.96987">
<ele>908</ele>
<time>2012-03-14T10:44:24Z</time>
</trkpt>
<trkpt lat="41.64506" lon="1.96992">
<ele>908</ele>
<time>2012-03-14T10:44:27Z</time>
</trkpt>
<trkpt lat="41.64508" lon="1.97001">
<ele>909</ele>
<time>2012-03-14T10:44:33Z</time>
</trkpt>
<trkpt lat="41.64509" lon="1.97009">
<ele>909</ele>
<time>2012-03-14T10:44:37Z</time>
</trkpt>
<trkpt lat="41.64512" lon="1.97015">
<ele>908</ele>
<time>2012-03-14T10:44:43Z</time>
</trkpt>
<trkpt lat="41.64517" lon="1.97018">
<ele>909</ele>
<time>2012-03-14T10:44:46Z</time>
</trkpt>
<trkpt lat="41.64521" lon="1.97022">
<ele>909</ele>
<time>2012-03-14T10:44:52Z</time>
</trkpt>
<trkpt lat="41.64524" lon="1.97029">
<ele>908</ele>
<time>2012-03-14T10:44:56Z</time>
</trkpt>
<trkpt lat="41.64529" lon="1.97038">
<ele>910</ele>
<time>2012-03-14T10:45:20Z</time>
</trkpt>
<trkpt lat="41.64532" lon="1.97044">
<ele>910</ele>
<time>2012-03-14T10:45:22Z</time>
</trkpt>
<trkpt lat="41.64536" lon="1.97048">
<ele>911</ele>
<time>2012-03-14T10:45:24Z</time>
</trkpt>
<trkpt lat="41.64541" lon="1.97051">
<ele>912</ele>
<time>2012-03-14T10:45:29Z</time>
</trkpt>
<trkpt lat="41.64547" lon="1.97058">
<ele>912</ele>
<time>2012-03-14T10:45:40Z</time>
</trkpt>
<trkpt lat="41.64552" lon="1.9706">
<ele>913</ele>
<time>2012-03-14T10:45:44Z</time>
</trkpt>
<trkpt lat="41.64555" lon="1.97065">
<ele>911</ele>
<time>2012-03-14T10:45:47Z</time>
</trkpt>
<trkpt lat="41.64556" lon="1.97072">
<ele>910</ele>
<time>2012-03-14T10:45:49Z</time>
</trkpt>
<trkpt lat="41.64561" lon="1.97073">
<ele>911</ele>
<time>2012-03-14T10:45:52Z</time>
</trkpt>
<trkpt lat="41.64567" lon="1.97075">
<ele>912</ele>
<time>2012-03-14T10:45:55Z</time>
</trkpt>
<trkpt lat="41.64573" lon="1.97077">
<ele>912</ele>
<time>2012-03-14T10:45:59Z</time>
</trkpt>
<trkpt lat="41.64581" lon="1.97083">
<ele>913</ele>
<time>2012-03-14T10:46:01Z</time>
</trkpt>
<trkpt lat="41.64586" lon="1.97084">
<ele>912</ele>
<time>2012-03-14T10:46:02Z</time>
</trkpt>
<trkpt lat="41.64589" lon="1.97089">
<ele>913</ele>
<time>2012-03-14T10:46:04Z</time>
</trkpt>
<trkpt lat="41.64592" lon="1.97094">
<ele>912</ele>
<time>2012-03-14T10:46:06Z</time>
</trkpt>
<trkpt lat="41.64598" lon="1.97096">
<ele>912</ele>
<time>2012-03-14T10:46:08Z</time>
</trkpt>
<trkpt lat="41.64603" lon="1.97098">
<ele>912</ele>
<time>2012-03-14T10:46:11Z</time>
</trkpt>
<trkpt lat="41.64608" lon="1.971">
<ele>914</ele>
<time>2012-03-14T10:46:18Z</time>
</trkpt>
<trkpt lat="41.64614" lon="1.97103">
<ele>915</ele>
<time>2012-03-14T10:46:20Z</time>
</trkpt>
<trkpt lat="41.64621" lon="1.97105">
<ele>914</ele>
<time>2012-03-14T10:46:23Z</time>
</trkpt>
<trkpt lat="41.64626" lon="1.97111">
<ele>913</ele>
<time>2012-03-14T10:46:33Z</time>
</trkpt>
<trkpt lat="41.64631" lon="1.97114">
<ele>913</ele>
<time>2012-03-14T10:46:37Z</time>
</trkpt>
<trkpt lat="41.64636" lon="1.97114">
<ele>912</ele>
<time>2012-03-14T10:46:40Z</time>
</trkpt>
<trkpt lat="41.64641" lon="1.97117">
<ele>912</ele>
<time>2012-03-14T10:46:45Z</time>
</trkpt>
<trkpt lat="41.64647" lon="1.97117">
<ele>911</ele>
<time>2012-03-14T10:46:52Z</time>
</trkpt>
<trkpt lat="41.64654" lon="1.97115">
<ele>912</ele>
<time>2012-03-14T10:46:56Z</time>
</trkpt>
<trkpt lat="41.64659" lon="1.97114">
<ele>911</ele>
<time>2012-03-14T10:47:00Z</time>
</trkpt>
<trkpt lat="41.64666" lon="1.97116">
<ele>910</ele>
<time>2012-03-14T10:47:14Z</time>
</trkpt>
<trkpt lat="41.64672" lon="1.97116">
<ele>909</ele>
<time>2012-03-14T10:47:15Z</time>
</trkpt>
<trkpt lat="41.64677" lon="1.97117">
<ele>908</ele>
<time>2012-03-14T10:47:18Z</time>
</trkpt>
<trkpt lat="41.64681" lon="1.97117">
<ele>908</ele>
<time>2012-03-14T10:47:25Z</time>
</trkpt>
<trkpt lat="41.64688" lon="1.97119">
<ele>906</ele>
<time>2012-03-14T10:47:38Z</time>
</trkpt>
<trkpt lat="41.64694" lon="1.97122">
<ele>907</ele>
<time>2012-03-14T10:47:41Z</time>
</trkpt>
<trkpt lat="41.64699" lon="1.97123">
<ele>907</ele>
<time>2012-03-14T10:47:45Z</time>
</trkpt>
<trkpt lat="41.64699" lon="1.97123">
<ele>907</ele>
<time>2012-03-14T10:47:45Z</time>
</trkpt>
<trkpt lat="41.64699" lon="1.97123">
<ele>907</ele>
<time>2012-03-14T10:47:46Z</time>
</trkpt>
<trkpt lat="41.64704" lon="1.97125">
<ele>907</ele>
<time>2012-03-14T10:47:48Z</time>
</trkpt>
<trkpt lat="41.64713" lon="1.97128">
<ele>907</ele>
<time>2012-03-14T10:47:50Z</time>
</trkpt>
<trkpt lat="41.64718" lon="1.97127">
<ele>907</ele>
<time>2012-03-14T10:47:51Z</time>
</trkpt>
<trkpt lat="41.64723" lon="1.97128">
<ele>908</ele>
<time>2012-03-14T10:47:52Z</time>
</trkpt>
<trkpt lat="41.6473" lon="1.97127">
<ele>907</ele>
<time>2012-03-14T10:47:54Z</time>
</trkpt>
<trkpt lat="41.64736" lon="1.97127">
<ele>909</ele>
<time>2012-03-14T10:47:58Z</time>
</trkpt>
<trkpt lat="41.64744" lon="1.97129">
<ele>909</ele>
<time>2012-03-14T10:48:13Z</time>
</trkpt>
<trkpt lat="41.64748" lon="1.97131">
<ele>908</ele>
<time>2012-03-14T10:48:14Z</time>
</trkpt>
<trkpt lat="41.64754" lon="1.97133">
<ele>907</ele>
<time>2012-03-14T10:48:16Z</time>
</trkpt>
<trkpt lat="41.64759" lon="1.97137">
<ele>907</ele>
<time>2012-03-14T10:48:17Z</time>
</trkpt>
<trkpt lat="41.64765" lon="1.97138">
<ele>909</ele>
<time>2012-03-14T10:48:23Z</time>
</trkpt>
<trkpt lat="41.6477" lon="1.97141">
<ele>909</ele>
<time>2012-03-14T10:48:25Z</time>
</trkpt>
<trkpt lat="41.64775" lon="1.97141">
<ele>911</ele>
<time>2012-03-14T10:48:28Z</time>
</trkpt>
<trkpt lat="41.6478" lon="1.97141">
<ele>910</ele>
<time>2012-03-14T10:48:30Z</time>
</trkpt>
<trkpt lat="41.64787" lon="1.97141">
<ele>911</ele>
<time>2012-03-14T10:48:33Z</time>
</trkpt>
<trkpt lat="41.64792" lon="1.97141">
<ele>911</ele>
<time>2012-03-14T10:48:36Z</time>
</trkpt>
<trkpt lat="41.64797" lon="1.97141">
<ele>911</ele>
<time>2012-03-14T10:48:38Z</time>
</trkpt>
<trkpt lat="41.64802" lon="1.97141">
<ele>913</ele>
<time>2012-03-14T10:48:44Z</time>
</trkpt>
<trkpt lat="41.64807" lon="1.9714">
<ele>914</ele>
<time>2012-03-14T10:48:46Z</time>
</trkpt>
<trkpt lat="41.64812" lon="1.97141">
<ele>914</ele>
<time>2012-03-14T10:48:49Z</time>
</trkpt>
<trkpt lat="41.64817" lon="1.97143">
<ele>914</ele>
<time>2012-03-14T10:48:56Z</time>
</trkpt>
<trkpt lat="41.64817" lon="1.97143">
<ele>914</ele>
<time>2012-03-14T10:48:56Z</time>
</trkpt>
<trkpt lat="41.64817" lon="1.97143">
<ele>914</ele>
<time>2012-03-14T10:48:57Z</time>
</trkpt>
<trkpt lat="41.6482" lon="1.97147">
<ele>915</ele>
<time>2012-03-14T10:48:59Z</time>
</trkpt>
<trkpt lat="41.64826" lon="1.97149">
<ele>916</ele>
<time>2012-03-14T10:49:01Z</time>
</trkpt>
<trkpt lat="41.64831" lon="1.97152">
<ele>916</ele>
<time>2012-03-14T10:49:04Z</time>
</trkpt>
<trkpt lat="41.64836" lon="1.97154">
<ele>916</ele>
<time>2012-03-14T10:49:08Z</time>
</trkpt>
<trkpt lat="41.64841" lon="1.97154">
<ele>918</ele>
<time>2012-03-14T10:49:14Z</time>
</trkpt>
<trkpt lat="41.64847" lon="1.9716">
<ele>917</ele>
<time>2012-03-14T10:49:19Z</time>
</trkpt>
<trkpt lat="41.64852" lon="1.97162">
<ele>920</ele>
<time>2012-03-14T10:49:21Z</time>
</trkpt>
<trkpt lat="41.64856" lon="1.97158">
<ele>918</ele>
<time>2012-03-14T10:49:24Z</time>
</trkpt>
<trkpt lat="41.6486" lon="1.97155">
<ele>917</ele>
<time>2012-03-14T10:49:29Z</time>
</trkpt>
<trkpt lat="41.64864" lon="1.97152">
<ele>917</ele>
<time>2012-03-14T10:49:33Z</time>
</trkpt>
<trkpt lat="41.64869" lon="1.97149">
<ele>920</ele>
<time>2012-03-14T10:50:09Z</time>
</trkpt>
<trkpt lat="41.64869" lon="1.97141">
<ele>921</ele>
<time>2012-03-14T10:50:13Z</time>
</trkpt>
<trkpt lat="41.64872" lon="1.97136">
<ele>920</ele>
<time>2012-03-14T10:50:16Z</time>
</trkpt>
<trkpt lat="41.64873" lon="1.97129">
<ele>920</ele>
<time>2012-03-14T10:50:20Z</time>
</trkpt>
<trkpt lat="41.64875" lon="1.97122">
<ele>920</ele>
<time>2012-03-14T10:50:23Z</time>
</trkpt>
<trkpt lat="41.64876" lon="1.97116">
<ele>919</ele>
<time>2012-03-14T10:50:26Z</time>
</trkpt>
<trkpt lat="41.64878" lon="1.97108">
<ele>918</ele>
<time>2012-03-14T10:50:30Z</time>
</trkpt>
<trkpt lat="41.6488" lon="1.971">
<ele>918</ele>
<time>2012-03-14T10:50:34Z</time>
</trkpt>
<trkpt lat="41.64882" lon="1.97095">
<ele>917</ele>
<time>2012-03-14T10:50:37Z</time>
</trkpt>
<trkpt lat="41.64885" lon="1.97089">
<ele>914</ele>
<time>2012-03-14T10:50:40Z</time>
</trkpt>
<trkpt lat="41.64887" lon="1.97082">
<ele>911</ele>
<time>2012-03-14T10:50:44Z</time>
</trkpt>
<trkpt lat="41.6489" lon="1.97076">
<ele>910</ele>
<time>2012-03-14T10:50:49Z</time>
</trkpt>
<trkpt lat="41.64893" lon="1.97069">
<ele>910</ele>
<time>2012-03-14T10:50:53Z</time>
</trkpt>
<trkpt lat="41.64893" lon="1.97063">
<ele>909</ele>
<time>2012-03-14T10:50:58Z</time>
</trkpt>
<trkpt lat="41.64891" lon="1.97055">
<ele>909</ele>
<time>2012-03-14T10:51:02Z</time>
</trkpt>
<trkpt lat="41.64889" lon="1.97049">
<ele>909</ele>
<time>2012-03-14T10:51:05Z</time>
</trkpt>
<trkpt lat="41.64886" lon="1.97042">
<ele>908</ele>
<time>2012-03-14T10:51:09Z</time>
</trkpt>
<trkpt lat="41.64883" lon="1.97036">
<ele>906</ele>
<time>2012-03-14T10:51:13Z</time>
</trkpt>
<trkpt lat="41.64879" lon="1.9703">
<ele>906</ele>
<time>2012-03-14T10:51:19Z</time>
</trkpt>
<trkpt lat="41.64875" lon="1.97028">
<ele>908</ele>
<time>2012-03-14T10:51:21Z</time>
</trkpt>
<trkpt lat="41.64874" lon="1.97022">
<ele>909</ele>
<time>2012-03-14T10:51:23Z</time>
</trkpt>
<trkpt lat="41.6487" lon="1.97015">
<ele>908</ele>
<time>2012-03-14T10:51:28Z</time>
</trkpt>
<trkpt lat="41.64869" lon="1.97009">
<ele>908</ele>
<time>2012-03-14T10:51:31Z</time>
</trkpt>
<trkpt lat="41.64869" lon="1.97009">
<ele>908</ele>
<time>2012-03-14T10:51:31Z</time>
</trkpt>
<trkpt lat="41.64869" lon="1.97009">
<ele>908</ele>
<time>2012-03-14T10:51:32Z</time>
</trkpt>
<trkpt lat="41.64858" lon="1.97004">
<ele>910</ele>
<time>2012-03-14T10:51:37Z</time>
</trkpt>
<trkpt lat="41.64854" lon="1.97">
<ele>909</ele>
<time>2012-03-14T10:51:40Z</time>
</trkpt>
<trkpt lat="41.64857" lon="1.96994">
<ele>910</ele>
<time>2012-03-14T10:51:43Z</time>
</trkpt>
<trkpt lat="41.64855" lon="1.96988">
<ele>909</ele>
<time>2012-03-14T10:51:47Z</time>
</trkpt>
<trkpt lat="41.64854" lon="1.96981">
<ele>911</ele>
<time>2012-03-14T10:51:49Z</time>
</trkpt>
<trkpt lat="41.64853" lon="1.96971">
<ele>905</ele>
<time>2012-03-14T10:51:56Z</time>
</trkpt>
<trkpt lat="41.64847" lon="1.96968">
<ele>907</ele>
<time>2012-03-14T10:51:59Z</time>
</trkpt>
<trkpt lat="41.64843" lon="1.96963">
<ele>907</ele>
<time>2012-03-14T10:52:02Z</time>
</trkpt>
<trkpt lat="41.64844" lon="1.96956">
<ele>904</ele>
<time>2012-03-14T10:52:05Z</time>
</trkpt>
<trkpt lat="41.64846" lon="1.9695">
<ele>902</ele>
<time>2012-03-14T10:52:09Z</time>
</trkpt>
<trkpt lat="41.64847" lon="1.96944">
<ele>902</ele>
<time>2012-03-14T10:52:12Z</time>
</trkpt>
<trkpt lat="41.64846" lon="1.96936">
<ele>902</ele>
<time>2012-03-14T10:52:16Z</time>
</trkpt>
<trkpt lat="41.64842" lon="1.96932">
<ele>903</ele>
<time>2012-03-14T10:52:19Z</time>
</trkpt>
<trkpt lat="41.6484" lon="1.96925">
<ele>903</ele>
<time>2012-03-14T10:52:24Z</time>
</trkpt>
<trkpt lat="41.64837" lon="1.96918">
<ele>903</ele>
<time>2012-03-14T10:52:28Z</time>
</trkpt>
<trkpt lat="41.64835" lon="1.96912">
<ele>902</ele>
<time>2012-03-14T10:52:31Z</time>
</trkpt>
<trkpt lat="41.64834" lon="1.96906">
<ele>900</ele>
<time>2012-03-14T10:52:34Z</time>
</trkpt>
<trkpt lat="41.64834" lon="1.96899">
<ele>899</ele>
<time>2012-03-14T10:52:38Z</time>
</trkpt>
<trkpt lat="41.64832" lon="1.96893">
<ele>898</ele>
<time>2012-03-14T10:52:41Z</time>
</trkpt>
<trkpt lat="41.6483" lon="1.96886">
<ele>898</ele>
<time>2012-03-14T10:52:45Z</time>
</trkpt>
<trkpt lat="41.64827" lon="1.9688">
<ele>898</ele>
<time>2012-03-14T10:52:49Z</time>
</trkpt>
<trkpt lat="41.64826" lon="1.96873">
<ele>898</ele>
<time>2012-03-14T10:52:53Z</time>
</trkpt>
<trkpt lat="41.64829" lon="1.96866">
<ele>896</ele>
<time>2012-03-14T10:52:58Z</time>
</trkpt>
<trkpt lat="41.64835" lon="1.96863">
<ele>895</ele>
<time>2012-03-14T10:53:00Z</time>
</trkpt>
<trkpt lat="41.64832" lon="1.96856">
<ele>896</ele>
<time>2012-03-14T10:53:04Z</time>
</trkpt>
<trkpt lat="41.64834" lon="1.9685">
<ele>896</ele>
<time>2012-03-14T10:53:08Z</time>
</trkpt>
<trkpt lat="41.64839" lon="1.96847">
<ele>895</ele>
<time>2012-03-14T10:53:11Z</time>
</trkpt>
<trkpt lat="41.64844" lon="1.96846">
<ele>896</ele>
<time>2012-03-14T10:53:17Z</time>
</trkpt>
<trkpt lat="41.64849" lon="1.96845">
<ele>892</ele>
<time>2012-03-14T10:53:31Z</time>
</trkpt>
<trkpt lat="41.64849" lon="1.96845">
<ele>892</ele>
<time>2012-03-14T10:53:31Z</time>
</trkpt>
<trkpt lat="41.64849" lon="1.96845">
<ele>892</ele>
<time>2012-03-14T10:53:32Z</time>
</trkpt>
<trkpt lat="41.64854" lon="1.96841">
<ele>892</ele>
<time>2012-03-14T10:53:34Z</time>
</trkpt>
<trkpt lat="41.64858" lon="1.96839">
<ele>892</ele>
<time>2012-03-14T10:53:40Z</time>
</trkpt>
<trkpt lat="41.64858" lon="1.96839">
<ele>892</ele>
<time>2012-03-14T10:53:40Z</time>
</trkpt>
<trkpt lat="41.64858" lon="1.96839">
<ele>892</ele>
<time>2012-03-14T10:53:41Z</time>
</trkpt>
<trkpt lat="41.64865" lon="1.96839">
<ele>892</ele>
<time>2012-03-14T10:53:43Z</time>
</trkpt>
<trkpt lat="41.64871" lon="1.96834">
<ele>892</ele>
<time>2012-03-14T10:53:46Z</time>
</trkpt>
<trkpt lat="41.64876" lon="1.96834">
<ele>892</ele>
<time>2012-03-14T10:53:49Z</time>
</trkpt>
<trkpt lat="41.64881" lon="1.96834">
<ele>892</ele>
<time>2012-03-14T10:53:53Z</time>
</trkpt>
<trkpt lat="41.64889" lon="1.96836">
<ele>892</ele>
<time>2012-03-14T10:53:56Z</time>
</trkpt>
<trkpt lat="41.64894" lon="1.96835">
<ele>891</ele>
<time>2012-03-14T10:53:59Z</time>
</trkpt>
<trkpt lat="41.64899" lon="1.96834">
<ele>891</ele>
<time>2012-03-14T10:54:01Z</time>
</trkpt>
<trkpt lat="41.64904" lon="1.96831">
<ele>891</ele>
<time>2012-03-14T10:54:04Z</time>
</trkpt>
<trkpt lat="41.64909" lon="1.96826">
<ele>892</ele>
<time>2012-03-14T10:54:07Z</time>
</trkpt>
<trkpt lat="41.64913" lon="1.96823">
<ele>893</ele>
<time>2012-03-14T10:54:14Z</time>
</trkpt>
<trkpt lat="41.64918" lon="1.9682">
<ele>894</ele>
<time>2012-03-14T10:54:18Z</time>
</trkpt>
<trkpt lat="41.64923" lon="1.96818">
<ele>894</ele>
<time>2012-03-14T10:54:20Z</time>
</trkpt>
<trkpt lat="41.64929" lon="1.96816">
<ele>894</ele>
<time>2012-03-14T10:54:22Z</time>
</trkpt>
<trkpt lat="41.64934" lon="1.96814">
<ele>893</ele>
<time>2012-03-14T10:54:25Z</time>
</trkpt>
<trkpt lat="41.64938" lon="1.9681">
<ele>893</ele>
<time>2012-03-14T10:54:27Z</time>
</trkpt>
<trkpt lat="41.64943" lon="1.96807">
<ele>892</ele>
<time>2012-03-14T10:54:29Z</time>
</trkpt>
<trkpt lat="41.64946" lon="1.96802">
<ele>893</ele>
<time>2012-03-14T10:54:30Z</time>
</trkpt>
<trkpt lat="41.6495" lon="1.96797">
<ele>893</ele>
<time>2012-03-14T10:54:33Z</time>
</trkpt>
<trkpt lat="41.6495" lon="1.9679">
<ele>893</ele>
<time>2012-03-14T10:54:37Z</time>
</trkpt>
<trkpt lat="41.64948" lon="1.96784">
<ele>895</ele>
<time>2012-03-14T10:54:40Z</time>
</trkpt>
<trkpt lat="41.64943" lon="1.96779">
<ele>894</ele>
<time>2012-03-14T10:54:43Z</time>
</trkpt>
<trkpt lat="41.64943" lon="1.96772">
<ele>889</ele>
<time>2012-03-14T10:54:47Z</time>
</trkpt>
<trkpt lat="41.6494" lon="1.96765">
<ele>889</ele>
<time>2012-03-14T10:54:51Z</time>
</trkpt>
<trkpt lat="41.64936" lon="1.96762">
<ele>887</ele>
<time>2012-03-14T10:54:57Z</time>
</trkpt>
<trkpt lat="41.64931" lon="1.96757">
<ele>889</ele>
<time>2012-03-14T10:55:00Z</time>
</trkpt>
<trkpt lat="41.64927" lon="1.96751">
<ele>889</ele>
<time>2012-03-14T10:55:03Z</time>
</trkpt>
<trkpt lat="41.64923" lon="1.96746">
<ele>889</ele>
<time>2012-03-14T10:55:06Z</time>
</trkpt>
<trkpt lat="41.6492" lon="1.96739">
<ele>890</ele>
<time>2012-03-14T10:55:10Z</time>
</trkpt>
<trkpt lat="41.64917" lon="1.96733">
<ele>889</ele>
<time>2012-03-14T10:55:14Z</time>
</trkpt>
<trkpt lat="41.64913" lon="1.96729">
<ele>888</ele>
<time>2012-03-14T10:55:17Z</time>
</trkpt>
<trkpt lat="41.64912" lon="1.96721">
<ele>886</ele>
<time>2012-03-14T10:55:21Z</time>
</trkpt>
<trkpt lat="41.64909" lon="1.96715">
<ele>886</ele>
<time>2012-03-14T10:55:24Z</time>
</trkpt>
<trkpt lat="41.64909" lon="1.96707">
<ele>886</ele>
<time>2012-03-14T10:55:27Z</time>
</trkpt>
<trkpt lat="41.64908" lon="1.967">
<ele>885</ele>
<time>2012-03-14T10:55:30Z</time>
</trkpt>
<trkpt lat="41.64907" lon="1.96693">
<ele>884</ele>
<time>2012-03-14T10:55:34Z</time>
</trkpt>
<trkpt lat="41.6491" lon="1.96686">
<ele>884</ele>
<time>2012-03-14T10:55:38Z</time>
</trkpt>
<trkpt lat="41.64909" lon="1.96679">
<ele>883</ele>
<time>2012-03-14T10:55:42Z</time>
</trkpt>
<trkpt lat="41.64906" lon="1.96674">
<ele>884</ele>
<time>2012-03-14T10:55:45Z</time>
</trkpt>
<trkpt lat="41.64903" lon="1.96668">
<ele>884</ele>
<time>2012-03-14T10:55:48Z</time>
</trkpt>
<trkpt lat="41.64901" lon="1.96661">
<ele>883</ele>
<time>2012-03-14T10:55:52Z</time>
</trkpt>
<trkpt lat="41.64901" lon="1.96654">
<ele>885</ele>
<time>2012-03-14T10:55:57Z</time>
</trkpt>
<trkpt lat="41.64897" lon="1.96651">
<ele>887</ele>
<time>2012-03-14T10:56:00Z</time>
</trkpt>
<trkpt lat="41.64892" lon="1.96646">
<ele>886</ele>
<time>2012-03-14T10:56:02Z</time>
</trkpt>
<trkpt lat="41.64888" lon="1.96641">
<ele>886</ele>
<time>2012-03-14T10:56:04Z</time>
</trkpt>
<trkpt lat="41.64884" lon="1.96638">
<ele>886</ele>
<time>2012-03-14T10:56:07Z</time>
</trkpt>
<trkpt lat="41.64881" lon="1.96631">
<ele>887</ele>
<time>2012-03-14T10:56:11Z</time>
</trkpt>
<trkpt lat="41.64876" lon="1.96627">
<ele>888</ele>
<time>2012-03-14T10:56:15Z</time>
</trkpt>
<trkpt lat="41.64872" lon="1.96625">
<ele>889</ele>
<time>2012-03-14T10:56:18Z</time>
</trkpt>
<trkpt lat="41.64869" lon="1.9662">
<ele>888</ele>
<time>2012-03-14T10:56:21Z</time>
</trkpt>
<trkpt lat="41.64865" lon="1.96616">
<ele>889</ele>
<time>2012-03-14T10:56:24Z</time>
</trkpt>
<trkpt lat="41.6486" lon="1.96613">
<ele>891</ele>
<time>2012-03-14T10:56:27Z</time>
</trkpt>
<trkpt lat="41.64857" lon="1.96607">
<ele>890</ele>
<time>2012-03-14T10:56:31Z</time>
</trkpt>
<trkpt lat="41.64853" lon="1.96602">
<ele>891</ele>
<time>2012-03-14T10:56:34Z</time>
</trkpt>
<trkpt lat="41.64852" lon="1.96595">
<ele>888</ele>
<time>2012-03-14T10:56:38Z</time>
</trkpt>
<trkpt lat="41.64848" lon="1.96591">
<ele>888</ele>
<time>2012-03-14T10:56:41Z</time>
</trkpt>
<trkpt lat="41.64847" lon="1.96584">
<ele>888</ele>
<time>2012-03-14T10:56:45Z</time>
</trkpt>
<trkpt lat="41.64846" lon="1.96577">
<ele>888</ele>
<time>2012-03-14T10:56:49Z</time>
</trkpt>
<trkpt lat="41.6485" lon="1.9658">
<ele>892</ele>
<time>2012-03-14T10:56:56Z</time>
</trkpt>
<trkpt lat="41.64854" lon="1.96576">
<ele>892</ele>
<time>2012-03-14T10:56:58Z</time>
</trkpt>
<trkpt lat="41.64854" lon="1.96583">
<ele>891</ele>
<time>2012-03-14T10:57:01Z</time>
</trkpt>
<trkpt lat="41.64854" lon="1.96589">
<ele>891</ele>
<time>2012-03-14T10:57:03Z</time>
</trkpt>
<trkpt lat="41.64854" lon="1.96589">
<ele>891</ele>
<time>2012-03-14T10:57:03Z</time>
</trkpt>
<trkpt lat="41.64854" lon="1.96589">
<ele>891</ele>
<time>2012-03-14T10:57:04Z</time>
</trkpt>
<trkpt lat="41.64861" lon="1.96579">
<ele>892</ele>
<time>2012-03-14T10:57:05Z</time>
</trkpt>
<trkpt lat="41.64866" lon="1.96581">
<ele>890</ele>
<time>2012-03-14T10:57:08Z</time>
</trkpt>
<trkpt lat="41.64872" lon="1.96583">
<ele>888</ele>
<time>2012-03-14T10:57:12Z</time>
</trkpt>
<trkpt lat="41.64875" lon="1.96589">
<ele>887</ele>
<time>2012-03-14T10:57:17Z</time>
</trkpt>
<trkpt lat="41.64875" lon="1.96595">
<ele>887</ele>
<time>2012-03-14T10:57:20Z</time>
</trkpt>
<trkpt lat="41.64879" lon="1.966">
<ele>886</ele>
<time>2012-03-14T10:57:22Z</time>
</trkpt>
<trkpt lat="41.64886" lon="1.96599">
<ele>886</ele>
<time>2012-03-14T10:57:24Z</time>
</trkpt>
<trkpt lat="41.64893" lon="1.96591">
<ele>886</ele>
<time>2012-03-14T10:57:27Z</time>
</trkpt>
<trkpt lat="41.64898" lon="1.96587">
<ele>886</ele>
<time>2012-03-14T10:57:28Z</time>
</trkpt>
<trkpt lat="41.64902" lon="1.9659">
<ele>886</ele>
<time>2012-03-14T10:57:31Z</time>
</trkpt>
<trkpt lat="41.64907" lon="1.9659">
<ele>886</ele>
<time>2012-03-14T10:57:39Z</time>
</trkpt>
<trkpt lat="41.64912" lon="1.96592">
<ele>886</ele>
<time>2012-03-14T10:57:41Z</time>
</trkpt>
<trkpt lat="41.64918" lon="1.96589">
<ele>885</ele>
<time>2012-03-14T10:57:43Z</time>
</trkpt>
<trkpt lat="41.64923" lon="1.96591">
<ele>884</ele>
<time>2012-03-14T10:57:47Z</time>
</trkpt>
<trkpt lat="41.64927" lon="1.96594">
<ele>886</ele>
<time>2012-03-14T10:57:50Z</time>
</trkpt>
<trkpt lat="41.6493" lon="1.966">
<ele>887</ele>
<time>2012-03-14T10:57:54Z</time>
</trkpt>
<trkpt lat="41.64932" lon="1.96605">
<ele>886</ele>
<time>2012-03-14T10:57:57Z</time>
</trkpt>
<trkpt lat="41.64936" lon="1.9661">
<ele>885</ele>
<time>2012-03-14T10:58:00Z</time>
</trkpt>
<trkpt lat="41.64939" lon="1.96614">
<ele>885</ele>
<time>2012-03-14T10:58:03Z</time>
</trkpt>
<trkpt lat="41.64943" lon="1.96619">
<ele>885</ele>
<time>2012-03-14T10:58:07Z</time>
</trkpt>
<trkpt lat="41.64949" lon="1.9662">
<ele>884</ele>
<time>2012-03-14T10:58:11Z</time>
</trkpt>
<trkpt lat="41.64956" lon="1.96621">
<ele>884</ele>
<time>2012-03-14T10:58:21Z</time>
</trkpt>
<trkpt lat="41.64961" lon="1.96624">
<ele>884</ele>
<time>2012-03-14T10:58:23Z</time>
</trkpt>
<trkpt lat="41.64967" lon="1.96627">
<ele>883</ele>
<time>2012-03-14T10:58:28Z</time>
</trkpt>
<trkpt lat="41.64972" lon="1.9663">
<ele>882</ele>
<time>2012-03-14T10:58:30Z</time>
</trkpt>
<trkpt lat="41.64977" lon="1.96626">
<ele>882</ele>
<time>2012-03-14T10:58:32Z</time>
</trkpt>
<trkpt lat="41.64984" lon="1.96618">
<ele>882</ele>
<time>2012-03-14T10:58:33Z</time>
</trkpt>
<trkpt lat="41.64988" lon="1.96613">
<ele>883</ele>
<time>2012-03-14T10:58:34Z</time>
</trkpt>
<trkpt lat="41.64993" lon="1.9661">
<ele>882</ele>
<time>2012-03-14T10:58:35Z</time>
</trkpt>
<trkpt lat="41.64996" lon="1.96614">
<ele>882</ele>
<time>2012-03-14T10:58:36Z</time>
</trkpt>
<trkpt lat="41.65001" lon="1.96617">
<ele>881</ele>
<time>2012-03-14T10:58:37Z</time>
</trkpt>
<trkpt lat="41.64996" lon="1.96616">
<ele>880</ele>
<time>2012-03-14T10:58:39Z</time>
</trkpt>
<trkpt lat="41.65002" lon="1.9661">
<ele>881</ele>
<time>2012-03-14T10:58:40Z</time>
</trkpt>
<trkpt lat="41.65008" lon="1.9661">
<ele>881</ele>
<time>2012-03-14T10:58:47Z</time>
</trkpt>
<trkpt lat="41.65014" lon="1.9661">
<ele>881</ele>
<time>2012-03-14T10:58:52Z</time>
</trkpt>
<trkpt lat="41.65018" lon="1.96602">
<ele>888</ele>
<time>2012-03-14T10:58:55Z</time>
</trkpt>
<trkpt lat="41.65023" lon="1.96598">
<ele>888</ele>
<time>2012-03-14T10:58:57Z</time>
</trkpt>
<trkpt lat="41.65023" lon="1.96604">
<ele>891</ele>
<time>2012-03-14T10:59:05Z</time>
</trkpt>
<trkpt lat="41.65018" lon="1.96605">
<ele>890</ele>
<time>2012-03-14T10:59:07Z</time>
</trkpt>
<trkpt lat="41.65018" lon="1.96605">
<ele>890</ele>
<time>2012-03-14T10:59:07Z</time>
</trkpt>
<trkpt lat="41.65018" lon="1.96605">
<ele>889</ele>
<time>2012-03-14T10:59:10Z</time>
</trkpt>
<trkpt lat="41.65023" lon="1.96603">
<ele>886</ele>
<time>2012-03-14T10:59:30Z</time>
</trkpt>
<trkpt lat="41.65023" lon="1.96603">
<ele>886</ele>
<time>2012-03-14T10:59:30Z</time>
</trkpt>
<trkpt lat="41.65023" lon="1.96603">
<ele>887</ele>
<time>2012-03-14T11:00:04Z</time>
</trkpt>
<trkpt lat="41.65028" lon="1.96604">
<ele>885</ele>
<time>2012-03-14T11:00:21Z</time>
</trkpt>
<trkpt lat="41.65034" lon="1.96605">
<ele>885</ele>
<time>2012-03-14T11:00:29Z</time>
</trkpt>
<trkpt lat="41.6504" lon="1.96609">
<ele>886</ele>
<time>2012-03-14T11:00:32Z</time>
</trkpt>
<trkpt lat="41.65044" lon="1.96616">
<ele>885</ele>
<time>2012-03-14T11:00:45Z</time>
</trkpt>
<trkpt lat="41.65045" lon="1.96621">
<ele>883</ele>
<time>2012-03-14T11:00:50Z</time>
</trkpt>
<trkpt lat="41.65049" lon="1.96622">
<ele>877</ele>
<time>2012-03-14T11:02:14Z</time>
</trkpt>
<trkpt lat="41.65049" lon="1.96622">
<ele>877</ele>
<time>2012-03-14T11:02:14Z</time>
</trkpt>
<trkpt lat="41.65049" lon="1.96622">
<ele>877</ele>
<time>2012-03-14T11:02:15Z</time>
</trkpt>
<trkpt lat="41.65054" lon="1.9662">
<ele>879</ele>
<time>2012-03-14T11:02:34Z</time>
</trkpt>
<trkpt lat="41.65054" lon="1.9662">
<ele>879</ele>
<time>2012-03-14T11:02:34Z</time>
</trkpt>
<trkpt lat="41.65054" lon="1.9662">
<ele>879</ele>
<time>2012-03-14T11:02:36Z</time>
</trkpt>
<trkpt lat="41.65058" lon="1.96622">
<ele>878</ele>
<time>2012-03-14T11:03:03Z</time>
</trkpt>
<trkpt lat="41.65064" lon="1.96623">
<ele>878</ele>
<time>2012-03-14T11:03:13Z</time>
</trkpt>
<trkpt lat="41.6507" lon="1.96622">
<ele>877</ele>
<time>2012-03-14T11:03:16Z</time>
</trkpt>
<trkpt lat="41.65075" lon="1.96622">
<ele>877</ele>
<time>2012-03-14T11:03:26Z</time>
</trkpt>
<trkpt lat="41.65081" lon="1.96627">
<ele>875</ele>
<time>2012-03-14T11:04:17Z</time>
</trkpt>
<trkpt lat="41.65087" lon="1.9663">
<ele>875</ele>
<time>2012-03-14T11:04:20Z</time>
</trkpt>
<trkpt lat="41.65093" lon="1.9663">
<ele>875</ele>
<time>2012-03-14T11:04:27Z</time>
</trkpt>
<trkpt lat="41.65098" lon="1.96632">
<ele>875</ele>
<time>2012-03-14T11:04:31Z</time>
</trkpt>
<trkpt lat="41.65103" lon="1.9663">
<ele>875</ele>
<time>2012-03-14T11:04:34Z</time>
</trkpt>
<trkpt lat="41.65107" lon="1.96637">
<ele>872</ele>
<time>2012-03-14T11:04:57Z</time>
</trkpt>
<trkpt lat="41.65112" lon="1.96638">
<ele>873</ele>
<time>2012-03-14T11:04:59Z</time>
</trkpt>
<trkpt lat="41.65117" lon="1.96636">
<ele>875</ele>
<time>2012-03-14T11:05:03Z</time>
</trkpt>
<trkpt lat="41.65117" lon="1.96636">
<ele>875</ele>
<time>2012-03-14T11:05:03Z</time>
</trkpt>
<trkpt lat="41.65117" lon="1.96636">
<ele>875</ele>
<time>2012-03-14T11:05:04Z</time>
</trkpt>
<trkpt lat="41.65125" lon="1.96632">
<ele>874</ele>
<time>2012-03-14T11:05:06Z</time>
</trkpt>
<trkpt lat="41.65132" lon="1.96633">
<ele>874</ele>
<time>2012-03-14T11:05:08Z</time>
</trkpt>
<trkpt lat="41.65136" lon="1.9663">
<ele>876</ele>
<time>2012-03-14T11:05:14Z</time>
</trkpt>
<trkpt lat="41.65139" lon="1.96626">
<ele>876</ele>
<time>2012-03-14T11:05:22Z</time>
</trkpt>
<trkpt lat="41.65142" lon="1.9663">
<ele>872</ele>
<time>2012-03-14T11:10:14Z</time>
</trkpt>
<trkpt lat="41.65147" lon="1.96628">
<ele>866</ele>
<time>2012-03-14T11:11:11Z</time>
</trkpt>
<trkpt lat="41.65151" lon="1.96624">
<ele>865</ele>
<time>2012-03-14T11:11:15Z</time>
</trkpt>
<trkpt lat="41.65152" lon="1.96618">
<ele>865</ele>
<time>2012-03-14T11:11:18Z</time>
</trkpt>
<trkpt lat="41.65156" lon="1.96614">
<ele>865</ele>
<time>2012-03-14T11:11:22Z</time>
</trkpt>
<trkpt lat="41.65158" lon="1.96609">
<ele>864</ele>
<time>2012-03-14T11:11:26Z</time>
</trkpt>
<trkpt lat="41.65161" lon="1.96603">
<ele>864</ele>
<time>2012-03-14T11:11:30Z</time>
</trkpt>
<trkpt lat="41.65164" lon="1.96597">
<ele>864</ele>
<time>2012-03-14T11:11:34Z</time>
</trkpt>
<trkpt lat="41.65168" lon="1.96594">
<ele>865</ele>
<time>2012-03-14T11:11:36Z</time>
</trkpt>
<trkpt lat="41.65168" lon="1.96594">
<ele>865</ele>
<time>2012-03-14T11:11:36Z</time>
</trkpt>
<trkpt lat="41.65168" lon="1.96594">
<ele>865</ele>
<time>2012-03-14T11:11:37Z</time>
</trkpt>
<trkpt lat="41.65172" lon="1.96584">
<ele>864</ele>
<time>2012-03-14T11:11:41Z</time>
</trkpt>
<trkpt lat="41.65174" lon="1.96576">
<ele>867</ele>
<time>2012-03-14T11:11:44Z</time>
</trkpt>
<trkpt lat="41.65178" lon="1.96573">
<ele>867</ele>
<time>2012-03-14T11:11:46Z</time>
</trkpt>
<trkpt lat="41.65184" lon="1.96568">
<ele>864</ele>
<time>2012-03-14T11:11:50Z</time>
</trkpt>
<trkpt lat="41.65186" lon="1.96562">
<ele>866</ele>
<time>2012-03-14T11:11:55Z</time>
</trkpt>
<trkpt lat="41.65187" lon="1.96552">
<ele>865</ele>
<time>2012-03-14T11:11:58Z</time>
</trkpt>
<trkpt lat="41.65191" lon="1.96547">
<ele>866</ele>
<time>2012-03-14T11:11:59Z</time>
</trkpt>
<trkpt lat="41.65198" lon="1.96551">
<ele>865</ele>
<time>2012-03-14T11:12:03Z</time>
</trkpt>
<trkpt lat="41.65204" lon="1.96549">
<ele>864</ele>
<time>2012-03-14T11:12:07Z</time>
</trkpt>
<trkpt lat="41.6521" lon="1.96545">
<ele>864</ele>
<time>2012-03-14T11:12:09Z</time>
</trkpt>
<trkpt lat="41.65214" lon="1.96542">
<ele>866</ele>
<time>2012-03-14T11:12:12Z</time>
</trkpt>
<trkpt lat="41.6522" lon="1.96543">
<ele>866</ele>
<time>2012-03-14T11:12:18Z</time>
</trkpt>
<trkpt lat="41.65225" lon="1.9654">
<ele>865</ele>
<time>2012-03-14T11:12:22Z</time>
</trkpt>
<trkpt lat="41.6523" lon="1.96545">
<ele>864</ele>
<time>2012-03-14T11:12:28Z</time>
</trkpt>
<trkpt lat="41.6523" lon="1.96553">
<ele>865</ele>
<time>2012-03-14T11:12:31Z</time>
</trkpt>
<trkpt lat="41.6523" lon="1.96553">
<ele>865</ele>
<time>2012-03-14T11:12:31Z</time>
</trkpt>
<trkpt lat="41.6523" lon="1.96553">
<ele>865</ele>
<time>2012-03-14T11:12:32Z</time>
</trkpt>
<trkpt lat="41.65237" lon="1.96555">
<ele>862</ele>
<time>2012-03-14T11:12:35Z</time>
</trkpt>
<trkpt lat="41.65242" lon="1.96558">
<ele>862</ele>
<time>2012-03-14T11:12:38Z</time>
</trkpt>
<trkpt lat="41.65247" lon="1.9656">
<ele>861</ele>
<time>2012-03-14T11:12:42Z</time>
</trkpt>
<trkpt lat="41.65252" lon="1.96562">
<ele>859</ele>
<time>2012-03-14T11:12:45Z</time>
</trkpt>
<trkpt lat="41.65256" lon="1.96565">
<ele>860</ele>
<time>2012-03-14T11:12:49Z</time>
</trkpt>
<trkpt lat="41.65262" lon="1.96565">
<ele>860</ele>
<time>2012-03-14T11:12:54Z</time>
</trkpt>
<trkpt lat="41.65266" lon="1.96563">
<ele>859</ele>
<time>2012-03-14T11:12:55Z</time>
</trkpt>
<trkpt lat="41.65262" lon="1.96558">
<ele>860</ele>
<time>2012-03-14T11:12:57Z</time>
</trkpt>
<trkpt lat="41.65264" lon="1.96552">
<ele>861</ele>
<time>2012-03-14T11:13:00Z</time>
</trkpt>
<trkpt lat="41.65269" lon="1.96545">
<ele>861</ele>
<time>2012-03-14T11:13:07Z</time>
</trkpt>
<trkpt lat="41.65274" lon="1.96541">
<ele>862</ele>
<time>2012-03-14T11:13:10Z</time>
</trkpt>
<trkpt lat="41.65277" lon="1.96537">
<ele>862</ele>
<time>2012-03-14T11:13:12Z</time>
</trkpt>
<trkpt lat="41.65282" lon="1.96532">
<ele>863</ele>
<time>2012-03-14T11:13:18Z</time>
</trkpt>
<trkpt lat="41.65286" lon="1.96528">
<ele>863</ele>
<time>2012-03-14T11:13:21Z</time>
</trkpt>
<trkpt lat="41.65289" lon="1.96524">
<ele>864</ele>
<time>2012-03-14T11:13:25Z</time>
</trkpt>
<trkpt lat="41.65296" lon="1.96524">
<ele>863</ele>
<time>2012-03-14T11:13:31Z</time>
</trkpt>
<trkpt lat="41.65306" lon="1.96528">
<ele>865</ele>
<time>2012-03-14T11:14:22Z</time>
</trkpt>
<trkpt lat="41.6532" lon="1.96528">
<ele>865</ele>
<time>2012-03-14T11:14:23Z</time>
</trkpt>
<trkpt lat="41.65326" lon="1.96527">
<ele>865</ele>
<time>2012-03-14T11:14:24Z</time>
</trkpt>
<trkpt lat="41.65334" lon="1.96528">
<ele>866</ele>
<time>2012-03-14T11:14:26Z</time>
</trkpt>
<trkpt lat="41.65341" lon="1.96526">
<ele>866</ele>
<time>2012-03-14T11:14:28Z</time>
</trkpt>
<trkpt lat="41.65349" lon="1.96525">
<ele>868</ele>
<time>2012-03-14T11:14:31Z</time>
</trkpt>
<trkpt lat="41.6536" lon="1.96519">
<ele>868</ele>
<time>2012-03-14T11:15:24Z</time>
</trkpt>
<trkpt lat="41.65352" lon="1.96518">
<ele>864</ele>
<time>2012-03-14T11:15:29Z</time>
</trkpt>
<trkpt lat="41.6535" lon="1.96523">
<ele>859</ele>
<time>2012-03-14T11:15:32Z</time>
</trkpt>
<trkpt lat="41.6535" lon="1.96523">
<ele>859</ele>
<time>2012-03-14T11:15:32Z</time>
</trkpt>
<trkpt lat="41.6535" lon="1.96523">
<ele>858</ele>
<time>2012-03-14T11:15:35Z</time>
</trkpt>
<trkpt lat="41.65363" lon="1.96522">
<ele>865</ele>
<time>2012-03-14T11:15:49Z</time>
</trkpt>
<trkpt lat="41.65363" lon="1.96522">
<ele>865</ele>
<time>2012-03-14T11:15:49Z</time>
</trkpt>
<trkpt lat="41.65363" lon="1.96522">
<ele>865</ele>
<time>2012-03-14T11:16:07Z</time>
</trkpt>
<trkpt lat="41.65367" lon="1.9652">
<ele>867</ele>
<time>2012-03-14T11:17:18Z</time>
</trkpt>
<trkpt lat="41.65367" lon="1.9652">
<ele>867</ele>
<time>2012-03-14T11:17:18Z</time>
</trkpt>
<trkpt lat="41.65367" lon="1.9652">
<ele>867</ele>
<time>2012-03-14T11:17:44Z</time>
</trkpt>
<trkpt lat="41.65374" lon="1.9652">
<ele>867</ele>
<time>2012-03-14T11:18:00Z</time>
</trkpt>
<trkpt lat="41.65383" lon="1.96519">
<ele>866</ele>
<time>2012-03-14T11:18:03Z</time>
</trkpt>
<trkpt lat="41.65394" lon="1.96518">
<ele>865</ele>
<time>2012-03-14T11:18:08Z</time>
</trkpt>
<trkpt lat="41.65401" lon="1.96517">
<ele>865</ele>
<time>2012-03-14T11:18:11Z</time>
</trkpt>
<trkpt lat="41.65405" lon="1.96515">
<ele>865</ele>
<time>2012-03-14T11:18:13Z</time>
</trkpt>
<trkpt lat="41.6541" lon="1.96517">
<ele>865</ele>
<time>2012-03-14T11:18:15Z</time>
</trkpt>
<trkpt lat="41.65415" lon="1.9652">
<ele>865</ele>
<time>2012-03-14T11:18:17Z</time>
</trkpt>
<trkpt lat="41.65418" lon="1.96524">
<ele>865</ele>
<time>2012-03-14T11:18:23Z</time>
</trkpt>
<trkpt lat="41.65424" lon="1.96526">
<ele>865</ele>
<time>2012-03-14T11:18:24Z</time>
</trkpt>
<trkpt lat="41.65419" lon="1.96524">
<ele>865</ele>
<time>2012-03-14T11:18:25Z</time>
</trkpt>
<trkpt lat="41.65424" lon="1.9653">
<ele>865</ele>
<time>2012-03-14T11:18:31Z</time>
</trkpt>
<trkpt lat="41.6543" lon="1.96534">
<ele>865</ele>
<time>2012-03-14T11:18:33Z</time>
</trkpt>
<trkpt lat="41.65428" lon="1.96549">
<ele>864</ele>
<time>2012-03-14T11:18:40Z</time>
</trkpt>
<trkpt lat="41.65439" lon="1.96553">
<ele>864</ele>
<time>2012-03-14T11:18:43Z</time>
</trkpt>
<trkpt lat="41.65443" lon="1.96558">
<ele>863</ele>
<time>2012-03-14T11:18:53Z</time>
</trkpt>
<trkpt lat="41.6545" lon="1.96562">
<ele>863</ele>
<time>2012-03-14T11:18:55Z</time>
</trkpt>
<trkpt lat="41.65455" lon="1.96566">
<ele>863</ele>
<time>2012-03-14T11:18:57Z</time>
</trkpt>
<trkpt lat="41.6546" lon="1.9657">
<ele>862</ele>
<time>2012-03-14T11:19:02Z</time>
</trkpt>
<trkpt lat="41.65462" lon="1.96576">
<ele>861</ele>
<time>2012-03-14T11:19:13Z</time>
</trkpt>
<trkpt lat="41.65466" lon="1.96581">
<ele>860</ele>
<time>2012-03-14T11:19:18Z</time>
</trkpt>
<trkpt lat="41.65469" lon="1.96586">
<ele>860</ele>
<time>2012-03-14T11:19:21Z</time>
</trkpt>
<trkpt lat="41.65476" lon="1.96589">
<ele>861</ele>
<time>2012-03-14T11:19:23Z</time>
</trkpt>
<trkpt lat="41.65481" lon="1.96592">
<ele>860</ele>
<time>2012-03-14T11:19:27Z</time>
</trkpt>
<trkpt lat="41.65485" lon="1.96597">
<ele>860</ele>
<time>2012-03-14T11:19:30Z</time>
</trkpt>
<trkpt lat="41.65488" lon="1.96602">
<ele>860</ele>
<time>2012-03-14T11:19:43Z</time>
</trkpt>
<trkpt lat="41.65493" lon="1.96605">
<ele>860</ele>
<time>2012-03-14T11:19:44Z</time>
</trkpt>
<trkpt lat="41.65499" lon="1.96612">
<ele>860</ele>
<time>2012-03-14T11:19:49Z</time>
</trkpt>
<trkpt lat="41.65497" lon="1.9662">
<ele>859</ele>
<time>2012-03-14T11:19:52Z</time>
</trkpt>
<trkpt lat="41.65501" lon="1.96628">
<ele>859</ele>
<time>2012-03-14T11:19:55Z</time>
</trkpt>
<trkpt lat="41.65506" lon="1.96634">
<ele>859</ele>
<time>2012-03-14T11:19:57Z</time>
</trkpt>
<trkpt lat="41.655" lon="1.96635">
<ele>858</ele>
<time>2012-03-14T11:20:01Z</time>
</trkpt>
<trkpt lat="41.65505" lon="1.96639">
<ele>856</ele>
<time>2012-03-14T11:20:04Z</time>
</trkpt>
<trkpt lat="41.6551" lon="1.9664">
<ele>857</ele>
<time>2012-03-14T11:20:05Z</time>
</trkpt>
<trkpt lat="41.65514" lon="1.96645">
<ele>856</ele>
<time>2012-03-14T11:20:12Z</time>
</trkpt>
<trkpt lat="41.6552" lon="1.96646">
<ele>856</ele>
<time>2012-03-14T11:20:21Z</time>
</trkpt>
<trkpt lat="41.6553" lon="1.96647">
<ele>853</ele>
<time>2012-03-14T11:20:24Z</time>
</trkpt>
<trkpt lat="41.6553" lon="1.96647">
<ele>853</ele>
<time>2012-03-14T11:20:24Z</time>
</trkpt>
<trkpt lat="41.6553" lon="1.96647">
<ele>853</ele>
<time>2012-03-14T11:20:25Z</time>
</trkpt>
<trkpt lat="41.65536" lon="1.96645">
<ele>852</ele>
<time>2012-03-14T11:20:29Z</time>
</trkpt>
<trkpt lat="41.65543" lon="1.96648">
<ele>852</ele>
<time>2012-03-14T11:20:30Z</time>
</trkpt>
<trkpt lat="41.65549" lon="1.96652">
<ele>853</ele>
<time>2012-03-14T11:20:31Z</time>
</trkpt>
<trkpt lat="41.65555" lon="1.96654">
<ele>852</ele>
<time>2012-03-14T11:20:33Z</time>
</trkpt>
<trkpt lat="41.65562" lon="1.96655">
<ele>852</ele>
<time>2012-03-14T11:20:35Z</time>
</trkpt>
<trkpt lat="41.65567" lon="1.9666">
<ele>853</ele>
<time>2012-03-14T11:20:37Z</time>
</trkpt>
<trkpt lat="41.65562" lon="1.96678">
<ele>851</ele>
<time>2012-03-14T11:20:53Z</time>
</trkpt>
<trkpt lat="41.65567" lon="1.96678">
<ele>851</ele>
<time>2012-03-14T11:20:55Z</time>
</trkpt>
<trkpt lat="41.65571" lon="1.96682">
<ele>850</ele>
<time>2012-03-14T11:20:58Z</time>
</trkpt>
<trkpt lat="41.65571" lon="1.96682">
<ele>850</ele>
<time>2012-03-14T11:20:58Z</time>
</trkpt>
<trkpt lat="41.65571" lon="1.96682">
<ele>849</ele>
<time>2012-03-14T11:21:06Z</time>
</trkpt>
<trkpt lat="41.65576" lon="1.96683">
<ele>844</ele>
<time>2012-03-14T11:21:10Z</time>
</trkpt>
<trkpt lat="41.65583" lon="1.9668">
<ele>845</ele>
<time>2012-03-14T11:21:20Z</time>
</trkpt>
<trkpt lat="41.65589" lon="1.9668">
<ele>842</ele>
<time>2012-03-14T11:21:24Z</time>
</trkpt>
<trkpt lat="41.65593" lon="1.96676">
<ele>839</ele>
<time>2012-03-14T11:21:29Z</time>
</trkpt>
<trkpt lat="41.65598" lon="1.96677">
<ele>837</ele>
<time>2012-03-14T11:21:35Z</time>
</trkpt>
<trkpt lat="41.65603" lon="1.96672">
<ele>836</ele>
<time>2012-03-14T11:21:38Z</time>
</trkpt>
<trkpt lat="41.65607" lon="1.96674">
<ele>835</ele>
<time>2012-03-14T11:21:41Z</time>
</trkpt>
<trkpt lat="41.65614" lon="1.96677">
<ele>835</ele>
<time>2012-03-14T11:21:44Z</time>
</trkpt>
<trkpt lat="41.65619" lon="1.96676">
<ele>835</ele>
<time>2012-03-14T11:21:49Z</time>
</trkpt>
<trkpt lat="41.65623" lon="1.96672">
<ele>836</ele>
<time>2012-03-14T11:21:52Z</time>
</trkpt>
<trkpt lat="41.65628" lon="1.96672">
<ele>836</ele>
<time>2012-03-14T11:21:57Z</time>
</trkpt>
<trkpt lat="41.65633" lon="1.96669">
<ele>836</ele>
<time>2012-03-14T11:21:59Z</time>
</trkpt>
<trkpt lat="41.65638" lon="1.96673">
<ele>836</ele>
<time>2012-03-14T11:22:02Z</time>
</trkpt>
<trkpt lat="41.65643" lon="1.96671">
<ele>836</ele>
<time>2012-03-14T11:22:04Z</time>
</trkpt>
<trkpt lat="41.65648" lon="1.96668">
<ele>836</ele>
<time>2012-03-14T11:22:07Z</time>
</trkpt>
<trkpt lat="41.65648" lon="1.96668">
<ele>836</ele>
<time>2012-03-14T11:22:07Z</time>
</trkpt>
<trkpt lat="41.65648" lon="1.96668">
<ele>836</ele>
<time>2012-03-14T11:22:08Z</time>
</trkpt>
<trkpt lat="41.65649" lon="1.96661">
<ele>838</ele>
<time>2012-03-14T11:22:11Z</time>
</trkpt>
<trkpt lat="41.65652" lon="1.96657">
<ele>838</ele>
<time>2012-03-14T11:22:16Z</time>
</trkpt>
<trkpt lat="41.65657" lon="1.96654">
<ele>837</ele>
<time>2012-03-14T11:22:22Z</time>
</trkpt>
<trkpt lat="41.65658" lon="1.96648">
<ele>837</ele>
<time>2012-03-14T11:22:23Z</time>
</trkpt>
<trkpt lat="41.65662" lon="1.9664">
<ele>835</ele>
<time>2012-03-14T11:22:26Z</time>
</trkpt>
<trkpt lat="41.65667" lon="1.96638">
<ele>835</ele>
<time>2012-03-14T11:22:29Z</time>
</trkpt>
<trkpt lat="41.65673" lon="1.96636">
<ele>833</ele>
<time>2012-03-14T11:22:32Z</time>
</trkpt>
<trkpt lat="41.65676" lon="1.96631">
<ele>832</ele>
<time>2012-03-14T11:22:33Z</time>
</trkpt>
<trkpt lat="41.65679" lon="1.96639">
<ele>831</ele>
<time>2012-03-14T11:22:35Z</time>
</trkpt>
<trkpt lat="41.65683" lon="1.96644">
<ele>828</ele>
<time>2012-03-14T11:22:38Z</time>
</trkpt>
<trkpt lat="41.65687" lon="1.96641">
<ele>828</ele>
<time>2012-03-14T11:22:46Z</time>
</trkpt>
<trkpt lat="41.65692" lon="1.96636">
<ele>828</ele>
<time>2012-03-14T11:22:51Z</time>
</trkpt>
<trkpt lat="41.65698" lon="1.96629">
<ele>828</ele>
<time>2012-03-14T11:22:53Z</time>
</trkpt>
<trkpt lat="41.65703" lon="1.96625">
<ele>827</ele>
<time>2012-03-14T11:22:55Z</time>
</trkpt>
<trkpt lat="41.65707" lon="1.96621">
<ele>827</ele>
<time>2012-03-14T11:22:57Z</time>
</trkpt>
<trkpt lat="41.65708" lon="1.96614">
<ele>828</ele>
<time>2012-03-14T11:22:59Z</time>
</trkpt>
<trkpt lat="41.6571" lon="1.96609">
<ele>827</ele>
<time>2012-03-14T11:23:03Z</time>
</trkpt>
<trkpt lat="41.65708" lon="1.96603">
<ele>827</ele>
<time>2012-03-14T11:23:07Z</time>
</trkpt>
<trkpt lat="41.65711" lon="1.96598">
<ele>825</ele>
<time>2012-03-14T11:23:12Z</time>
</trkpt>
<trkpt lat="41.65716" lon="1.96593">
<ele>823</ele>
<time>2012-03-14T11:23:21Z</time>
</trkpt>
<trkpt lat="41.65722" lon="1.96585">
<ele>822</ele>
<time>2012-03-14T11:23:23Z</time>
</trkpt>
<trkpt lat="41.65722" lon="1.96578">
<ele>822</ele>
<time>2012-03-14T11:23:27Z</time>
</trkpt>
<trkpt lat="41.65723" lon="1.96572">
<ele>822</ele>
<time>2012-03-14T11:23:29Z</time>
</trkpt>
<trkpt lat="41.65728" lon="1.96569">
<ele>823</ele>
<time>2012-03-14T11:23:30Z</time>
</trkpt>
<trkpt lat="41.65729" lon="1.9656">
<ele>822</ele>
<time>2012-03-14T11:23:34Z</time>
</trkpt>
<trkpt lat="41.65732" lon="1.96555">
<ele>821</ele>
<time>2012-03-14T11:23:38Z</time>
</trkpt>
<trkpt lat="41.65736" lon="1.96551">
<ele>820</ele>
<time>2012-03-14T11:23:43Z</time>
</trkpt>
<trkpt lat="41.6574" lon="1.96548">
<ele>818</ele>
<time>2012-03-14T11:29:01Z</time>
</trkpt>
<trkpt lat="41.65745" lon="1.96547">
<ele>818</ele>
<time>2012-03-14T11:29:08Z</time>
</trkpt>
<trkpt lat="41.65749" lon="1.96543">
<ele>819</ele>
<time>2012-03-14T11:29:11Z</time>
</trkpt>
<trkpt lat="41.65751" lon="1.96538">
<ele>819</ele>
<time>2012-03-14T11:29:14Z</time>
</trkpt>
<trkpt lat="41.65755" lon="1.96533">
<ele>819</ele>
<time>2012-03-14T11:29:18Z</time>
</trkpt>
<trkpt lat="41.65758" lon="1.96528">
<ele>819</ele>
<time>2012-03-14T11:29:24Z</time>
</trkpt>
<trkpt lat="41.65763" lon="1.96523">
<ele>820</ele>
<time>2012-03-14T11:29:28Z</time>
</trkpt>
<trkpt lat="41.65768" lon="1.96521">
<ele>820</ele>
<time>2012-03-14T11:29:31Z</time>
</trkpt>
<trkpt lat="41.65773" lon="1.96523">
<ele>819</ele>
<time>2012-03-14T11:29:34Z</time>
</trkpt>
<trkpt lat="41.65778" lon="1.96523">
<ele>819</ele>
<time>2012-03-14T11:29:37Z</time>
</trkpt>
<trkpt lat="41.65784" lon="1.96525">
<ele>820</ele>
<time>2012-03-14T11:29:41Z</time>
</trkpt>
<trkpt lat="41.6579" lon="1.96527">
<ele>821</ele>
<time>2012-03-14T11:29:46Z</time>
</trkpt>
<trkpt lat="41.65795" lon="1.9653">
<ele>824</ele>
<time>2012-03-14T11:29:50Z</time>
</trkpt>
<trkpt lat="41.65799" lon="1.96534">
<ele>825</ele>
<time>2012-03-14T11:29:54Z</time>
</trkpt>
<trkpt lat="41.65804" lon="1.96534">
<ele>823</ele>
<time>2012-03-14T11:29:58Z</time>
</trkpt>
<trkpt lat="41.6581" lon="1.96534">
<ele>823</ele>
<time>2012-03-14T11:30:02Z</time>
</trkpt>
<trkpt lat="41.65816" lon="1.96534">
<ele>822</ele>
<time>2012-03-14T11:30:06Z</time>
</trkpt>
<trkpt lat="41.65821" lon="1.96536">
<ele>823</ele>
<time>2012-03-14T11:30:10Z</time>
</trkpt>
<trkpt lat="41.65826" lon="1.96539">
<ele>822</ele>
<time>2012-03-14T11:30:15Z</time>
</trkpt>
<trkpt lat="41.6583" lon="1.96536">
<ele>822</ele>
<time>2012-03-14T11:30:20Z</time>
</trkpt>
<trkpt lat="41.65835" lon="1.96537">
<ele>820</ele>
<time>2012-03-14T11:30:25Z</time>
</trkpt>
<trkpt lat="41.65841" lon="1.96538">
<ele>819</ele>
<time>2012-03-14T11:30:29Z</time>
</trkpt>
<trkpt lat="41.65846" lon="1.9654">
<ele>819</ele>
<time>2012-03-14T11:30:32Z</time>
</trkpt>
<trkpt lat="41.65851" lon="1.96538">
<ele>818</ele>
<time>2012-03-14T11:30:39Z</time>
</trkpt>
<trkpt lat="41.65855" lon="1.96531">
<ele>819</ele>
<time>2012-03-14T11:30:42Z</time>
</trkpt>
<trkpt lat="41.65859" lon="1.96534">
<ele>819</ele>
<time>2012-03-14T11:30:44Z</time>
</trkpt>
<trkpt lat="41.65864" lon="1.96534">
<ele>818</ele>
<time>2012-03-14T11:30:50Z</time>
</trkpt>
<trkpt lat="41.65869" lon="1.96536">
<ele>819</ele>
<time>2012-03-14T11:30:52Z</time>
</trkpt>
<trkpt lat="41.65873" lon="1.96538">
<ele>818</ele>
<time>2012-03-14T11:30:55Z</time>
</trkpt>
<trkpt lat="41.65878" lon="1.9654">
<ele>819</ele>
<time>2012-03-14T11:30:59Z</time>
</trkpt>
<trkpt lat="41.65883" lon="1.96539">
<ele>818</ele>
<time>2012-03-14T11:31:05Z</time>
</trkpt>
<trkpt lat="41.65888" lon="1.96544">
<ele>817</ele>
<time>2012-03-14T11:31:09Z</time>
</trkpt>
<trkpt lat="41.65893" lon="1.96547">
<ele>815</ele>
<time>2012-03-14T11:31:12Z</time>
</trkpt>
<trkpt lat="41.65898" lon="1.96547">
<ele>815</ele>
<time>2012-03-14T11:31:17Z</time>
</trkpt>
<trkpt lat="41.65904" lon="1.96547">
<ele>815</ele>
<time>2012-03-14T11:31:21Z</time>
</trkpt>
<trkpt lat="41.65909" lon="1.96547">
<ele>816</ele>
<time>2012-03-14T11:31:24Z</time>
</trkpt>
<trkpt lat="41.65914" lon="1.96547">
<ele>817</ele>
<time>2012-03-14T11:31:26Z</time>
</trkpt>
<trkpt lat="41.65919" lon="1.96548">
<ele>818</ele>
<time>2012-03-14T11:31:30Z</time>
</trkpt>
<trkpt lat="41.65925" lon="1.96548">
<ele>818</ele>
<time>2012-03-14T11:31:33Z</time>
</trkpt>
<trkpt lat="41.65929" lon="1.96545">
<ele>819</ele>
<time>2012-03-14T11:31:37Z</time>
</trkpt>
<trkpt lat="41.65934" lon="1.96543">
<ele>818</ele>
<time>2012-03-14T11:31:40Z</time>
</trkpt>
<trkpt lat="41.6594" lon="1.96542">
<ele>818</ele>
<time>2012-03-14T11:31:45Z</time>
</trkpt>
<trkpt lat="41.65945" lon="1.9654">
<ele>822</ele>
<time>2012-03-14T11:31:49Z</time>
</trkpt>
<trkpt lat="41.6595" lon="1.96539">
<ele>822</ele>
<time>2012-03-14T11:31:53Z</time>
</trkpt>
<trkpt lat="41.65955" lon="1.96537">
<ele>823</ele>
<time>2012-03-14T11:31:57Z</time>
</trkpt>
<trkpt lat="41.6596" lon="1.96538">
<ele>824</ele>
<time>2012-03-14T11:32:00Z</time>
</trkpt>
<trkpt lat="41.65965" lon="1.96534">
<ele>828</ele>
<time>2012-03-14T11:32:06Z</time>
</trkpt>
<trkpt lat="41.6597" lon="1.96534">
<ele>830</ele>
<time>2012-03-14T11:32:10Z</time>
</trkpt>
<trkpt lat="41.65975" lon="1.96536">
<ele>830</ele>
<time>2012-03-14T11:32:13Z</time>
</trkpt>
<trkpt lat="41.65979" lon="1.96533">
<ele>832</ele>
<time>2012-03-14T11:32:18Z</time>
</trkpt>
<trkpt lat="41.65984" lon="1.96534">
<ele>832</ele>
<time>2012-03-14T11:32:22Z</time>
</trkpt>
<trkpt lat="41.65989" lon="1.96534">
<ele>831</ele>
<time>2012-03-14T11:32:26Z</time>
</trkpt>
<trkpt lat="41.65992" lon="1.96529">
<ele>834</ele>
<time>2012-03-14T11:32:30Z</time>
</trkpt>
<trkpt lat="41.65996" lon="1.96524">
<ele>834</ele>
<time>2012-03-14T11:32:34Z</time>
</trkpt>
<trkpt lat="41.65997" lon="1.96516">
<ele>836</ele>
<time>2012-03-14T11:32:40Z</time>
</trkpt>
<trkpt lat="41.65995" lon="1.96509">
<ele>838</ele>
<time>2012-03-14T11:32:44Z</time>
</trkpt>
<trkpt lat="41.65995" lon="1.96501">
<ele>839</ele>
<time>2012-03-14T11:32:49Z</time>
</trkpt>
<trkpt lat="41.65998" lon="1.96496">
<ele>839</ele>
<time>2012-03-14T11:32:52Z</time>
</trkpt>
<trkpt lat="41.66002" lon="1.9649">
<ele>843</ele>
<time>2012-03-14T11:32:57Z</time>
</trkpt>
<trkpt lat="41.66001" lon="1.96484">
<ele>849</ele>
<time>2012-03-14T11:33:03Z</time>
</trkpt>
<trkpt lat="41.65998" lon="1.96477">
<ele>850</ele>
<time>2012-03-14T11:33:09Z</time>
</trkpt>
<trkpt lat="41.65994" lon="1.96474">
<ele>848</ele>
<time>2012-03-14T11:33:12Z</time>
</trkpt>
<trkpt lat="41.65991" lon="1.96479">
<ele>848</ele>
<time>2012-03-14T11:33:13Z</time>
</trkpt>
<trkpt lat="41.65986" lon="1.96473">
<ele>842</ele>
<time>2012-03-14T11:33:19Z</time>
</trkpt>
<trkpt lat="41.65981" lon="1.96472">
<ele>842</ele>
<time>2012-03-14T11:33:22Z</time>
</trkpt>
<trkpt lat="41.65977" lon="1.96468">
<ele>840</ele>
<time>2012-03-14T11:33:25Z</time>
</trkpt>
<trkpt lat="41.65974" lon="1.96462">
<ele>839</ele>
<time>2012-03-14T11:33:28Z</time>
</trkpt>
<trkpt lat="41.6597" lon="1.96458">
<ele>839</ele>
<time>2012-03-14T11:33:31Z</time>
</trkpt>
<trkpt lat="41.65968" lon="1.96451">
<ele>839</ele>
<time>2012-03-14T11:33:35Z</time>
</trkpt>
<trkpt lat="41.65967" lon="1.96444">
<ele>839</ele>
<time>2012-03-14T11:33:38Z</time>
</trkpt>
<trkpt lat="41.65963" lon="1.96441">
<ele>840</ele>
<time>2012-03-14T11:33:42Z</time>
</trkpt>
<trkpt lat="41.6596" lon="1.96435">
<ele>840</ele>
<time>2012-03-14T11:33:44Z</time>
</trkpt>
<trkpt lat="41.65958" lon="1.96428">
<ele>840</ele>
<time>2012-03-14T11:33:48Z</time>
</trkpt>
<trkpt lat="41.65956" lon="1.96423">
<ele>840</ele>
<time>2012-03-14T11:33:51Z</time>
</trkpt>
<trkpt lat="41.65956" lon="1.96416">
<ele>841</ele>
<time>2012-03-14T11:33:55Z</time>
</trkpt>
<trkpt lat="41.65954" lon="1.96411">
<ele>842</ele>
<time>2012-03-14T11:34:01Z</time>
</trkpt>
<trkpt lat="41.65954" lon="1.96404">
<ele>842</ele>
<time>2012-03-14T11:34:06Z</time>
</trkpt>
<trkpt lat="41.65948" lon="1.96403">
<ele>844</ele>
<time>2012-03-14T11:34:10Z</time>
</trkpt>
<trkpt lat="41.65944" lon="1.96399">
<ele>843</ele>
<time>2012-03-14T11:34:13Z</time>
</trkpt>
<trkpt lat="41.65939" lon="1.96397">
<ele>843</ele>
<time>2012-03-14T11:34:16Z</time>
</trkpt>
<trkpt lat="41.65935" lon="1.96397">
<ele>843</ele>
<time>2012-03-14T11:34:19Z</time>
</trkpt>
<trkpt lat="41.65931" lon="1.96392">
<ele>842</ele>
<time>2012-03-14T11:34:24Z</time>
</trkpt>
<trkpt lat="41.65928" lon="1.96385">
<ele>843</ele>
<time>2012-03-14T11:34:28Z</time>
</trkpt>
<trkpt lat="41.65927" lon="1.96378">
<ele>840</ele>
<time>2012-03-14T11:34:32Z</time>
</trkpt>
<trkpt lat="41.65928" lon="1.96372">
<ele>839</ele>
<time>2012-03-14T11:34:35Z</time>
</trkpt>
<trkpt lat="41.65929" lon="1.96366">
<ele>838</ele>
<time>2012-03-14T11:34:38Z</time>
</trkpt>
<trkpt lat="41.65929" lon="1.96359">
<ele>837</ele>
<time>2012-03-14T11:34:42Z</time>
</trkpt>
<trkpt lat="41.65928" lon="1.96352">
<ele>837</ele>
<time>2012-03-14T11:34:47Z</time>
</trkpt>
<trkpt lat="41.65928" lon="1.96344">
<ele>837</ele>
<time>2012-03-14T11:34:51Z</time>
</trkpt>
<trkpt lat="41.6593" lon="1.96338">
<ele>832</ele>
<time>2012-03-14T11:34:54Z</time>
</trkpt>
<trkpt lat="41.65931" lon="1.9633">
<ele>829</ele>
<time>2012-03-14T11:34:57Z</time>
</trkpt>
<trkpt lat="41.65933" lon="1.96324">
<ele>828</ele>
<time>2012-03-14T11:35:01Z</time>
</trkpt>
<trkpt lat="41.65928" lon="1.96319">
<ele>829</ele>
<time>2012-03-14T11:35:16Z</time>
</trkpt>
<trkpt lat="41.65928" lon="1.96319">
<ele>829</ele>
<time>2012-03-14T11:35:16Z</time>
</trkpt>
<trkpt lat="41.65928" lon="1.96319">
<ele>829</ele>
<time>2012-03-14T11:35:17Z</time>
</trkpt>
<trkpt lat="41.65922" lon="1.96311">
<ele>829</ele>
<time>2012-03-14T11:35:25Z</time>
</trkpt>
<trkpt lat="41.65917" lon="1.96306">
<ele>829</ele>
<time>2012-03-14T11:35:27Z</time>
</trkpt>
<trkpt lat="41.65913" lon="1.96304">
<ele>830</ele>
<time>2012-03-14T11:35:29Z</time>
</trkpt>
<trkpt lat="41.65909" lon="1.96299">
<ele>830</ele>
<time>2012-03-14T11:35:31Z</time>
</trkpt>
<trkpt lat="41.65903" lon="1.96297">
<ele>830</ele>
<time>2012-03-14T11:35:34Z</time>
</trkpt>
<trkpt lat="41.65899" lon="1.96294">
<ele>829</ele>
<time>2012-03-14T11:35:36Z</time>
</trkpt>
<trkpt lat="41.65894" lon="1.96291">
<ele>828</ele>
<time>2012-03-14T11:35:38Z</time>
</trkpt>
<trkpt lat="41.6589" lon="1.9629">
<ele>828</ele>
<time>2012-03-14T11:35:42Z</time>
</trkpt>
<trkpt lat="41.65884" lon="1.96286">
<ele>830</ele>
<time>2012-03-14T11:35:46Z</time>
</trkpt>
<trkpt lat="41.6588" lon="1.96284">
<ele>832</ele>
<time>2012-03-14T11:35:49Z</time>
</trkpt>
<trkpt lat="41.65874" lon="1.96283">
<ele>834</ele>
<time>2012-03-14T11:35:53Z</time>
</trkpt>
<trkpt lat="41.65871" lon="1.96278">
<ele>833</ele>
<time>2012-03-14T11:35:57Z</time>
</trkpt>
<trkpt lat="41.6587" lon="1.96271">
<ele>833</ele>
<time>2012-03-14T11:36:00Z</time>
</trkpt>
<trkpt lat="41.65872" lon="1.96264">
<ele>834</ele>
<time>2012-03-14T11:36:04Z</time>
</trkpt>
<trkpt lat="41.65874" lon="1.96259">
<ele>833</ele>
<time>2012-03-14T11:36:07Z</time>
</trkpt>
<trkpt lat="41.65877" lon="1.96253">
<ele>834</ele>
<time>2012-03-14T11:36:10Z</time>
</trkpt>
<trkpt lat="41.6588" lon="1.96246">
<ele>834</ele>
<time>2012-03-14T11:36:14Z</time>
</trkpt>
<trkpt lat="41.65882" lon="1.96239">
<ele>834</ele>
<time>2012-03-14T11:36:18Z</time>
</trkpt>
<trkpt lat="41.65884" lon="1.96232">
<ele>835</ele>
<time>2012-03-14T11:36:21Z</time>
</trkpt>
<trkpt lat="41.65885" lon="1.96225">
<ele>835</ele>
<time>2012-03-14T11:36:25Z</time>
</trkpt>
<trkpt lat="41.65886" lon="1.96219">
<ele>834</ele>
<time>2012-03-14T11:36:29Z</time>
</trkpt>
<trkpt lat="41.65888" lon="1.96213">
<ele>835</ele>
<time>2012-03-14T11:36:32Z</time>
</trkpt>
<trkpt lat="41.65891" lon="1.96208">
<ele>835</ele>
<time>2012-03-14T11:36:35Z</time>
</trkpt>
<trkpt lat="41.65894" lon="1.96201">
<ele>835</ele>
<time>2012-03-14T11:36:38Z</time>
</trkpt>
<trkpt lat="41.65898" lon="1.96197">
<ele>832</ele>
<time>2012-03-14T11:36:41Z</time>
</trkpt>
<trkpt lat="41.65902" lon="1.96193">
<ele>831</ele>
<time>2012-03-14T11:36:45Z</time>
</trkpt>
<trkpt lat="41.65904" lon="1.96188">
<ele>829</ele>
<time>2012-03-14T11:36:49Z</time>
</trkpt>
<trkpt lat="41.65909" lon="1.96184">
<ele>831</ele>
<time>2012-03-14T11:36:53Z</time>
</trkpt>
<trkpt lat="41.65913" lon="1.9618">
<ele>834</ele>
<time>2012-03-14T11:36:57Z</time>
</trkpt>
<trkpt lat="41.65916" lon="1.96175">
<ele>833</ele>
<time>2012-03-14T11:37:00Z</time>
</trkpt>
<trkpt lat="41.65916" lon="1.96168">
<ele>832</ele>
<time>2012-03-14T11:37:04Z</time>
</trkpt>
<trkpt lat="41.65918" lon="1.96161">
<ele>832</ele>
<time>2012-03-14T11:37:08Z</time>
</trkpt>
<trkpt lat="41.6592" lon="1.96155">
<ele>832</ele>
<time>2012-03-14T11:37:11Z</time>
</trkpt>
<trkpt lat="41.6592" lon="1.96147">
<ele>830</ele>
<time>2012-03-14T11:37:16Z</time>
</trkpt>
<trkpt lat="41.65921" lon="1.96141">
<ele>831</ele>
<time>2012-03-14T11:37:19Z</time>
</trkpt>
<trkpt lat="41.65924" lon="1.96131">
<ele>830</ele>
<time>2012-03-14T11:37:22Z</time>
</trkpt>
<trkpt lat="41.6592" lon="1.96131">
<ele>828</ele>
<time>2012-03-14T11:37:26Z</time>
</trkpt>
<trkpt lat="41.6592" lon="1.96124">
<ele>827</ele>
<time>2012-03-14T11:37:29Z</time>
</trkpt>
<trkpt lat="41.65921" lon="1.96113">
<ele>827</ele>
<time>2012-03-14T11:37:32Z</time>
</trkpt>
<trkpt lat="41.65917" lon="1.96118">
<ele>826</ele>
<time>2012-03-14T11:37:34Z</time>
</trkpt>
<trkpt lat="41.65913" lon="1.96114">
<ele>826</ele>
<time>2012-03-14T11:37:36Z</time>
</trkpt>
<trkpt lat="41.65908" lon="1.96113">
<ele>826</ele>
<time>2012-03-14T11:37:41Z</time>
</trkpt>
<trkpt lat="41.65907" lon="1.96119">
<ele>826</ele>
<time>2012-03-14T11:37:44Z</time>
</trkpt>
<trkpt lat="41.6591" lon="1.96114">
<ele>823</ele>
<time>2012-03-14T11:37:52Z</time>
</trkpt>
<trkpt lat="41.6591" lon="1.96114">
<ele>823</ele>
<time>2012-03-14T11:37:52Z</time>
</trkpt>
<trkpt lat="41.6591" lon="1.96114">
<ele>825</ele>
<time>2012-03-14T11:37:55Z</time>
</trkpt>
<trkpt lat="41.65915" lon="1.96099">
<ele>823</ele>
<time>2012-03-14T11:38:29Z</time>
</trkpt>
<trkpt lat="41.65925" lon="1.96093">
<ele>823</ele>
<time>2012-03-14T11:38:30Z</time>
</trkpt>
<trkpt lat="41.65927" lon="1.96085">
<ele>823</ele>
<time>2012-03-14T11:38:31Z</time>
</trkpt>
<trkpt lat="41.65933" lon="1.96089">
<ele>823</ele>
<time>2012-03-14T11:38:33Z</time>
</trkpt>
<trkpt lat="41.65938" lon="1.96087">
<ele>823</ele>
<time>2012-03-14T11:38:38Z</time>
</trkpt>
<trkpt lat="41.65946" lon="1.9608">
<ele>818</ele>
<time>2012-03-14T11:39:48Z</time>
</trkpt>
<trkpt lat="41.65953" lon="1.96082">
<ele>817</ele>
<time>2012-03-14T11:39:49Z</time>
</trkpt>
<trkpt lat="41.65959" lon="1.9608">
<ele>814</ele>
<time>2012-03-14T11:39:51Z</time>
</trkpt>
<trkpt lat="41.65961" lon="1.96085">
<ele>806</ele>
<time>2012-03-14T11:39:57Z</time>
</trkpt>
<trkpt lat="41.65963" lon="1.96092">
<ele>804</ele>
<time>2012-03-14T11:40:01Z</time>
</trkpt>
<trkpt lat="41.65968" lon="1.96096">
<ele>803</ele>
<time>2012-03-14T11:40:06Z</time>
</trkpt>
<trkpt lat="41.65974" lon="1.96098">
<ele>802</ele>
<time>2012-03-14T11:40:09Z</time>
</trkpt>
<trkpt lat="41.65979" lon="1.96097">
<ele>797</ele>
<time>2012-03-14T11:40:19Z</time>
</trkpt>
<trkpt lat="41.65983" lon="1.96094">
<ele>791</ele>
<time>2012-03-14T11:40:31Z</time>
</trkpt>
<trkpt lat="41.65988" lon="1.9609">
<ele>784</ele>
<time>2012-03-14T11:40:38Z</time>
</trkpt>
<trkpt lat="41.65992" lon="1.96092">
<ele>782</ele>
<time>2012-03-14T11:40:41Z</time>
</trkpt>
<trkpt lat="41.65994" lon="1.96097">
<ele>780</ele>
<time>2012-03-14T11:40:47Z</time>
</trkpt>
<trkpt lat="41.65997" lon="1.96102">
<ele>780</ele>
<time>2012-03-14T11:40:50Z</time>
</trkpt>
<trkpt lat="41.66001" lon="1.96106">
<ele>780</ele>
<time>2012-03-14T11:40:53Z</time>
</trkpt>
<trkpt lat="41.66005" lon="1.96109">
<ele>779</ele>
<time>2012-03-14T11:40:56Z</time>
</trkpt>
<trkpt lat="41.6601" lon="1.9611">
<ele>779</ele>
<time>2012-03-14T11:41:00Z</time>
</trkpt>
<trkpt lat="41.66016" lon="1.96111">
<ele>779</ele>
<time>2012-03-14T11:41:04Z</time>
</trkpt>
<trkpt lat="41.66022" lon="1.96111">
<ele>777</ele>
<time>2012-03-14T11:41:12Z</time>
</trkpt>
<trkpt lat="41.66022" lon="1.96111">
<ele>777</ele>
<time>2012-03-14T11:41:12Z</time>
</trkpt>
<trkpt lat="41.66022" lon="1.96111">
<ele>777</ele>
<time>2012-03-14T11:41:13Z</time>
</trkpt>
<trkpt lat="41.66027" lon="1.96114">
<ele>773</ele>
<time>2012-03-14T11:41:20Z</time>
</trkpt>
<trkpt lat="41.66032" lon="1.96119">
<ele>774</ele>
<time>2012-03-14T11:41:26Z</time>
</trkpt>
<trkpt lat="41.66035" lon="1.96124">
<ele>773</ele>
<time>2012-03-14T11:41:28Z</time>
</trkpt>
<trkpt lat="41.6604" lon="1.96125">
<ele>774</ele>
<time>2012-03-14T11:41:31Z</time>
</trkpt>
<trkpt lat="41.66045" lon="1.96127">
<ele>775</ele>
<time>2012-03-14T11:41:35Z</time>
</trkpt>
<trkpt lat="41.66049" lon="1.96122">
<ele>772</ele>
<time>2012-03-14T11:41:39Z</time>
</trkpt>
<trkpt lat="41.6605" lon="1.96116">
<ele>771</ele>
<time>2012-03-14T11:41:43Z</time>
</trkpt>
<trkpt lat="41.6605" lon="1.96108">
<ele>770</ele>
<time>2012-03-14T11:41:48Z</time>
</trkpt>
<trkpt lat="41.66054" lon="1.96103">
<ele>769</ele>
<time>2012-03-14T11:41:51Z</time>
</trkpt>
<trkpt lat="41.66057" lon="1.96099">
<ele>768</ele>
<time>2012-03-14T11:41:55Z</time>
</trkpt>
<trkpt lat="41.66058" lon="1.96091">
<ele>767</ele>
<time>2012-03-14T11:41:59Z</time>
</trkpt>
<trkpt lat="41.6606" lon="1.96086">
<ele>765</ele>
<time>2012-03-14T11:42:02Z</time>
</trkpt>
<trkpt lat="41.66062" lon="1.96079">
<ele>765</ele>
<time>2012-03-14T11:42:05Z</time>
</trkpt>
<trkpt lat="41.66062" lon="1.96072">
<ele>764</ele>
<time>2012-03-14T11:42:08Z</time>
</trkpt>
<trkpt lat="41.66063" lon="1.96065">
<ele>763</ele>
<time>2012-03-14T11:42:12Z</time>
</trkpt>
<trkpt lat="41.66065" lon="1.96057">
<ele>763</ele>
<time>2012-03-14T11:42:16Z</time>
</trkpt>
<trkpt lat="41.66068" lon="1.96052">
<ele>764</ele>
<time>2012-03-14T11:42:21Z</time>
</trkpt>
<trkpt lat="41.66072" lon="1.96048">
<ele>764</ele>
<time>2012-03-14T11:42:33Z</time>
</trkpt>
<trkpt lat="41.66075" lon="1.96043">
<ele>762</ele>
<time>2012-03-14T11:42:36Z</time>
</trkpt>
<trkpt lat="41.66078" lon="1.96037">
<ele>762</ele>
<time>2012-03-14T11:42:42Z</time>
</trkpt>
<trkpt lat="41.6608" lon="1.9603">
<ele>761</ele>
<time>2012-03-14T11:42:46Z</time>
</trkpt>
<trkpt lat="41.66082" lon="1.96024">
<ele>760</ele>
<time>2012-03-14T11:42:50Z</time>
</trkpt>
<trkpt lat="41.66084" lon="1.96018">
<ele>761</ele>
<time>2012-03-14T11:42:53Z</time>
</trkpt>
<trkpt lat="41.66088" lon="1.96013">
<ele>762</ele>
<time>2012-03-14T11:42:57Z</time>
</trkpt>
<trkpt lat="41.6609" lon="1.96007">
<ele>760</ele>
<time>2012-03-14T11:43:02Z</time>
</trkpt>
<trkpt lat="41.66092" lon="1.96">
<ele>761</ele>
<time>2012-03-14T11:43:06Z</time>
</trkpt>
<trkpt lat="41.66096" lon="1.95996">
<ele>759</ele>
<time>2012-03-14T11:43:10Z</time>
</trkpt>
<trkpt lat="41.66099" lon="1.95991">
<ele>759</ele>
<time>2012-03-14T11:43:15Z</time>
</trkpt>
<trkpt lat="41.66103" lon="1.95988">
<ele>758</ele>
<time>2012-03-14T11:43:18Z</time>
</trkpt>
<trkpt lat="41.66107" lon="1.95983">
<ele>758</ele>
<time>2012-03-14T11:43:22Z</time>
</trkpt>
<trkpt lat="41.6611" lon="1.95977">
<ele>759</ele>
<time>2012-03-14T11:43:27Z</time>
</trkpt>
<trkpt lat="41.66114" lon="1.95972">
<ele>760</ele>
<time>2012-03-14T11:43:30Z</time>
</trkpt>
<trkpt lat="41.66112" lon="1.95959">
<ele>762</ele>
<time>2012-03-14T11:43:34Z</time>
</trkpt>
<trkpt lat="41.66112" lon="1.95951">
<ele>761</ele>
<time>2012-03-14T11:43:37Z</time>
</trkpt>
<trkpt lat="41.66115" lon="1.95947">
<ele>761</ele>
<time>2012-03-14T11:43:41Z</time>
</trkpt>
<trkpt lat="41.66119" lon="1.95943">
<ele>760</ele>
<time>2012-03-14T11:43:46Z</time>
</trkpt>
<trkpt lat="41.66123" lon="1.95938">
<ele>760</ele>
<time>2012-03-14T11:43:51Z</time>
</trkpt>
<trkpt lat="41.66127" lon="1.95932">
<ele>760</ele>
<time>2012-03-14T11:43:55Z</time>
</trkpt>
<trkpt lat="41.66131" lon="1.95929">
<ele>762</ele>
<time>2012-03-14T11:43:58Z</time>
</trkpt>
<trkpt lat="41.66136" lon="1.95928">
<ele>761</ele>
<time>2012-03-14T11:44:03Z</time>
</trkpt>
<trkpt lat="41.66139" lon="1.95922">
<ele>759</ele>
<time>2012-03-14T11:44:06Z</time>
</trkpt>
<trkpt lat="41.66143" lon="1.95919">
<ele>757</ele>
<time>2012-03-14T11:44:08Z</time>
</trkpt>
<trkpt lat="41.66147" lon="1.95915">
<ele>756</ele>
<time>2012-03-14T11:44:14Z</time>
</trkpt>
<trkpt lat="41.66152" lon="1.95912">
<ele>758</ele>
<time>2012-03-14T11:44:20Z</time>
</trkpt>
<trkpt lat="41.66155" lon="1.95907">
<ele>758</ele>
<time>2012-03-14T11:44:24Z</time>
</trkpt>
<trkpt lat="41.66159" lon="1.95902">
<ele>762</ele>
<time>2012-03-14T11:44:32Z</time>
</trkpt>
<trkpt lat="41.66158" lon="1.95908">
<ele>770</ele>
<time>2012-03-14T11:45:20Z</time>
</trkpt>
<trkpt lat="41.6616" lon="1.95916">
<ele>770</ele>
<time>2012-03-14T11:45:23Z</time>
</trkpt>
<trkpt lat="41.66162" lon="1.95923">
<ele>772</ele>
<time>2012-03-14T11:45:25Z</time>
</trkpt>
<trkpt lat="41.66163" lon="1.95929">
<ele>773</ele>
<time>2012-03-14T11:45:33Z</time>
</trkpt>
<trkpt lat="41.66173" lon="1.95968">
<ele>814</ele>
<time>2012-03-14T11:47:10Z</time>
</trkpt>
<trkpt lat="41.6617" lon="1.9596">
<ele>825</ele>
<time>2012-03-14T11:47:11Z</time>
</trkpt>
<trkpt lat="41.6617" lon="1.95966">
<ele>822</ele>
<time>2012-03-14T11:47:18Z</time>
</trkpt>
<trkpt lat="41.66165" lon="1.95975">
<ele>804</ele>
<time>2012-03-14T11:47:36Z</time>
</trkpt>
<trkpt lat="41.6616" lon="1.95977">
<ele>801</ele>
<time>2012-03-14T11:48:26Z</time>
</trkpt>
<trkpt lat="41.66156" lon="1.95981">
<ele>800</ele>
<time>2012-03-14T11:48:38Z</time>
</trkpt>
<trkpt lat="41.66154" lon="1.95987">
<ele>802</ele>
<time>2012-03-14T11:50:11Z</time>
</trkpt>
<trkpt lat="41.66153" lon="1.95994">
<ele>801</ele>
<time>2012-03-14T11:50:14Z</time>
</trkpt>
<trkpt lat="41.66149" lon="1.96">
<ele>801</ele>
<time>2012-03-14T11:50:18Z</time>
</trkpt>
<trkpt lat="41.6615" lon="1.96008">
<ele>801</ele>
<time>2012-03-14T11:50:22Z</time>
</trkpt>
<trkpt lat="41.6615" lon="1.96008">
<ele>801</ele>
<time>2012-03-14T11:50:22Z</time>
</trkpt>
<trkpt lat="41.6615" lon="1.96008">
<ele>801</ele>
<time>2012-03-14T11:50:23Z</time>
</trkpt>
<trkpt lat="41.66151" lon="1.96014">
<ele>801</ele>
<time>2012-03-14T11:50:39Z</time>
</trkpt>
<trkpt lat="41.66151" lon="1.96021">
<ele>802</ele>
<time>2012-03-14T11:50:40Z</time>
</trkpt>
<trkpt lat="41.66152" lon="1.96028">
<ele>801</ele>
<time>2012-03-14T11:50:42Z</time>
</trkpt>
<trkpt lat="41.66152" lon="1.96036">
<ele>801</ele>
<time>2012-03-14T11:50:45Z</time>
</trkpt>
<trkpt lat="41.66153" lon="1.96043">
<ele>802</ele>
<time>2012-03-14T11:50:49Z</time>
</trkpt>
<trkpt lat="41.66153" lon="1.9605">
<ele>803</ele>
<time>2012-03-14T11:50:53Z</time>
</trkpt>
<trkpt lat="41.66153" lon="1.96058">
<ele>805</ele>
<time>2012-03-14T11:50:56Z</time>
</trkpt>
<trkpt lat="41.66153" lon="1.96066">
<ele>806</ele>
<time>2012-03-14T11:51:00Z</time>
</trkpt>
<trkpt lat="41.6615" lon="1.96073">
<ele>806</ele>
<time>2012-03-14T11:51:05Z</time>
</trkpt>
<trkpt lat="41.66149" lon="1.9608">
<ele>807</ele>
<time>2012-03-14T11:51:10Z</time>
</trkpt>
<trkpt lat="41.66146" lon="1.96087">
<ele>810</ele>
<time>2012-03-14T11:51:21Z</time>
</trkpt>
<trkpt lat="41.66144" lon="1.96094">
<ele>811</ele>
<time>2012-03-14T11:51:23Z</time>
</trkpt>
<trkpt lat="41.66143" lon="1.96102">
<ele>812</ele>
<time>2012-03-14T11:51:25Z</time>
</trkpt>
<trkpt lat="41.66142" lon="1.96108">
<ele>812</ele>
<time>2012-03-14T11:51:27Z</time>
</trkpt>
<trkpt lat="41.66143" lon="1.96114">
<ele>812</ele>
<time>2012-03-14T11:51:31Z</time>
</trkpt>
<trkpt lat="41.66145" lon="1.96122">
<ele>813</ele>
<time>2012-03-14T11:51:34Z</time>
</trkpt>
<trkpt lat="41.66144" lon="1.9613">
<ele>815</ele>
<time>2012-03-14T11:51:39Z</time>
</trkpt>
<trkpt lat="41.66145" lon="1.96137">
<ele>816</ele>
<time>2012-03-14T11:51:44Z</time>
</trkpt>
<trkpt lat="41.66147" lon="1.96144">
<ele>817</ele>
<time>2012-03-14T11:51:48Z</time>
</trkpt>
<trkpt lat="41.66148" lon="1.9615">
<ele>817</ele>
<time>2012-03-14T11:51:51Z</time>
</trkpt>
<trkpt lat="41.66149" lon="1.96156">
<ele>819</ele>
<time>2012-03-14T11:51:54Z</time>
</trkpt>
<trkpt lat="41.66151" lon="1.96164">
<ele>821</ele>
<time>2012-03-14T11:52:00Z</time>
</trkpt>
<trkpt lat="41.66152" lon="1.9617">
<ele>825</ele>
<time>2012-03-14T11:52:04Z</time>
</trkpt>
<trkpt lat="41.66152" lon="1.96178">
<ele>827</ele>
<time>2012-03-14T11:52:09Z</time>
</trkpt>
<trkpt lat="41.66153" lon="1.96185">
<ele>826</ele>
<time>2012-03-14T11:52:12Z</time>
</trkpt>
<trkpt lat="41.66155" lon="1.96191">
<ele>826</ele>
<time>2012-03-14T11:52:16Z</time>
</trkpt>
<trkpt lat="41.66152" lon="1.96213">
<ele>828</ele>
<time>2012-03-14T11:52:28Z</time>
</trkpt>
<trkpt lat="41.66155" lon="1.96218">
<ele>830</ele>
<time>2012-03-14T11:52:30Z</time>
</trkpt>
<trkpt lat="41.66157" lon="1.96224">
<ele>831</ele>
<time>2012-03-14T11:52:34Z</time>
</trkpt>
<trkpt lat="41.66162" lon="1.96215">
<ele>825</ele>
<time>2012-03-14T11:52:36Z</time>
</trkpt>
<trkpt lat="41.66159" lon="1.96222">
<ele>827</ele>
<time>2012-03-14T11:52:39Z</time>
</trkpt>
<trkpt lat="41.66157" lon="1.96229">
<ele>829</ele>
<time>2012-03-14T11:52:42Z</time>
</trkpt>
<trkpt lat="41.66155" lon="1.96235">
<ele>831</ele>
<time>2012-03-14T11:52:46Z</time>
</trkpt>
<trkpt lat="41.66155" lon="1.96241">
<ele>831</ele>
<time>2012-03-14T11:52:50Z</time>
</trkpt>
<trkpt lat="41.66154" lon="1.96248">
<ele>830</ele>
<time>2012-03-14T11:52:54Z</time>
</trkpt>
<trkpt lat="41.66152" lon="1.96254">
<ele>832</ele>
<time>2012-03-14T11:52:57Z</time>
</trkpt>
<trkpt lat="41.66149" lon="1.9626">
<ele>832</ele>
<time>2012-03-14T11:53:00Z</time>
</trkpt>
<trkpt lat="41.66145" lon="1.96265">
<ele>832</ele>
<time>2012-03-14T11:53:04Z</time>
</trkpt>
<trkpt lat="41.66143" lon="1.96272">
<ele>833</ele>
<time>2012-03-14T11:53:07Z</time>
</trkpt>
<trkpt lat="41.66142" lon="1.96278">
<ele>833</ele>
<time>2012-03-14T11:53:11Z</time>
</trkpt>
<trkpt lat="41.66138" lon="1.96283">
<ele>834</ele>
<time>2012-03-14T11:53:16Z</time>
</trkpt>
<trkpt lat="41.66136" lon="1.96289">
<ele>836</ele>
<time>2012-03-14T11:53:20Z</time>
</trkpt>
<trkpt lat="41.66136" lon="1.96296">
<ele>837</ele>
<time>2012-03-14T11:53:24Z</time>
</trkpt>
<trkpt lat="41.66135" lon="1.96303">
<ele>838</ele>
<time>2012-03-14T11:53:29Z</time>
</trkpt>
<trkpt lat="41.66135" lon="1.96309">
<ele>839</ele>
<time>2012-03-14T11:53:33Z</time>
</trkpt>
<trkpt lat="41.66132" lon="1.96316">
<ele>841</ele>
<time>2012-03-14T11:53:37Z</time>
</trkpt>
<trkpt lat="41.66132" lon="1.96324">
<ele>843</ele>
<time>2012-03-14T11:53:43Z</time>
</trkpt>
<trkpt lat="41.66132" lon="1.96331">
<ele>844</ele>
<time>2012-03-14T11:53:48Z</time>
</trkpt>
<trkpt lat="41.6613" lon="1.96338">
<ele>846</ele>
<time>2012-03-14T11:53:52Z</time>
</trkpt>
<trkpt lat="41.66129" lon="1.96345">
<ele>846</ele>
<time>2012-03-14T11:53:58Z</time>
</trkpt>
<trkpt lat="41.66128" lon="1.96352">
<ele>846</ele>
<time>2012-03-14T11:54:01Z</time>
</trkpt>
<trkpt lat="41.66129" lon="1.96358">
<ele>847</ele>
<time>2012-03-14T11:54:06Z</time>
</trkpt>
<trkpt lat="41.66126" lon="1.96363">
<ele>847</ele>
<time>2012-03-14T11:54:10Z</time>
</trkpt>
<trkpt lat="41.66126" lon="1.96369">
<ele>846</ele>
<time>2012-03-14T11:54:14Z</time>
</trkpt>
<trkpt lat="41.66126" lon="1.96377">
<ele>847</ele>
<time>2012-03-14T11:54:17Z</time>
</trkpt>
<trkpt lat="41.66129" lon="1.96382">
<ele>848</ele>
<time>2012-03-14T11:54:22Z</time>
</trkpt>
<trkpt lat="41.66132" lon="1.96388">
<ele>848</ele>
<time>2012-03-14T11:54:26Z</time>
</trkpt>
<trkpt lat="41.66132" lon="1.96394">
<ele>847</ele>
<time>2012-03-14T11:54:28Z</time>
</trkpt>
<trkpt lat="41.66131" lon="1.96401">
<ele>844</ele>
<time>2012-03-14T11:54:32Z</time>
</trkpt>
<trkpt lat="41.66132" lon="1.96408">
<ele>846</ele>
<time>2012-03-14T11:54:37Z</time>
</trkpt>
<trkpt lat="41.66134" lon="1.96415">
<ele>846</ele>
<time>2012-03-14T11:54:40Z</time>
</trkpt>
<trkpt lat="41.66134" lon="1.96422">
<ele>846</ele>
<time>2012-03-14T11:54:44Z</time>
</trkpt>
<trkpt lat="41.66131" lon="1.96427">
<ele>847</ele>
<time>2012-03-14T11:54:51Z</time>
</trkpt>
<trkpt lat="41.66131" lon="1.96427">
<ele>847</ele>
<time>2012-03-14T11:54:51Z</time>
</trkpt>
<trkpt lat="41.66131" lon="1.96427">
<ele>847</ele>
<time>2012-03-14T11:54:52Z</time>
</trkpt>
<trkpt lat="41.66136" lon="1.96428">
<ele>846</ele>
<time>2012-03-14T11:54:57Z</time>
</trkpt>
<trkpt lat="41.66136" lon="1.96428">
<ele>846</ele>
<time>2012-03-14T11:54:57Z</time>
</trkpt>
<trkpt lat="41.66136" lon="1.96428">
<ele>846</ele>
<time>2012-03-14T11:54:58Z</time>
</trkpt>
<trkpt lat="41.66131" lon="1.96439">
<ele>848</ele>
<time>2012-03-14T11:55:18Z</time>
</trkpt>
<trkpt lat="41.66126" lon="1.96453">
<ele>849</ele>
<time>2012-03-14T11:55:19Z</time>
</trkpt>
<trkpt lat="41.66131" lon="1.9645">
<ele>849</ele>
<time>2012-03-14T11:55:21Z</time>
</trkpt>
<trkpt lat="41.66132" lon="1.96457">
<ele>850</ele>
<time>2012-03-14T11:55:24Z</time>
</trkpt>
<trkpt lat="41.66131" lon="1.96463">
<ele>850</ele>
<time>2012-03-14T11:55:27Z</time>
</trkpt>
<trkpt lat="41.6613" lon="1.96471">
<ele>849</ele>
<time>2012-03-14T11:55:31Z</time>
</trkpt>
<trkpt lat="41.66129" lon="1.96478">
<ele>850</ele>
<time>2012-03-14T11:55:34Z</time>
</trkpt>
<trkpt lat="41.66125" lon="1.96483">
<ele>850</ele>
<time>2012-03-14T11:55:38Z</time>
</trkpt>
<trkpt lat="41.66121" lon="1.96487">
<ele>849</ele>
<time>2012-03-14T11:55:42Z</time>
</trkpt>
<trkpt lat="41.66117" lon="1.96489">
<ele>849</ele>
<time>2012-03-14T11:55:45Z</time>
</trkpt>
<trkpt lat="41.66113" lon="1.96492">
<ele>849</ele>
<time>2012-03-14T11:55:48Z</time>
</trkpt>
<trkpt lat="41.66106" lon="1.96494">
<ele>849</ele>
<time>2012-03-14T11:55:53Z</time>
</trkpt>
<trkpt lat="41.66101" lon="1.96497">
<ele>849</ele>
<time>2012-03-14T11:55:57Z</time>
</trkpt>
<trkpt lat="41.66096" lon="1.965">
<ele>849</ele>
<time>2012-03-14T11:56:00Z</time>
</trkpt>
<trkpt lat="41.6609" lon="1.96504">
<ele>849</ele>
<time>2012-03-14T11:56:04Z</time>
</trkpt>
<trkpt lat="41.66085" lon="1.96506">
<ele>849</ele>
<time>2012-03-14T11:56:07Z</time>
</trkpt>
<trkpt lat="41.66083" lon="1.96512">
<ele>849</ele>
<time>2012-03-14T11:56:11Z</time>
</trkpt>
<trkpt lat="41.6608" lon="1.96516">
<ele>849</ele>
<time>2012-03-14T11:56:17Z</time>
</trkpt>
<trkpt lat="41.66077" lon="1.96521">
<ele>850</ele>
<time>2012-03-14T11:56:19Z</time>
</trkpt>
<trkpt lat="41.66072" lon="1.96528">
<ele>849</ele>
<time>2012-03-14T11:56:21Z</time>
</trkpt>
<trkpt lat="41.66071" lon="1.96536">
<ele>849</ele>
<time>2012-03-14T11:56:23Z</time>
</trkpt>
<trkpt lat="41.66068" lon="1.96543">
<ele>849</ele>
<time>2012-03-14T11:56:24Z</time>
</trkpt>
<trkpt lat="41.6607" lon="1.96548">
<ele>851</ele>
<time>2012-03-14T11:56:28Z</time>
</trkpt>
<trkpt lat="41.66069" lon="1.96543">
<ele>851</ele>
<time>2012-03-14T11:56:37Z</time>
</trkpt>
<trkpt lat="41.66063" lon="1.96546">
<ele>851</ele>
<time>2012-03-14T11:56:41Z</time>
</trkpt>
<trkpt lat="41.66057" lon="1.9655">
<ele>851</ele>
<time>2012-03-14T11:56:46Z</time>
</trkpt>
<trkpt lat="41.6605" lon="1.96552">
<ele>851</ele>
<time>2012-03-14T11:56:51Z</time>
</trkpt>
<trkpt lat="41.66043" lon="1.96553">
<ele>851</ele>
<time>2012-03-14T11:56:55Z</time>
</trkpt>
<trkpt lat="41.6604" lon="1.96559">
<ele>851</ele>
<time>2012-03-14T11:56:57Z</time>
</trkpt>
<trkpt lat="41.66041" lon="1.96565">
<ele>852</ele>
<time>2012-03-14T11:56:59Z</time>
</trkpt>
<trkpt lat="41.6604" lon="1.96574">
<ele>858</ele>
<time>2012-03-14T11:57:04Z</time>
</trkpt>
<trkpt lat="41.66038" lon="1.9658">
<ele>862</ele>
<time>2012-03-14T11:57:08Z</time>
</trkpt>
<trkpt lat="41.66037" lon="1.96588">
<ele>863</ele>
<time>2012-03-14T11:57:46Z</time>
</trkpt>
<trkpt lat="41.66035" lon="1.96595">
<ele>862</ele>
<time>2012-03-14T11:57:48Z</time>
</trkpt>
<trkpt lat="41.66034" lon="1.96601">
<ele>860</ele>
<time>2012-03-14T11:57:52Z</time>
</trkpt>
<trkpt lat="41.66032" lon="1.96608">
<ele>858</ele>
<time>2012-03-14T11:57:55Z</time>
</trkpt>
<trkpt lat="41.66033" lon="1.96616">
<ele>857</ele>
<time>2012-03-14T11:57:59Z</time>
</trkpt>
<trkpt lat="41.66032" lon="1.96622">
<ele>856</ele>
<time>2012-03-14T11:58:03Z</time>
</trkpt>
<trkpt lat="41.66031" lon="1.96628">
<ele>856</ele>
<time>2012-03-14T11:58:05Z</time>
</trkpt>
<trkpt lat="41.66029" lon="1.96634">
<ele>859</ele>
<time>2012-03-14T11:58:08Z</time>
</trkpt>
<trkpt lat="41.66027" lon="1.96641">
<ele>861</ele>
<time>2012-03-14T11:58:11Z</time>
</trkpt>
<trkpt lat="41.66025" lon="1.96646">
<ele>861</ele>
<time>2012-03-14T11:58:14Z</time>
</trkpt>
<trkpt lat="41.66022" lon="1.96652">
<ele>860</ele>
<time>2012-03-14T11:58:18Z</time>
</trkpt>
<trkpt lat="41.66018" lon="1.96656">
<ele>858</ele>
<time>2012-03-14T11:58:23Z</time>
</trkpt>
<trkpt lat="41.66017" lon="1.96662">
<ele>858</ele>
<time>2012-03-14T11:58:26Z</time>
</trkpt>
<trkpt lat="41.66014" lon="1.96668">
<ele>859</ele>
<time>2012-03-14T11:58:30Z</time>
</trkpt>
<trkpt lat="41.66013" lon="1.96674">
<ele>859</ele>
<time>2012-03-14T11:58:33Z</time>
</trkpt>
<trkpt lat="41.6601" lon="1.9668">
<ele>859</ele>
<time>2012-03-14T11:58:36Z</time>
</trkpt>
<trkpt lat="41.66008" lon="1.96688">
<ele>858</ele>
<time>2012-03-14T11:58:39Z</time>
</trkpt>
<trkpt lat="41.6601" lon="1.96694">
<ele>859</ele>
<time>2012-03-14T11:58:42Z</time>
</trkpt>
<trkpt lat="41.66014" lon="1.96698">
<ele>858</ele>
<time>2012-03-14T11:58:46Z</time>
</trkpt>
<trkpt lat="41.66018" lon="1.96701">
<ele>859</ele>
<time>2012-03-14T11:58:49Z</time>
</trkpt>
<trkpt lat="41.66024" lon="1.967">
<ele>859</ele>
<time>2012-03-14T11:58:55Z</time>
</trkpt>
<trkpt lat="41.66026" lon="1.96694">
<ele>859</ele>
<time>2012-03-14T11:58:58Z</time>
</trkpt>
<trkpt lat="41.66033" lon="1.96695">
<ele>860</ele>
<time>2012-03-14T11:59:02Z</time>
</trkpt>
<trkpt lat="41.6604" lon="1.96698">
<ele>859</ele>
<time>2012-03-14T11:59:03Z</time>
</trkpt>
<trkpt lat="41.66043" lon="1.96702">
<ele>858</ele>
<time>2012-03-14T11:59:05Z</time>
</trkpt>
<trkpt lat="41.66045" lon="1.96708">
<ele>858</ele>
<time>2012-03-14T11:59:09Z</time>
</trkpt>
<trkpt lat="41.66048" lon="1.96713">
<ele>861</ele>
<time>2012-03-14T11:59:19Z</time>
</trkpt>
<trkpt lat="41.66051" lon="1.96724">
<ele>861</ele>
<time>2012-03-14T11:59:20Z</time>
</trkpt>
<trkpt lat="41.66049" lon="1.96717">
<ele>861</ele>
<time>2012-03-14T11:59:21Z</time>
</trkpt>
<trkpt lat="41.66052" lon="1.96722">
<ele>861</ele>
<time>2012-03-14T11:59:22Z</time>
</trkpt>
<trkpt lat="41.66054" lon="1.96716">
<ele>863</ele>
<time>2012-03-14T11:59:26Z</time>
</trkpt>
<trkpt lat="41.66062" lon="1.9672">
<ele>864</ele>
<time>2012-03-14T11:59:28Z</time>
</trkpt>
<trkpt lat="41.66066" lon="1.96727">
<ele>864</ele>
<time>2012-03-14T11:59:32Z</time>
</trkpt>
<trkpt lat="41.66073" lon="1.96729">
<ele>864</ele>
<time>2012-03-14T11:59:34Z</time>
</trkpt>
<trkpt lat="41.66079" lon="1.9673">
<ele>864</ele>
<time>2012-03-14T11:59:37Z</time>
</trkpt>
<trkpt lat="41.66085" lon="1.96735">
<ele>863</ele>
<time>2012-03-14T11:59:39Z</time>
</trkpt>
<trkpt lat="41.6609" lon="1.96732">
<ele>863</ele>
<time>2012-03-14T11:59:41Z</time>
</trkpt>
<trkpt lat="41.66092" lon="1.96737">
<ele>863</ele>
<time>2012-03-14T11:59:44Z</time>
</trkpt>
<trkpt lat="41.66092" lon="1.96763">
<ele>863</ele>
<time>2012-03-14T11:59:49Z</time>
</trkpt>
<trkpt lat="41.66096" lon="1.96767">
<ele>862</ele>
<time>2012-03-14T11:59:50Z</time>
</trkpt>
<trkpt lat="41.661" lon="1.96772">
<ele>863</ele>
<time>2012-03-14T11:59:57Z</time>
</trkpt>
<trkpt lat="41.66104" lon="1.96779">
<ele>864</ele>
<time>2012-03-14T12:00:00Z</time>
</trkpt>
<trkpt lat="41.66108" lon="1.96781">
<ele>863</ele>
<time>2012-03-14T12:00:03Z</time>
</trkpt>
<trkpt lat="41.66111" lon="1.96788">
<ele>863</ele>
<time>2012-03-14T12:00:06Z</time>
</trkpt>
<trkpt lat="41.66116" lon="1.96794">
<ele>864</ele>
<time>2012-03-14T12:00:11Z</time>
</trkpt>
<trkpt lat="41.66116" lon="1.96794">
<ele>864</ele>
<time>2012-03-14T12:00:11Z</time>
</trkpt>
<trkpt lat="41.66116" lon="1.96794">
<ele>863</ele>
<time>2012-03-14T12:00:13Z</time>
</trkpt>
<trkpt lat="41.6611" lon="1.96798">
<ele>863</ele>
<time>2012-03-14T12:00:17Z</time>
</trkpt>
<trkpt lat="41.6611" lon="1.96806">
<ele>863</ele>
<time>2012-03-14T12:00:21Z</time>
</trkpt>
<trkpt lat="41.66106" lon="1.96813">
<ele>866</ele>
<time>2012-03-14T12:00:24Z</time>
</trkpt>
<trkpt lat="41.66107" lon="1.9682">
<ele>865</ele>
<time>2012-03-14T12:00:27Z</time>
</trkpt>
<trkpt lat="41.66103" lon="1.96829">
<ele>866</ele>
<time>2012-03-14T12:00:31Z</time>
</trkpt>
<trkpt lat="41.66107" lon="1.96838">
<ele>865</ele>
<time>2012-03-14T12:00:36Z</time>
</trkpt>
<trkpt lat="41.6611" lon="1.96841">
<ele>865</ele>
<time>2012-03-14T12:00:38Z</time>
</trkpt>
<trkpt lat="41.66115" lon="1.96845">
<ele>864</ele>
<time>2012-03-14T12:00:40Z</time>
</trkpt>
<trkpt lat="41.6612" lon="1.9685">
<ele>864</ele>
<time>2012-03-14T12:00:43Z</time>
</trkpt>
<trkpt lat="41.66118" lon="1.96859">
<ele>863</ele>
<time>2012-03-14T12:00:46Z</time>
</trkpt>
<trkpt lat="41.66119" lon="1.96865">
<ele>862</ele>
<time>2012-03-14T12:00:49Z</time>
</trkpt>
<trkpt lat="41.66118" lon="1.96871">
<ele>863</ele>
<time>2012-03-14T12:00:51Z</time>
</trkpt>
<trkpt lat="41.66115" lon="1.96878">
<ele>864</ele>
<time>2012-03-14T12:00:58Z</time>
</trkpt>
<trkpt lat="41.66111" lon="1.96884">
<ele>864</ele>
<time>2012-03-14T12:01:00Z</time>
</trkpt>
<trkpt lat="41.66109" lon="1.9689">
<ele>864</ele>
<time>2012-03-14T12:01:04Z</time>
</trkpt>
<trkpt lat="41.66104" lon="1.96892">
<ele>865</ele>
<time>2012-03-14T12:01:06Z</time>
</trkpt>
<trkpt lat="41.661" lon="1.96896">
<ele>867</ele>
<time>2012-03-14T12:01:08Z</time>
</trkpt>
<trkpt lat="41.66101" lon="1.96907">
<ele>867</ele>
<time>2012-03-14T12:01:10Z</time>
</trkpt>
<trkpt lat="41.66099" lon="1.96913">
<ele>866</ele>
<time>2012-03-14T12:01:12Z</time>
</trkpt>
<trkpt lat="41.66091" lon="1.96917">
<ele>866</ele>
<time>2012-03-14T12:01:16Z</time>
</trkpt>
<trkpt lat="41.66088" lon="1.96922">
<ele>866</ele>
<time>2012-03-14T12:01:17Z</time>
</trkpt>
<trkpt lat="41.66096" lon="1.96924">
<ele>868</ele>
<time>2012-03-14T12:01:20Z</time>
</trkpt>
<trkpt lat="41.661" lon="1.96928">
<ele>869</ele>
<time>2012-03-14T12:01:21Z</time>
</trkpt>
<trkpt lat="41.66097" lon="1.96937">
<ele>869</ele>
<time>2012-03-14T12:01:22Z</time>
</trkpt>
<trkpt lat="41.66101" lon="1.96932">
<ele>869</ele>
<time>2012-03-14T12:01:23Z</time>
</trkpt>
<trkpt lat="41.66109" lon="1.96933">
<ele>869</ele>
<time>2012-03-14T12:01:25Z</time>
</trkpt>
<trkpt lat="41.66114" lon="1.96934">
<ele>869</ele>
<time>2012-03-14T12:01:27Z</time>
</trkpt>
<trkpt lat="41.66109" lon="1.96932">
<ele>868</ele>
<time>2012-03-14T12:01:34Z</time>
</trkpt>
<trkpt lat="41.66104" lon="1.96934">
<ele>868</ele>
<time>2012-03-14T12:01:37Z</time>
</trkpt>
<trkpt lat="41.66099" lon="1.96925">
<ele>868</ele>
<time>2012-03-14T12:01:41Z</time>
</trkpt>
<trkpt lat="41.66089" lon="1.9693">
<ele>868</ele>
<time>2012-03-14T12:01:43Z</time>
</trkpt>
<trkpt lat="41.66098" lon="1.96934">
<ele>868</ele>
<time>2012-03-14T12:01:44Z</time>
</trkpt>
<trkpt lat="41.66106" lon="1.9693">
<ele>869</ele>
<time>2012-03-14T12:01:46Z</time>
</trkpt>
<trkpt lat="41.6611" lon="1.96926">
<ele>869</ele>
<time>2012-03-14T12:01:47Z</time>
</trkpt>
<trkpt lat="41.6612" lon="1.96934">
<ele>870</ele>
<time>2012-03-14T12:01:49Z</time>
</trkpt>
<trkpt lat="41.66121" lon="1.96944">
<ele>871</ele>
<time>2012-03-14T12:01:52Z</time>
</trkpt>
<trkpt lat="41.66123" lon="1.96952">
<ele>871</ele>
<time>2012-03-14T12:01:53Z</time>
</trkpt>
<trkpt lat="41.66134" lon="1.96956">
<ele>871</ele>
<time>2012-03-14T12:01:56Z</time>
</trkpt>
<trkpt lat="41.66137" lon="1.9696">
<ele>868</ele>
<time>2012-03-14T12:01:59Z</time>
</trkpt>
<trkpt lat="41.6614" lon="1.96965">
<ele>868</ele>
<time>2012-03-14T12:02:04Z</time>
</trkpt>
<trkpt lat="41.66143" lon="1.9697">
<ele>869</ele>
<time>2012-03-14T12:02:09Z</time>
</trkpt>
<trkpt lat="41.66148" lon="1.96971">
<ele>868</ele>
<time>2012-03-14T12:02:11Z</time>
</trkpt>
<trkpt lat="41.66151" lon="1.96976">
<ele>868</ele>
<time>2012-03-14T12:02:13Z</time>
</trkpt>
<trkpt lat="41.6615" lon="1.96984">
<ele>867</ele>
<time>2012-03-14T12:02:14Z</time>
</trkpt>
<trkpt lat="41.66145" lon="1.96984">
<ele>868</ele>
<time>2012-03-14T12:02:15Z</time>
</trkpt>
<trkpt lat="41.66153" lon="1.96985">
<ele>869</ele>
<time>2012-03-14T12:02:16Z</time>
</trkpt>
<trkpt lat="41.66165" lon="1.97001">
<ele>869</ele>
<time>2012-03-14T12:02:17Z</time>
</trkpt>
<trkpt lat="41.66174" lon="1.96995">
<ele>869</ele>
<time>2012-03-14T12:02:18Z</time>
</trkpt>
<trkpt lat="41.6618" lon="1.96989">
<ele>871</ele>
<time>2012-03-14T12:02:19Z</time>
</trkpt>
<trkpt lat="41.66186" lon="1.96977">
<ele>869</ele>
<time>2012-03-14T12:02:20Z</time>
</trkpt>
<trkpt lat="41.66182" lon="1.96981">
<ele>869</ele>
<time>2012-03-14T12:02:22Z</time>
</trkpt>
<trkpt lat="41.66178" lon="1.96987">
<ele>870</ele>
<time>2012-03-14T12:02:25Z</time>
</trkpt>
<trkpt lat="41.66171" lon="1.9699">
<ele>869</ele>
<time>2012-03-14T12:02:26Z</time>
</trkpt>
<trkpt lat="41.66174" lon="1.96996">
<ele>869</ele>
<time>2012-03-14T12:02:30Z</time>
</trkpt>
<trkpt lat="41.66176" lon="1.97008">
<ele>871</ele>
<time>2012-03-14T12:02:37Z</time>
</trkpt>
<trkpt lat="41.66171" lon="1.97014">
<ele>872</ele>
<time>2012-03-14T12:02:41Z</time>
</trkpt>
<trkpt lat="41.66168" lon="1.97021">
<ele>873</ele>
<time>2012-03-14T12:02:45Z</time>
</trkpt>
<trkpt lat="41.66164" lon="1.97027">
<ele>872</ele>
<time>2012-03-14T12:02:47Z</time>
</trkpt>
<trkpt lat="41.66166" lon="1.97033">
<ele>873</ele>
<time>2012-03-14T12:02:50Z</time>
</trkpt>
<trkpt lat="41.66166" lon="1.97041">
<ele>874</ele>
<time>2012-03-14T12:02:54Z</time>
</trkpt>
<trkpt lat="41.66168" lon="1.97047">
<ele>875</ele>
<time>2012-03-14T12:02:57Z</time>
</trkpt>
<trkpt lat="41.6617" lon="1.97053">
<ele>876</ele>
<time>2012-03-14T12:03:02Z</time>
</trkpt>
<trkpt lat="41.66171" lon="1.9706">
<ele>877</ele>
<time>2012-03-14T12:03:05Z</time>
</trkpt>
<trkpt lat="41.6617" lon="1.97067">
<ele>879</ele>
<time>2012-03-14T12:03:09Z</time>
</trkpt>
<trkpt lat="41.66172" lon="1.97073">
<ele>880</ele>
<time>2012-03-14T12:03:12Z</time>
</trkpt>
<trkpt lat="41.66171" lon="1.97078">
<ele>881</ele>
<time>2012-03-14T12:03:14Z</time>
</trkpt>
<trkpt lat="41.66168" lon="1.97087">
<ele>880</ele>
<time>2012-03-14T12:03:18Z</time>
</trkpt>
<trkpt lat="41.66173" lon="1.97088">
<ele>879</ele>
<time>2012-03-14T12:03:22Z</time>
</trkpt>
<trkpt lat="41.66178" lon="1.97086">
<ele>879</ele>
<time>2012-03-14T12:03:25Z</time>
</trkpt>
<trkpt lat="41.66182" lon="1.97093">
<ele>880</ele>
<time>2012-03-14T12:03:28Z</time>
</trkpt>
<trkpt lat="41.66185" lon="1.97098">
<ele>880</ele>
<time>2012-03-14T12:03:31Z</time>
</trkpt>
<trkpt lat="41.66189" lon="1.97102">
<ele>882</ele>
<time>2012-03-14T12:03:34Z</time>
</trkpt>
<trkpt lat="41.66193" lon="1.97106">
<ele>882</ele>
<time>2012-03-14T12:03:37Z</time>
</trkpt>
<trkpt lat="41.66197" lon="1.97107">
<ele>883</ele>
<time>2012-03-14T12:03:42Z</time>
</trkpt>
<trkpt lat="41.66199" lon="1.97113">
<ele>884</ele>
<time>2012-03-14T12:03:48Z</time>
</trkpt>
<trkpt lat="41.66204" lon="1.97112">
<ele>885</ele>
<time>2012-03-14T12:03:50Z</time>
</trkpt>
<trkpt lat="41.66209" lon="1.97108">
<ele>885</ele>
<time>2012-03-14T12:03:53Z</time>
</trkpt>
<trkpt lat="41.66214" lon="1.97108">
<ele>886</ele>
<time>2012-03-14T12:03:55Z</time>
</trkpt>
<trkpt lat="41.66218" lon="1.97107">
<ele>887</ele>
<time>2012-03-14T12:03:59Z</time>
</trkpt>
<trkpt lat="41.66223" lon="1.97108">
<ele>889</ele>
<time>2012-03-14T12:04:03Z</time>
</trkpt>
<trkpt lat="41.66228" lon="1.9711">
<ele>891</ele>
<time>2012-03-14T12:04:09Z</time>
</trkpt>
<trkpt lat="41.66228" lon="1.9711">
<ele>891</ele>
<time>2012-03-14T12:04:09Z</time>
</trkpt>
<trkpt lat="41.66228" lon="1.9711">
<ele>891</ele>
<time>2012-03-14T12:04:10Z</time>
</trkpt>
<trkpt lat="41.66232" lon="1.97113">
<ele>891</ele>
<time>2012-03-14T12:04:11Z</time>
</trkpt>
<trkpt lat="41.66237" lon="1.97117">
<ele>892</ele>
<time>2012-03-14T12:04:14Z</time>
</trkpt>
<trkpt lat="41.66241" lon="1.9712">
<ele>894</ele>
<time>2012-03-14T12:04:20Z</time>
</trkpt>
<trkpt lat="41.66245" lon="1.97124">
<ele>894</ele>
<time>2012-03-14T12:04:22Z</time>
</trkpt>
<trkpt lat="41.66248" lon="1.97128">
<ele>894</ele>
<time>2012-03-14T12:04:25Z</time>
</trkpt>
<trkpt lat="41.66253" lon="1.97127">
<ele>895</ele>
<time>2012-03-14T12:04:28Z</time>
</trkpt>
<trkpt lat="41.66258" lon="1.97131">
<ele>894</ele>
<time>2012-03-14T12:04:31Z</time>
</trkpt>
<trkpt lat="41.66263" lon="1.97135">
<ele>894</ele>
<time>2012-03-14T12:04:35Z</time>
</trkpt>
<trkpt lat="41.66266" lon="1.97141">
<ele>895</ele>
<time>2012-03-14T12:04:39Z</time>
</trkpt>
<trkpt lat="41.66271" lon="1.97145">
<ele>898</ele>
<time>2012-03-14T12:04:44Z</time>
</trkpt>
<trkpt lat="41.66276" lon="1.97149">
<ele>899</ele>
<time>2012-03-14T12:04:48Z</time>
</trkpt>
<trkpt lat="41.66281" lon="1.9715">
<ele>900</ele>
<time>2012-03-14T12:04:52Z</time>
</trkpt>
<trkpt lat="41.66282" lon="1.97156">
<ele>900</ele>
<time>2012-03-14T12:04:58Z</time>
</trkpt>
<trkpt lat="41.66286" lon="1.97157">
<ele>900</ele>
<time>2012-03-14T12:05:02Z</time>
</trkpt>
<trkpt lat="41.6629" lon="1.97161">
<ele>901</ele>
<time>2012-03-14T12:05:08Z</time>
</trkpt>
<trkpt lat="41.66295" lon="1.97159">
<ele>902</ele>
<time>2012-03-14T12:05:10Z</time>
</trkpt>
<trkpt lat="41.663" lon="1.9716">
<ele>903</ele>
<time>2012-03-14T12:05:13Z</time>
</trkpt>
<trkpt lat="41.66306" lon="1.97161">
<ele>903</ele>
<time>2012-03-14T12:05:15Z</time>
</trkpt>
<trkpt lat="41.66311" lon="1.97159">
<ele>905</ele>
<time>2012-03-14T12:05:18Z</time>
</trkpt>
<trkpt lat="41.66316" lon="1.9716">
<ele>905</ele>
<time>2012-03-14T12:05:23Z</time>
</trkpt>
<trkpt lat="41.66318" lon="1.97166">
<ele>905</ele>
<time>2012-03-14T12:05:29Z</time>
</trkpt>
<trkpt lat="41.66313" lon="1.9717">
<ele>906</ele>
<time>2012-03-14T12:05:33Z</time>
</trkpt>
<trkpt lat="41.66314" lon="1.97176">
<ele>906</ele>
<time>2012-03-14T12:05:35Z</time>
</trkpt>
<trkpt lat="41.66312" lon="1.9718">
<ele>909</ele>
<time>2012-03-14T12:05:41Z</time>
</trkpt>
<trkpt lat="41.66313" lon="1.97187">
<ele>913</ele>
<time>2012-03-14T12:05:49Z</time>
</trkpt>
<trkpt lat="41.66315" lon="1.97194">
<ele>916</ele>
<time>2012-03-14T12:05:54Z</time>
</trkpt>
<trkpt lat="41.66319" lon="1.97197">
<ele>923</ele>
<time>2012-03-14T12:06:37Z</time>
</trkpt>
<trkpt lat="41.6632" lon="1.97203">
<ele>923</ele>
<time>2012-03-14T12:06:43Z</time>
</trkpt>
<trkpt lat="41.66322" lon="1.97208">
<ele>923</ele>
<time>2012-03-14T12:06:48Z</time>
</trkpt>
<trkpt lat="41.66327" lon="1.97212">
<ele>918</ele>
<time>2012-03-14T12:13:43Z</time>
</trkpt>
<trkpt lat="41.66331" lon="1.97216">
<ele>917</ele>
<time>2012-03-14T12:13:47Z</time>
</trkpt>
<trkpt lat="41.66335" lon="1.9722">
<ele>917</ele>
<time>2012-03-14T12:13:50Z</time>
</trkpt>
<trkpt lat="41.6634" lon="1.97223">
<ele>922</ele>
<time>2012-03-14T12:13:53Z</time>
</trkpt>
<trkpt lat="41.66344" lon="1.97227">
<ele>927</ele>
<time>2012-03-14T12:13:56Z</time>
</trkpt>
<trkpt lat="41.66348" lon="1.9723">
<ele>926</ele>
<time>2012-03-14T12:14:00Z</time>
</trkpt>
<trkpt lat="41.66354" lon="1.97231">
<ele>925</ele>
<time>2012-03-14T12:14:05Z</time>
</trkpt>
<trkpt lat="41.6636" lon="1.97231">
<ele>924</ele>
<time>2012-03-14T12:14:08Z</time>
</trkpt>
<trkpt lat="41.66365" lon="1.97233">
<ele>922</ele>
<time>2012-03-14T12:14:13Z</time>
</trkpt>
<trkpt lat="41.6637" lon="1.97232">
<ele>922</ele>
<time>2012-03-14T12:14:17Z</time>
</trkpt>
<trkpt lat="41.66375" lon="1.97232">
<ele>922</ele>
<time>2012-03-14T12:14:20Z</time>
</trkpt>
<trkpt lat="41.66379" lon="1.97234">
<ele>921</ele>
<time>2012-03-14T12:14:23Z</time>
</trkpt>
<trkpt lat="41.66385" lon="1.97235">
<ele>921</ele>
<time>2012-03-14T12:14:26Z</time>
</trkpt>
<trkpt lat="41.66389" lon="1.97237">
<ele>921</ele>
<time>2012-03-14T12:14:30Z</time>
</trkpt>
<trkpt lat="41.66393" lon="1.9724">
<ele>919</ele>
<time>2012-03-14T12:14:33Z</time>
</trkpt>
<trkpt lat="41.66396" lon="1.97245">
<ele>919</ele>
<time>2012-03-14T12:14:37Z</time>
</trkpt>
<trkpt lat="41.66402" lon="1.97247">
<ele>919</ele>
<time>2012-03-14T12:14:41Z</time>
</trkpt>
<trkpt lat="41.66401" lon="1.97256">
<ele>918</ele>
<time>2012-03-14T12:14:47Z</time>
</trkpt>
<trkpt lat="41.664" lon="1.97261">
<ele>918</ele>
<time>2012-03-14T12:14:51Z</time>
</trkpt>
<trkpt lat="41.66399" lon="1.97267">
<ele>918</ele>
<time>2012-03-14T12:14:54Z</time>
</trkpt>
<trkpt lat="41.66399" lon="1.97267">
<ele>918</ele>
<time>2012-03-14T12:14:54Z</time>
</trkpt>
<trkpt lat="41.66399" lon="1.97267">
<ele>918</ele>
<time>2012-03-14T12:14:57Z</time>
</trkpt>
<trkpt lat="41.66398" lon="1.97276">
<ele>918</ele>
<time>2012-03-14T12:15:02Z</time>
</trkpt>
<trkpt lat="41.66396" lon="1.97284">
<ele>919</ele>
<time>2012-03-14T12:15:06Z</time>
</trkpt>
<trkpt lat="41.66398" lon="1.97292">
<ele>919</ele>
<time>2012-03-14T12:15:11Z</time>
</trkpt>
<trkpt lat="41.66393" lon="1.97296">
<ele>917</ele>
<time>2012-03-14T12:15:16Z</time>
</trkpt>
<trkpt lat="41.66392" lon="1.97302">
<ele>916</ele>
<time>2012-03-14T12:15:22Z</time>
</trkpt>
<trkpt lat="41.66388" lon="1.97306">
<ele>917</ele>
<time>2012-03-14T12:15:27Z</time>
</trkpt>
<trkpt lat="41.66385" lon="1.97311">
<ele>916</ele>
<time>2012-03-14T12:15:30Z</time>
</trkpt>
<trkpt lat="41.66385" lon="1.97317">
<ele>916</ele>
<time>2012-03-14T12:15:32Z</time>
</trkpt>
<trkpt lat="41.66382" lon="1.97324">
<ele>915</ele>
<time>2012-03-14T12:15:36Z</time>
</trkpt>
<trkpt lat="41.66379" lon="1.97328">
<ele>916</ele>
<time>2012-03-14T12:15:41Z</time>
</trkpt>
<trkpt lat="41.66373" lon="1.97334">
<ele>916</ele>
<time>2012-03-14T12:15:45Z</time>
</trkpt>
<trkpt lat="41.6637" lon="1.9734">
<ele>916</ele>
<time>2012-03-14T12:15:48Z</time>
</trkpt>
<trkpt lat="41.66368" lon="1.97345">
<ele>919</ele>
<time>2012-03-14T12:15:52Z</time>
</trkpt>
<trkpt lat="41.66364" lon="1.9735">
<ele>921</ele>
<time>2012-03-14T12:15:57Z</time>
</trkpt>
<trkpt lat="41.66359" lon="1.97353">
<ele>923</ele>
<time>2012-03-14T12:16:02Z</time>
</trkpt>
<trkpt lat="41.66355" lon="1.97355">
<ele>924</ele>
<time>2012-03-14T12:16:07Z</time>
</trkpt>
<trkpt lat="41.66352" lon="1.97361">
<ele>923</ele>
<time>2012-03-14T12:16:11Z</time>
</trkpt>
<trkpt lat="41.66348" lon="1.97364">
<ele>924</ele>
<time>2012-03-14T12:16:15Z</time>
</trkpt>
<trkpt lat="41.66348" lon="1.97364">
<ele>924</ele>
<time>2012-03-14T12:16:15Z</time>
</trkpt>
<trkpt lat="41.66348" lon="1.97364">
<ele>923</ele>
<time>2012-03-14T12:16:16Z</time>
</trkpt>
<trkpt lat="41.66344" lon="1.97368">
<ele>926</ele>
<time>2012-03-14T12:16:20Z</time>
</trkpt>
<trkpt lat="41.66344" lon="1.97368">
<ele>926</ele>
<time>2012-03-14T12:16:20Z</time>
</trkpt>
<trkpt lat="41.66344" lon="1.97368">
<ele>926</ele>
<time>2012-03-14T12:16:21Z</time>
</trkpt>
<trkpt lat="41.66344" lon="1.97375">
<ele>925</ele>
<time>2012-03-14T12:16:24Z</time>
</trkpt>
<trkpt lat="41.66342" lon="1.9738">
<ele>925</ele>
<time>2012-03-14T12:16:28Z</time>
</trkpt>
<trkpt lat="41.66339" lon="1.97387">
<ele>926</ele>
<time>2012-03-14T12:16:33Z</time>
</trkpt>
<trkpt lat="41.66337" lon="1.97392">
<ele>927</ele>
<time>2012-03-14T12:16:37Z</time>
</trkpt>
<trkpt lat="41.66338" lon="1.97398">
<ele>931</ele>
<time>2012-03-14T12:16:42Z</time>
</trkpt>
<trkpt lat="41.66336" lon="1.97405">
<ele>933</ele>
<time>2012-03-14T12:16:47Z</time>
</trkpt>
<trkpt lat="41.66335" lon="1.97412">
<ele>936</ele>
<time>2012-03-14T12:16:52Z</time>
</trkpt>
<trkpt lat="41.66334" lon="1.9742">
<ele>936</ele>
<time>2012-03-14T12:16:56Z</time>
</trkpt>
<trkpt lat="41.66336" lon="1.97427">
<ele>935</ele>
<time>2012-03-14T12:17:00Z</time>
</trkpt>
<trkpt lat="41.66339" lon="1.97432">
<ele>938</ele>
<time>2012-03-14T12:17:04Z</time>
</trkpt>
<trkpt lat="41.66341" lon="1.9744">
<ele>937</ele>
<time>2012-03-14T12:17:08Z</time>
</trkpt>
<trkpt lat="41.66342" lon="1.97447">
<ele>937</ele>
<time>2012-03-14T12:17:12Z</time>
</trkpt>
<trkpt lat="41.66344" lon="1.97453">
<ele>938</ele>
<time>2012-03-14T12:17:15Z</time>
</trkpt>
<trkpt lat="41.66347" lon="1.97459">
<ele>938</ele>
<time>2012-03-14T12:17:19Z</time>
</trkpt>
<trkpt lat="41.6635" lon="1.97467">
<ele>938</ele>
<time>2012-03-14T12:17:23Z</time>
</trkpt>
<trkpt lat="41.66352" lon="1.97473">
<ele>938</ele>
<time>2012-03-14T12:17:27Z</time>
</trkpt>
<trkpt lat="41.66356" lon="1.97479">
<ele>938</ele>
<time>2012-03-14T12:17:31Z</time>
</trkpt>
<trkpt lat="41.66359" lon="1.97485">
<ele>938</ele>
<time>2012-03-14T12:17:35Z</time>
</trkpt>
<trkpt lat="41.6636" lon="1.9749">
<ele>937</ele>
<time>2012-03-14T12:17:39Z</time>
</trkpt>
<trkpt lat="41.66357" lon="1.97497">
<ele>942</ele>
<time>2012-03-14T12:17:46Z</time>
</trkpt>
<trkpt lat="41.66355" lon="1.97504">
<ele>942</ele>
<time>2012-03-14T12:17:51Z</time>
</trkpt>
<trkpt lat="41.66354" lon="1.9751">
<ele>943</ele>
<time>2012-03-14T12:17:56Z</time>
</trkpt>
<trkpt lat="41.66351" lon="1.97515">
<ele>943</ele>
<time>2012-03-14T12:17:58Z</time>
</trkpt>
<trkpt lat="41.6635" lon="1.97522">
<ele>942</ele>
<time>2012-03-14T12:18:01Z</time>
</trkpt>
<trkpt lat="41.66349" lon="1.97531">
<ele>943</ele>
<time>2012-03-14T12:18:05Z</time>
</trkpt>
<trkpt lat="41.66347" lon="1.97536">
<ele>941</ele>
<time>2012-03-14T12:18:09Z</time>
</trkpt>
<trkpt lat="41.66343" lon="1.97542">
<ele>943</ele>
<time>2012-03-14T12:18:14Z</time>
</trkpt>
<trkpt lat="41.66339" lon="1.97546">
<ele>944</ele>
<time>2012-03-14T12:18:19Z</time>
</trkpt>
<trkpt lat="41.66336" lon="1.97552">
<ele>945</ele>
<time>2012-03-14T12:18:23Z</time>
</trkpt>
<trkpt lat="41.66333" lon="1.97558">
<ele>946</ele>
<time>2012-03-14T12:18:28Z</time>
</trkpt>
<trkpt lat="41.66329" lon="1.97561">
<ele>946</ele>
<time>2012-03-14T12:18:33Z</time>
</trkpt>
<trkpt lat="41.66325" lon="1.97566">
<ele>946</ele>
<time>2012-03-14T12:18:38Z</time>
</trkpt>
<trkpt lat="41.6632" lon="1.97568">
<ele>945</ele>
<time>2012-03-14T12:18:42Z</time>
</trkpt>
<trkpt lat="41.66314" lon="1.97569">
<ele>941</ele>
<time>2012-03-14T12:18:46Z</time>
</trkpt>
<trkpt lat="41.6631" lon="1.97571">
<ele>940</ele>
<time>2012-03-14T12:18:51Z</time>
</trkpt>
<trkpt lat="41.66306" lon="1.97575">
<ele>938</ele>
<time>2012-03-14T12:18:56Z</time>
</trkpt>
<trkpt lat="41.66302" lon="1.97575">
<ele>937</ele>
<time>2012-03-14T12:19:00Z</time>
</trkpt>
<trkpt lat="41.66296" lon="1.97577">
<ele>936</ele>
<time>2012-03-14T12:19:05Z</time>
</trkpt>
<trkpt lat="41.66291" lon="1.9758">
<ele>935</ele>
<time>2012-03-14T12:19:11Z</time>
</trkpt>
<trkpt lat="41.66289" lon="1.97585">
<ele>935</ele>
<time>2012-03-14T12:19:15Z</time>
</trkpt>
<trkpt lat="41.66287" lon="1.97591">
<ele>935</ele>
<time>2012-03-14T12:19:20Z</time>
</trkpt>
<trkpt lat="41.66286" lon="1.97598">
<ele>935</ele>
<time>2012-03-14T12:19:22Z</time>
</trkpt>
<trkpt lat="41.66283" lon="1.97604">
<ele>934</ele>
<time>2012-03-14T12:19:29Z</time>
</trkpt>
<trkpt lat="41.66278" lon="1.97605">
<ele>935</ele>
<time>2012-03-14T12:19:32Z</time>
</trkpt>
<trkpt lat="41.66273" lon="1.97605">
<ele>933</ele>
<time>2012-03-14T12:19:36Z</time>
</trkpt>
<trkpt lat="41.66268" lon="1.97603">
<ele>932</ele>
<time>2012-03-14T12:19:40Z</time>
</trkpt>
<trkpt lat="41.66263" lon="1.976">
<ele>931</ele>
<time>2012-03-14T12:19:44Z</time>
</trkpt>
<trkpt lat="41.66259" lon="1.97595">
<ele>928</ele>
<time>2012-03-14T12:19:48Z</time>
</trkpt>
<trkpt lat="41.66254" lon="1.97592">
<ele>928</ele>
<time>2012-03-14T12:19:52Z</time>
</trkpt>
<trkpt lat="41.6625" lon="1.97591">
<ele>926</ele>
<time>2012-03-14T12:19:56Z</time>
</trkpt>
<trkpt lat="41.66248" lon="1.97598">
<ele>925</ele>
<time>2012-03-14T12:20:01Z</time>
</trkpt>
<trkpt lat="41.66244" lon="1.97602">
<ele>924</ele>
<time>2012-03-14T12:20:07Z</time>
</trkpt>
<trkpt lat="41.66238" lon="1.97602">
<ele>922</ele>
<time>2012-03-14T12:20:11Z</time>
</trkpt>
<trkpt lat="41.66236" lon="1.97608">
<ele>921</ele>
<time>2012-03-14T12:20:15Z</time>
</trkpt>
<trkpt lat="41.66233" lon="1.97615">
<ele>920</ele>
<time>2012-03-14T12:20:21Z</time>
</trkpt>
<trkpt lat="41.66235" lon="1.97621">
<ele>920</ele>
<time>2012-03-14T12:20:25Z</time>
</trkpt>
<trkpt lat="41.66236" lon="1.97628">
<ele>919</ele>
<time>2012-03-14T12:20:30Z</time>
</trkpt>
<trkpt lat="41.66234" lon="1.97634">
<ele>920</ele>
<time>2012-03-14T12:20:35Z</time>
</trkpt>
<trkpt lat="41.66229" lon="1.97637">
<ele>919</ele>
<time>2012-03-14T12:20:41Z</time>
</trkpt>
<trkpt lat="41.66223" lon="1.97635">
<ele>918</ele>
<time>2012-03-14T12:20:47Z</time>
</trkpt>
<trkpt lat="41.66216" lon="1.97638">
<ele>915</ele>
<time>2012-03-14T12:22:20Z</time>
</trkpt>
<trkpt lat="41.66211" lon="1.97636">
<ele>913</ele>
<time>2012-03-14T12:22:24Z</time>
</trkpt>
<trkpt lat="41.66209" lon="1.97642">
<ele>914</ele>
<time>2012-03-14T12:22:25Z</time>
</trkpt>
<trkpt lat="41.66204" lon="1.97644">
<ele>915</ele>
<time>2012-03-14T12:22:27Z</time>
</trkpt>
<trkpt lat="41.66199" lon="1.97646">
<ele>911</ele>
<time>2012-03-14T12:22:38Z</time>
</trkpt>
<trkpt lat="41.66194" lon="1.97641">
<ele>909</ele>
<time>2012-03-14T12:22:45Z</time>
</trkpt>
<trkpt lat="41.66189" lon="1.97638">
<ele>907</ele>
<time>2012-03-14T12:22:52Z</time>
</trkpt>
<trkpt lat="41.66184" lon="1.97636">
<ele>905</ele>
<time>2012-03-14T12:23:00Z</time>
</trkpt>
<trkpt lat="41.6618" lon="1.9763">
<ele>904</ele>
<time>2012-03-14T12:23:03Z</time>
</trkpt>
<trkpt lat="41.66174" lon="1.9763">
<ele>903</ele>
<time>2012-03-14T12:23:10Z</time>
</trkpt>
<trkpt lat="41.66168" lon="1.97629">
<ele>902</ele>
<time>2012-03-14T12:23:36Z</time>
</trkpt>
<trkpt lat="41.66162" lon="1.97622">
<ele>902</ele>
<time>2012-03-14T12:23:37Z</time>
</trkpt>
<trkpt lat="41.66156" lon="1.97616">
<ele>899</ele>
<time>2012-03-14T12:23:39Z</time>
</trkpt>
<trkpt lat="41.6615" lon="1.9761">
<ele>896</ele>
<time>2012-03-14T12:23:42Z</time>
</trkpt>
<trkpt lat="41.66145" lon="1.97608">
<ele>892</ele>
<time>2012-03-14T12:23:47Z</time>
</trkpt>
<trkpt lat="41.6614" lon="1.97605">
<ele>889</ele>
<time>2012-03-14T12:23:51Z</time>
</trkpt>
<trkpt lat="41.66134" lon="1.97606">
<ele>887</ele>
<time>2012-03-14T12:23:55Z</time>
</trkpt>
<trkpt lat="41.66129" lon="1.97606">
<ele>886</ele>
<time>2012-03-14T12:23:59Z</time>
</trkpt>
<trkpt lat="41.66125" lon="1.97603">
<ele>882</ele>
<time>2012-03-14T12:24:05Z</time>
</trkpt>
<trkpt lat="41.66125" lon="1.97603">
<ele>882</ele>
<time>2012-03-14T12:24:05Z</time>
</trkpt>
<trkpt lat="41.66125" lon="1.97603">
<ele>882</ele>
<time>2012-03-14T12:24:06Z</time>
</trkpt>
<trkpt lat="41.6612" lon="1.97603">
<ele>879</ele>
<time>2012-03-14T12:24:11Z</time>
</trkpt>
<trkpt lat="41.66114" lon="1.97601">
<ele>878</ele>
<time>2012-03-14T12:24:15Z</time>
</trkpt>
<trkpt lat="41.6611" lon="1.97597">
<ele>875</ele>
<time>2012-03-14T12:24:20Z</time>
</trkpt>
<trkpt lat="41.66105" lon="1.97594">
<ele>874</ele>
<time>2012-03-14T12:24:24Z</time>
</trkpt>
<trkpt lat="41.661" lon="1.97596">
<ele>872</ele>
<time>2012-03-14T12:24:32Z</time>
</trkpt>
<trkpt lat="41.66095" lon="1.9759">
<ele>869</ele>
<time>2012-03-14T12:24:37Z</time>
</trkpt>
<trkpt lat="41.6609" lon="1.97589">
<ele>868</ele>
<time>2012-03-14T12:24:40Z</time>
</trkpt>
<trkpt lat="41.66085" lon="1.97584">
<ele>866</ele>
<time>2012-03-14T12:24:47Z</time>
</trkpt>
<trkpt lat="41.66081" lon="1.97581">
<ele>860</ele>
<time>2012-03-14T12:24:59Z</time>
</trkpt>
<trkpt lat="41.66076" lon="1.97581">
<ele>860</ele>
<time>2012-03-14T12:25:03Z</time>
</trkpt>
<trkpt lat="41.6607" lon="1.97581">
<ele>860</ele>
<time>2012-03-14T12:25:07Z</time>
</trkpt>
<trkpt lat="41.66069" lon="1.97588">
<ele>857</ele>
<time>2012-03-14T12:26:13Z</time>
</trkpt>
<trkpt lat="41.66063" lon="1.9759">
<ele>856</ele>
<time>2012-03-14T12:26:20Z</time>
</trkpt>
<trkpt lat="41.66057" lon="1.97591">
<ele>856</ele>
<time>2012-03-14T12:26:24Z</time>
</trkpt>
<trkpt lat="41.66053" lon="1.97591">
<ele>856</ele>
<time>2012-03-14T12:26:29Z</time>
</trkpt>
<trkpt lat="41.66048" lon="1.97589">
<ele>855</ele>
<time>2012-03-14T12:26:33Z</time>
</trkpt>
<trkpt lat="41.66044" lon="1.97584">
<ele>855</ele>
<time>2012-03-14T12:26:36Z</time>
</trkpt>
<trkpt lat="41.66039" lon="1.97583">
<ele>854</ele>
<time>2012-03-14T12:26:39Z</time>
</trkpt>
<trkpt lat="41.66033" lon="1.97584">
<ele>853</ele>
<time>2012-03-14T12:26:42Z</time>
</trkpt>
<trkpt lat="41.66027" lon="1.97585">
<ele>851</ele>
<time>2012-03-14T12:26:44Z</time>
</trkpt>
<trkpt lat="41.66022" lon="1.97586">
<ele>850</ele>
<time>2012-03-14T12:26:47Z</time>
</trkpt>
<trkpt lat="41.66017" lon="1.97582">
<ele>850</ele>
<time>2012-03-14T12:26:50Z</time>
</trkpt>
<trkpt lat="41.66013" lon="1.97576">
<ele>854</ele>
<time>2012-03-14T12:26:52Z</time>
</trkpt>
<trkpt lat="41.66009" lon="1.97574">
<ele>854</ele>
<time>2012-03-14T12:26:54Z</time>
</trkpt>
<trkpt lat="41.66004" lon="1.97575">
<ele>854</ele>
<time>2012-03-14T12:26:57Z</time>
</trkpt>
<trkpt lat="41.65999" lon="1.97574">
<ele>854</ele>
<time>2012-03-14T12:27:01Z</time>
</trkpt>
<trkpt lat="41.65994" lon="1.97572">
<ele>853</ele>
<time>2012-03-14T12:27:05Z</time>
</trkpt>
<trkpt lat="41.65988" lon="1.97574">
<ele>852</ele>
<time>2012-03-14T12:27:11Z</time>
</trkpt>
<trkpt lat="41.65982" lon="1.97571">
<ele>851</ele>
<time>2012-03-14T12:27:16Z</time>
</trkpt>
<trkpt lat="41.65978" lon="1.97568">
<ele>850</ele>
<time>2012-03-14T12:27:20Z</time>
</trkpt>
<trkpt lat="41.65973" lon="1.97563">
<ele>849</ele>
<time>2012-03-14T12:27:24Z</time>
</trkpt>
<trkpt lat="41.65968" lon="1.97559">
<ele>848</ele>
<time>2012-03-14T12:27:26Z</time>
</trkpt>
<trkpt lat="41.65964" lon="1.97554">
<ele>849</ele>
<time>2012-03-14T12:27:30Z</time>
</trkpt>
<trkpt lat="41.65959" lon="1.97552">
<ele>848</ele>
<time>2012-03-14T12:27:34Z</time>
</trkpt>
<trkpt lat="41.65955" lon="1.97547">
<ele>848</ele>
<time>2012-03-14T12:27:37Z</time>
</trkpt>
<trkpt lat="41.6595" lon="1.97546">
<ele>846</ele>
<time>2012-03-14T12:27:41Z</time>
</trkpt>
<trkpt lat="41.65945" lon="1.97542">
<ele>848</ele>
<time>2012-03-14T12:27:44Z</time>
</trkpt>
<trkpt lat="41.65939" lon="1.9754">
<ele>847</ele>
<time>2012-03-14T12:27:48Z</time>
</trkpt>
<trkpt lat="41.65934" lon="1.97536">
<ele>845</ele>
<time>2012-03-14T12:27:53Z</time>
</trkpt>
<trkpt lat="41.6593" lon="1.97532">
<ele>847</ele>
<time>2012-03-14T12:27:57Z</time>
</trkpt>
<trkpt lat="41.65926" lon="1.97529">
<ele>844</ele>
<time>2012-03-14T12:28:00Z</time>
</trkpt>
<trkpt lat="41.65922" lon="1.97525">
<ele>842</ele>
<time>2012-03-14T12:28:03Z</time>
</trkpt>
<trkpt lat="41.65917" lon="1.97522">
<ele>841</ele>
<time>2012-03-14T12:28:06Z</time>
</trkpt>
<trkpt lat="41.65914" lon="1.97518">
<ele>843</ele>
<time>2012-03-14T12:28:09Z</time>
</trkpt>
<trkpt lat="41.65909" lon="1.97516">
<ele>843</ele>
<time>2012-03-14T12:28:12Z</time>
</trkpt>
<trkpt lat="41.65905" lon="1.97513">
<ele>842</ele>
<time>2012-03-14T12:28:15Z</time>
</trkpt>
<trkpt lat="41.659" lon="1.97513">
<ele>840</ele>
<time>2012-03-14T12:28:18Z</time>
</trkpt>
<trkpt lat="41.65895" lon="1.97514">
<ele>839</ele>
<time>2012-03-14T12:28:21Z</time>
</trkpt>
<trkpt lat="41.6589" lon="1.97514">
<ele>839</ele>
<time>2012-03-14T12:28:24Z</time>
</trkpt>
<trkpt lat="41.65885" lon="1.97513">
<ele>838</ele>
<time>2012-03-14T12:28:27Z</time>
</trkpt>
<trkpt lat="41.6588" lon="1.97512">
<ele>838</ele>
<time>2012-03-14T12:28:30Z</time>
</trkpt>
<trkpt lat="41.65875" lon="1.97513">
<ele>838</ele>
<time>2012-03-14T12:28:34Z</time>
</trkpt>
<trkpt lat="41.65869" lon="1.97513">
<ele>834</ele>
<time>2012-03-14T12:28:38Z</time>
</trkpt>
<trkpt lat="41.65864" lon="1.97511">
<ele>834</ele>
<time>2012-03-14T12:28:41Z</time>
</trkpt>
<trkpt lat="41.65857" lon="1.97512">
<ele>833</ele>
<time>2012-03-14T12:28:45Z</time>
</trkpt>
<trkpt lat="41.65852" lon="1.97511">
<ele>833</ele>
<time>2012-03-14T12:28:49Z</time>
</trkpt>
<trkpt lat="41.65847" lon="1.97512">
<ele>831</ele>
<time>2012-03-14T12:28:53Z</time>
</trkpt>
<trkpt lat="41.65843" lon="1.97507">
<ele>822</ele>
<time>2012-03-14T12:28:58Z</time>
</trkpt>
<trkpt lat="41.65838" lon="1.97508">
<ele>826</ele>
<time>2012-03-14T12:29:01Z</time>
</trkpt>
<trkpt lat="41.65833" lon="1.97507">
<ele>823</ele>
<time>2012-03-14T12:29:05Z</time>
</trkpt>
<trkpt lat="41.65828" lon="1.97506">
<ele>822</ele>
<time>2012-03-14T12:29:08Z</time>
</trkpt>
<trkpt lat="41.65822" lon="1.97506">
<ele>823</ele>
<time>2012-03-14T12:29:12Z</time>
</trkpt>
<trkpt lat="41.65818" lon="1.97506">
<ele>823</ele>
<time>2012-03-14T12:29:15Z</time>
</trkpt>
<trkpt lat="41.65813" lon="1.97505">
<ele>823</ele>
<time>2012-03-14T12:29:18Z</time>
</trkpt>
<trkpt lat="41.65808" lon="1.97508">
<ele>823</ele>
<time>2012-03-14T12:29:22Z</time>
</trkpt>
<trkpt lat="41.65805" lon="1.97512">
<ele>824</ele>
<time>2012-03-14T12:29:24Z</time>
</trkpt>
<trkpt lat="41.65799" lon="1.97518">
<ele>825</ele>
<time>2012-03-14T12:29:28Z</time>
</trkpt>
<trkpt lat="41.65796" lon="1.97523">
<ele>825</ele>
<time>2012-03-14T12:29:32Z</time>
</trkpt>
<trkpt lat="41.65793" lon="1.9753">
<ele>824</ele>
<time>2012-03-14T12:29:35Z</time>
</trkpt>
<trkpt lat="41.65788" lon="1.97532">
<ele>824</ele>
<time>2012-03-14T12:29:38Z</time>
</trkpt>
<trkpt lat="41.65783" lon="1.97536">
<ele>821</ele>
<time>2012-03-14T12:29:41Z</time>
</trkpt>
<trkpt lat="41.65778" lon="1.97537">
<ele>822</ele>
<time>2012-03-14T12:29:44Z</time>
</trkpt>
<trkpt lat="41.65774" lon="1.9754">
<ele>821</ele>
<time>2012-03-14T12:29:47Z</time>
</trkpt>
<trkpt lat="41.65769" lon="1.97543">
<ele>822</ele>
<time>2012-03-14T12:29:50Z</time>
</trkpt>
<trkpt lat="41.65764" lon="1.97542">
<ele>822</ele>
<time>2012-03-14T12:29:53Z</time>
</trkpt>
<trkpt lat="41.65759" lon="1.97542">
<ele>822</ele>
<time>2012-03-14T12:29:57Z</time>
</trkpt>
<trkpt lat="41.65759" lon="1.97542">
<ele>822</ele>
<time>2012-03-14T12:29:57Z</time>
</trkpt>
<trkpt lat="41.65759" lon="1.97542">
<ele>823</ele>
<time>2012-03-14T12:29:58Z</time>
</trkpt>
<trkpt lat="41.65754" lon="1.97541">
<ele>823</ele>
<time>2012-03-14T12:30:02Z</time>
</trkpt>
<trkpt lat="41.6575" lon="1.97538">
<ele>820</ele>
<time>2012-03-14T12:30:06Z</time>
</trkpt>
<trkpt lat="41.65745" lon="1.97537">
<ele>821</ele>
<time>2012-03-14T12:30:10Z</time>
</trkpt>
<trkpt lat="41.65739" lon="1.97535">
<ele>822</ele>
<time>2012-03-14T12:30:14Z</time>
</trkpt>
<trkpt lat="41.65733" lon="1.97534">
<ele>820</ele>
<time>2012-03-14T12:30:18Z</time>
</trkpt>
<trkpt lat="41.65729" lon="1.97533">
<ele>820</ele>
<time>2012-03-14T12:30:21Z</time>
</trkpt>
<trkpt lat="41.65724" lon="1.97531">
<ele>819</ele>
<time>2012-03-14T12:30:24Z</time>
</trkpt>
<trkpt lat="41.65719" lon="1.9753">
<ele>818</ele>
<time>2012-03-14T12:30:28Z</time>
</trkpt>
<trkpt lat="41.65714" lon="1.97525">
<ele>816</ele>
<time>2012-03-14T12:30:32Z</time>
</trkpt>
<trkpt lat="41.65709" lon="1.97524">
<ele>815</ele>
<time>2012-03-14T12:30:35Z</time>
</trkpt>
<trkpt lat="41.65704" lon="1.97521">
<ele>812</ele>
<time>2012-03-14T12:30:38Z</time>
</trkpt>
<trkpt lat="41.65697" lon="1.97523">
<ele>816</ele>
<time>2012-03-14T12:30:41Z</time>
</trkpt>
<trkpt lat="41.65692" lon="1.97525">
<ele>820</ele>
<time>2012-03-14T12:30:43Z</time>
</trkpt>
<trkpt lat="41.65687" lon="1.97523">
<ele>818</ele>
<time>2012-03-14T12:30:46Z</time>
</trkpt>
<trkpt lat="41.65682" lon="1.97522">
<ele>818</ele>
<time>2012-03-14T12:30:49Z</time>
</trkpt>
<trkpt lat="41.65678" lon="1.97519">
<ele>821</ele>
<time>2012-03-14T12:30:52Z</time>
</trkpt>
<trkpt lat="41.65672" lon="1.97516">
<ele>822</ele>
<time>2012-03-14T12:30:56Z</time>
</trkpt>
<trkpt lat="41.65669" lon="1.97511">
<ele>819</ele>
<time>2012-03-14T12:31:00Z</time>
</trkpt>
<trkpt lat="41.65665" lon="1.97506">
<ele>817</ele>
<time>2012-03-14T12:31:04Z</time>
</trkpt>
<trkpt lat="41.6566" lon="1.97501">
<ele>817</ele>
<time>2012-03-14T12:31:08Z</time>
</trkpt>
<trkpt lat="41.65656" lon="1.97495">
<ele>817</ele>
<time>2012-03-14T12:31:12Z</time>
</trkpt>
<trkpt lat="41.65651" lon="1.97493">
<ele>816</ele>
<time>2012-03-14T12:31:15Z</time>
</trkpt>
<trkpt lat="41.65645" lon="1.97491">
<ele>816</ele>
<time>2012-03-14T12:31:19Z</time>
</trkpt>
<trkpt lat="41.6564" lon="1.9749">
<ele>814</ele>
<time>2012-03-14T12:31:22Z</time>
</trkpt>
<trkpt lat="41.65635" lon="1.9749">
<ele>814</ele>
<time>2012-03-14T12:31:25Z</time>
</trkpt>
<trkpt lat="41.6563" lon="1.97488">
<ele>812</ele>
<time>2012-03-14T12:31:29Z</time>
</trkpt>
<trkpt lat="41.65626" lon="1.97484">
<ele>812</ele>
<time>2012-03-14T12:31:33Z</time>
</trkpt>
<trkpt lat="41.65622" lon="1.97478">
<ele>808</ele>
<time>2012-03-14T12:31:37Z</time>
</trkpt>
<trkpt lat="41.6562" lon="1.97473">
<ele>806</ele>
<time>2012-03-14T12:31:40Z</time>
</trkpt>
<trkpt lat="41.65616" lon="1.97468">
<ele>805</ele>
<time>2012-03-14T12:31:44Z</time>
</trkpt>
<trkpt lat="41.65612" lon="1.97463">
<ele>805</ele>
<time>2012-03-14T12:31:48Z</time>
</trkpt>
<trkpt lat="41.65606" lon="1.97459">
<ele>805</ele>
<time>2012-03-14T12:31:51Z</time>
</trkpt>
<trkpt lat="41.65601" lon="1.97456">
<ele>804</ele>
<time>2012-03-14T12:31:55Z</time>
</trkpt>
<trkpt lat="41.65597" lon="1.97452">
<ele>808</ele>
<time>2012-03-14T12:31:59Z</time>
</trkpt>
<trkpt lat="41.65592" lon="1.97449">
<ele>807</ele>
<time>2012-03-14T12:32:03Z</time>
</trkpt>
<trkpt lat="41.65588" lon="1.97445">
<ele>807</ele>
<time>2012-03-14T12:32:08Z</time>
</trkpt>
<trkpt lat="41.65584" lon="1.97443">
<ele>808</ele>
<time>2012-03-14T12:32:11Z</time>
</trkpt>
<trkpt lat="41.65579" lon="1.97442">
<ele>811</ele>
<time>2012-03-14T12:32:14Z</time>
</trkpt>
<trkpt lat="41.65574" lon="1.97442">
<ele>812</ele>
<time>2012-03-14T12:32:17Z</time>
</trkpt>
<trkpt lat="41.65569" lon="1.97443">
<ele>813</ele>
<time>2012-03-14T12:32:20Z</time>
</trkpt>
<trkpt lat="41.65563" lon="1.97444">
<ele>813</ele>
<time>2012-03-14T12:32:23Z</time>
</trkpt>
<trkpt lat="41.65558" lon="1.97445">
<ele>813</ele>
<time>2012-03-14T12:32:26Z</time>
</trkpt>
<trkpt lat="41.65552" lon="1.97446">
<ele>806</ele>
<time>2012-03-14T12:32:31Z</time>
</trkpt>
<trkpt lat="41.65547" lon="1.97447">
<ele>801</ele>
<time>2012-03-14T12:32:36Z</time>
</trkpt>
<trkpt lat="41.65541" lon="1.97448">
<ele>799</ele>
<time>2012-03-14T12:32:40Z</time>
</trkpt>
<trkpt lat="41.65536" lon="1.97448">
<ele>801</ele>
<time>2012-03-14T12:32:43Z</time>
</trkpt>
<trkpt lat="41.65531" lon="1.97451">
<ele>803</ele>
<time>2012-03-14T12:32:47Z</time>
</trkpt>
<trkpt lat="41.65527" lon="1.97457">
<ele>801</ele>
<time>2012-03-14T12:32:50Z</time>
</trkpt>
<trkpt lat="41.65523" lon="1.97461">
<ele>801</ele>
<time>2012-03-14T12:32:53Z</time>
</trkpt>
<trkpt lat="41.65517" lon="1.97464">
<ele>797</ele>
<time>2012-03-14T12:32:57Z</time>
</trkpt>
<trkpt lat="41.65512" lon="1.97466">
<ele>794</ele>
<time>2012-03-14T12:33:00Z</time>
</trkpt>
<trkpt lat="41.65508" lon="1.97469">
<ele>795</ele>
<time>2012-03-14T12:33:03Z</time>
</trkpt>
<trkpt lat="41.65508" lon="1.97469">
<ele>795</ele>
<time>2012-03-14T12:33:03Z</time>
</trkpt>
<trkpt lat="41.65508" lon="1.97469">
<ele>795</ele>
<time>2012-03-14T12:33:05Z</time>
</trkpt>
<trkpt lat="41.65503" lon="1.97471">
<ele>795</ele>
<time>2012-03-14T12:33:08Z</time>
</trkpt>
<trkpt lat="41.655" lon="1.97476">
<ele>795</ele>
<time>2012-03-14T12:33:13Z</time>
</trkpt>
<trkpt lat="41.65497" lon="1.97481">
<ele>796</ele>
<time>2012-03-14T12:33:15Z</time>
</trkpt>
<trkpt lat="41.65492" lon="1.97485">
<ele>796</ele>
<time>2012-03-14T12:33:18Z</time>
</trkpt>
<trkpt lat="41.6549" lon="1.97491">
<ele>800</ele>
<time>2012-03-14T12:33:21Z</time>
</trkpt>
<trkpt lat="41.65487" lon="1.97495">
<ele>800</ele>
<time>2012-03-14T12:33:24Z</time>
</trkpt>
<trkpt lat="41.65484" lon="1.97501">
<ele>800</ele>
<time>2012-03-14T12:33:28Z</time>
</trkpt>
<trkpt lat="41.6548" lon="1.97504">
<ele>800</ele>
<time>2012-03-14T12:33:32Z</time>
</trkpt>
<trkpt lat="41.65474" lon="1.97506">
<ele>799</ele>
<time>2012-03-14T12:33:35Z</time>
</trkpt>
<trkpt lat="41.65468" lon="1.97508">
<ele>800</ele>
<time>2012-03-14T12:33:39Z</time>
</trkpt>
<trkpt lat="41.65464" lon="1.97512">
<ele>799</ele>
<time>2012-03-14T12:33:42Z</time>
</trkpt>
<trkpt lat="41.65459" lon="1.97513">
<ele>801</ele>
<time>2012-03-14T12:33:45Z</time>
</trkpt>
<trkpt lat="41.65454" lon="1.97515">
<ele>800</ele>
<time>2012-03-14T12:33:50Z</time>
</trkpt>
<trkpt lat="41.65449" lon="1.97515">
<ele>801</ele>
<time>2012-03-14T12:33:54Z</time>
</trkpt>
<trkpt lat="41.65444" lon="1.97518">
<ele>801</ele>
<time>2012-03-14T12:33:58Z</time>
</trkpt>
<trkpt lat="41.6544" lon="1.97522">
<ele>801</ele>
<time>2012-03-14T12:34:02Z</time>
</trkpt>
<trkpt lat="41.65437" lon="1.97528">
<ele>801</ele>
<time>2012-03-14T12:34:06Z</time>
</trkpt>
<trkpt lat="41.65432" lon="1.97533">
<ele>802</ele>
<time>2012-03-14T12:34:10Z</time>
</trkpt>
<trkpt lat="41.65427" lon="1.97538">
<ele>801</ele>
<time>2012-03-14T12:34:13Z</time>
</trkpt>
<trkpt lat="41.65422" lon="1.97541">
<ele>802</ele>
<time>2012-03-14T12:34:16Z</time>
</trkpt>
<trkpt lat="41.65418" lon="1.97547">
<ele>802</ele>
<time>2012-03-14T12:34:19Z</time>
</trkpt>
<trkpt lat="41.65412" lon="1.97546">
<ele>801</ele>
<time>2012-03-14T12:34:23Z</time>
</trkpt>
<trkpt lat="41.65408" lon="1.97553">
<ele>804</ele>
<time>2012-03-14T12:34:41Z</time>
</trkpt>
<trkpt lat="41.65405" lon="1.97563">
<ele>804</ele>
<time>2012-03-14T12:34:59Z</time>
</trkpt>
<trkpt lat="41.65404" lon="1.97569">
<ele>803</ele>
<time>2012-03-14T12:35:01Z</time>
</trkpt>
<trkpt lat="41.65402" lon="1.97576">
<ele>804</ele>
<time>2012-03-14T12:35:04Z</time>
</trkpt>
<trkpt lat="41.65399" lon="1.97581">
<ele>803</ele>
<time>2012-03-14T12:35:07Z</time>
</trkpt>
<trkpt lat="41.65393" lon="1.97586">
<ele>803</ele>
<time>2012-03-14T12:35:18Z</time>
</trkpt>
<trkpt lat="41.6539" lon="1.97594">
<ele>802</ele>
<time>2012-03-14T12:35:20Z</time>
</trkpt>
<trkpt lat="41.65386" lon="1.976">
<ele>801</ele>
<time>2012-03-14T12:35:23Z</time>
</trkpt>
<trkpt lat="41.65384" lon="1.97607">
<ele>802</ele>
<time>2012-03-14T12:35:25Z</time>
</trkpt>
<trkpt lat="41.65382" lon="1.97614">
<ele>802</ele>
<time>2012-03-14T12:35:29Z</time>
</trkpt>
<trkpt lat="41.65378" lon="1.97618">
<ele>801</ele>
<time>2012-03-14T12:35:33Z</time>
</trkpt>
<trkpt lat="41.65375" lon="1.97624">
<ele>799</ele>
<time>2012-03-14T12:35:37Z</time>
</trkpt>
<trkpt lat="41.65374" lon="1.9763">
<ele>798</ele>
<time>2012-03-14T12:35:40Z</time>
</trkpt>
<trkpt lat="41.65371" lon="1.97638">
<ele>797</ele>
<time>2012-03-14T12:35:44Z</time>
</trkpt>
<trkpt lat="41.65369" lon="1.97644">
<ele>795</ele>
<time>2012-03-14T12:35:46Z</time>
</trkpt>
<trkpt lat="41.65366" lon="1.97649">
<ele>793</ele>
<time>2012-03-14T12:35:48Z</time>
</trkpt>
<trkpt lat="41.65364" lon="1.97655">
<ele>790</ele>
<time>2012-03-14T12:35:50Z</time>
</trkpt>
<trkpt lat="41.65362" lon="1.97663">
<ele>789</ele>
<time>2012-03-14T12:35:53Z</time>
</trkpt>
<trkpt lat="41.65358" lon="1.97668">
<ele>788</ele>
<time>2012-03-14T12:35:58Z</time>
</trkpt>
<trkpt lat="41.65356" lon="1.97674">
<ele>787</ele>
<time>2012-03-14T12:36:02Z</time>
</trkpt>
<trkpt lat="41.65356" lon="1.97674">
<ele>787</ele>
<time>2012-03-14T12:36:02Z</time>
</trkpt>
<trkpt lat="41.65356" lon="1.97674">
<ele>787</ele>
<time>2012-03-14T12:36:03Z</time>
</trkpt>
<trkpt lat="41.65354" lon="1.97682">
<ele>785</ele>
<time>2012-03-14T12:36:09Z</time>
</trkpt>
<trkpt lat="41.6535" lon="1.97686">
<ele>785</ele>
<time>2012-03-14T12:36:12Z</time>
</trkpt>
<trkpt lat="41.65347" lon="1.9769">
<ele>784</ele>
<time>2012-03-14T12:36:16Z</time>
</trkpt>
<trkpt lat="41.65342" lon="1.97693">
<ele>783</ele>
<time>2012-03-14T12:36:19Z</time>
</trkpt>
<trkpt lat="41.65337" lon="1.97698">
<ele>781</ele>
<time>2012-03-14T12:36:22Z</time>
</trkpt>
<trkpt lat="41.65332" lon="1.97699">
<ele>780</ele>
<time>2012-03-14T12:36:25Z</time>
</trkpt>
<trkpt lat="41.65327" lon="1.97697">
<ele>781</ele>
<time>2012-03-14T12:36:28Z</time>
</trkpt>
<trkpt lat="41.65324" lon="1.97692">
<ele>779</ele>
<time>2012-03-14T12:36:33Z</time>
</trkpt>
<trkpt lat="41.65321" lon="1.97685">
<ele>779</ele>
<time>2012-03-14T12:36:36Z</time>
</trkpt>
<trkpt lat="41.65319" lon="1.97679">
<ele>777</ele>
<time>2012-03-14T12:36:39Z</time>
</trkpt>
<trkpt lat="41.65313" lon="1.97677">
<ele>776</ele>
<time>2012-03-14T12:36:44Z</time>
</trkpt>
<trkpt lat="41.65308" lon="1.97673">
<ele>776</ele>
<time>2012-03-14T12:36:48Z</time>
</trkpt>
<trkpt lat="41.65303" lon="1.9767">
<ele>776</ele>
<time>2012-03-14T12:36:53Z</time>
</trkpt>
<trkpt lat="41.65299" lon="1.97665">
<ele>776</ele>
<time>2012-03-14T12:36:58Z</time>
</trkpt>
<trkpt lat="41.65295" lon="1.97659">
<ele>777</ele>
<time>2012-03-14T12:37:02Z</time>
</trkpt>
<trkpt lat="41.6529" lon="1.97655">
<ele>777</ele>
<time>2012-03-14T12:37:05Z</time>
</trkpt>
<trkpt lat="41.65288" lon="1.97649">
<ele>778</ele>
<time>2012-03-14T12:37:10Z</time>
</trkpt>
<trkpt lat="41.65284" lon="1.97655">
<ele>783</ele>
<time>2012-03-14T12:37:18Z</time>
</trkpt>
</trkseg>
</trk>
</gpx>
